Darstellungsparameter: Aktuell verwendete Einstellungen:
Skalierung der Graphiken ... ?
xyx+y,   Skalierungsfaktor:      Skalierung: Modus: x, Faktor: 1
Darstellungszeitraum ... ?
Vom - - bis: - -   Zeitraum: 14.05.2009 - 13.11.2009
Min/Max/Avg-Anzeige ... ?
Zeige MMA aktuell
Zeige MMA Monat
Zeige MMA alles
Zeige --A aktuell
Zeige --A Monat
Zeige --A alles
Keine MMA-Anzeige
MMA:
Minimum Maximum Average (ber die Originaldaten)
MMA-Basis: 14.04.2020 - 16.05.2020
Quicknavigation für Darstellung... ?
Tage:      1T, 2T, 3T, 5T -1T -2T -3T -5T +1T +2T +3T +5T
Wochen: 1W, 2W, 3W -1W -2W -3W +1W +2W +3W
Monate: 1M, 3M, 6M -1M -3M -6M +1M +3M +6M
Jahre:    1J, 3J, 5J, 10J -1J -3J -5J -10J +1J +3J +5J +10J
Nutze für die Darstellung ... ?
Originaldaten oder Mittelwerte auf ...
Stundenbasis Tagesbasis Wochenbasis
Monatsbasis Jahresbasis      Datenbasis: Original-Daten
Darstellen als:
Statistik (Auto) Statistik J:M      Darstellung:
Zur Graphik,    zurück zur Übersicht aller Sensoren.
 
Tabellarische Datenbersicht: ?
 
Sensor: Nr:Datum:Temp:Abs-Feuchte:Windchill:Wind:
Aussen-T/F 1 14-05-2009 00:11:35 14 C 10.01 g/m*3 14 C 0 km/h
2 14-05-2009 00:26:35 14 C 10.01 g/m*3 14 C 0 km/h
3 14-05-2009 00:41:35 13.8 C 9.89 g/m*3 13.8 C 0 km/h
4 14-05-2009 00:56:35 13.8 C 9.89 g/m*3 13.8 C 0 km/h
5 14-05-2009 01:11:35 13.7 C 9.83 g/m*3 13.7 C 0 km/h
6 14-05-2009 01:26:35 13.5 C 9.71 g/m*3 13.5 C 0 km/h
7 14-05-2009 01:41:35 13.4 C 9.65 g/m*3 13.4 C 0 km/h
8 14-05-2009 01:56:35 13.2 C 9.53 g/m*3 13.2 C 0 km/h
9 14-05-2009 02:11:35 13.1 C 9.59 g/m*3 13.1 C 0 km/h
10 14-05-2009 02:26:35 13 C 9.53 g/m*3 13 C 0 km/h
11 14-05-2009 02:41:35 12.9 C 9.58 g/m*3 12.9 C 0 km/h
12 14-05-2009 02:56:35 13 C 9.53 g/m*3 13 C 0 km/h
13 14-05-2009 03:11:35 13.3 C 9.7 g/m*3 13.3 C 0 km/h
14 14-05-2009 03:26:35 13.4 C 9.65 g/m*3 13.4 C 0 km/h
15 14-05-2009 03:41:35 13.2 C 9.42 g/m*3 13.2 C 0 km/h
16 14-05-2009 03:56:35 13.1 C 9.36 g/m*3 13.1 C 0 km/h
17 14-05-2009 04:11:35 13.1 C 9.13 g/m*3 13.1 C 0 km/h
18 14-05-2009 04:26:35 13.2 C 8.84 g/m*3 13.2 C 0 km/h
19 14-05-2009 04:41:35 13.4 C 8.6 g/m*3 13.4 C 0 km/h
20 14-05-2009 04:56:36 13.4 C 8.49 g/m*3 13.4 C 0 km/h
21 14-05-2009 05:11:36 13.5 C 8.66 g/m*3 13.5 C 0 km/h
22 14-05-2009 05:26:36 13.5 C 8.54 g/m*3 13.5 C 0 km/h
23 14-05-2009 05:41:36 13.4 C 8.72 g/m*3 13.4 C 0 km/h
24 14-05-2009 05:56:36 13.3 C 8.66 g/m*3 13.3 C 0 km/h
25 14-05-2009 06:11:36 13.2 C 8.73 g/m*3 13.2 C 0 km/h
Sensor: Nr:Datum:Temp:Abs-Feuchte:Windchill:Wind:
Aussen-T/F 26 14-05-2009 06:26:36 13.3 C 8.66 g/m*3 13.3 C 0 km/h
27 14-05-2009 06:41:36 13.4 C 8.6 g/m*3 13.4 C 0 km/h
28 14-05-2009 06:56:36 13.6 C 8.36 g/m*3 13.6 C 0 km/h
29 14-05-2009 07:11:36 13.7 C 8.64 g/m*3 13.7 C 0 km/h
30 14-05-2009 07:26:36 13.8 C 8.82 g/m*3 13.8 C 0 km/h
31 14-05-2009 07:41:36 13.8 C 8.82 g/m*3 13.8 C 0 km/h
32 14-05-2009 07:56:36 13.7 C 8.76 g/m*3 13.7 C 0 km/h
33 14-05-2009 08:11:36 13.7 C 8.76 g/m*3 13.7 C 0 km/h
34 14-05-2009 08:26:36 13.9 C 8.75 g/m*3 13.9 C 0 km/h
35 14-05-2009 08:41:36 14.4 C 8.53 g/m*3 14.4 C 0 km/h
36 14-05-2009 08:56:36 14.5 C 8.71 g/m*3 14.5 C 0 km/h
37 14-05-2009 09:11:36 14.7 C 8.81 g/m*3 14.7 C 0 km/h
38 14-05-2009 09:26:36 15 C 8.59 g/m*3 15 C 0 km/h
39 14-05-2009 09:41:37 15.1 C 7.74 g/m*3 15.1 C 0 km/h
40 14-05-2009 09:56:37 15.5 C 8.06 g/m*3 15.5 C 0 km/h
41 14-05-2009 10:11:37 15.5 C 8.06 g/m*3 15.5 C 0 km/h
42 14-05-2009 10:26:37 15.5 C 8.46 g/m*3 15.5 C 0 km/h
43 14-05-2009 10:41:37 15.6 C 8.11 g/m*3 15.6 C 0 km/h
44 14-05-2009 10:56:37 15.6 C 7.98 g/m*3 15.6 C 0 km/h
45 14-05-2009 11:11:37 15.8 C 7.94 g/m*3 15.8 C 0 km/h
46 14-05-2009 11:26:37 16.3 C 8.19 g/m*3 16.3 C 0 km/h
47 14-05-2009 11:41:37 16.9 C 8.2 g/m*3 16.9 C 0 km/h
48 14-05-2009 11:56:37 17.2 C 8.2 g/m*3 17.2 C 0 km/h
49 14-05-2009 12:11:37 17 C 8.39 g/m*3 17 C 0 km/h
50 14-05-2009 12:26:37 17 C 8.54 g/m*3 17 C 0 km/h
Sensor: Nr:Datum:Temp:Abs-Feuchte:Windchill:Wind:
Aussen-T/F 51 14-05-2009 12:41:37 17.4 C 8.45 g/m*3 17.4 C 0 km/h
52 14-05-2009 12:56:37 17.5 C 8.8 g/m*3 17.5 C 0 km/h
53 14-05-2009 13:11:37 17.5 C 8.65 g/m*3 17.5 C 0 km/h
54 14-05-2009 13:26:37 17.9 C 8.7 g/m*3 17.9 C 0 km/h
55 14-05-2009 13:41:37 18.4 C 8.65 g/m*3 18.4 C 0 km/h
56 14-05-2009 13:56:37 18.9 C 8.59 g/m*3 18.9 C 0 km/h
57 14-05-2009 14:11:37 19.9 C 8.42 g/m*3 19.9 C 0 km/h
58 14-05-2009 14:26:38 21.1 C 8.29 g/m*3 21.1 C 0 km/h
59 14-05-2009 14:41:38 21.5 C 8.11 g/m*3 21.5 C 0 km/h
60 14-05-2009 14:56:38 22.3 C 7.9 g/m*3 22.3 C 0 km/h
61 14-05-2009 15:11:38 21.2 C 8.34 g/m*3 21.2 C 0 km/h
62 14-05-2009 15:26:38 21.1 C 8.29 g/m*3 21.1 C 0 km/h
63 14-05-2009 15:41:38 22 C 8.54 g/m*3 22 C 0 km/h
64 14-05-2009 15:56:38 24.9 C 8.01 g/m*3 24.9 C 0 km/h
65 14-05-2009 16:11:38 25.4 C 7.53 g/m*3 25.4 C 0 km/h
66 14-05-2009 16:26:38 23 C 7.81 g/m*3 23 C 0 km/h
67 14-05-2009 16:41:38 21.8 C 8.44 g/m*3 21.8 C 0 km/h
68 14-05-2009 16:56:38 20.5 C 8.54 g/m*3 20.5 C 0 km/h
69 14-05-2009 17:11:38 20.2 C 8.57 g/m*3 20.2 C 0 km/h
70 14-05-2009 17:26:38 19.6 C 8.95 g/m*3 19.6 C 0 km/h
71 14-05-2009 17:41:38 19.6 C 8.95 g/m*3 19.6 C 0 km/h
72 14-05-2009 17:56:38 19.3 C 9.29 g/m*3 19.3 C 0 km/h
73 14-05-2009 18:11:38 19.1 C 9.51 g/m*3 19.1 C 0 km/h
74 14-05-2009 18:26:38 19 C 9.13 g/m*3 19 C 0 km/h
75 14-05-2009 18:41:38 18.9 C 9.56 g/m*3 18.9 C 0 km/h
Sensor: Nr:Datum:Temp:Abs-Feuchte:Windchill:Wind:
Aussen-T/F 76 14-05-2009 18:56:38 18.7 C 9.77 g/m*3 18.7 C 0 km/h
77 14-05-2009 19:11:39 18.3 C 9.38 g/m*3 18.3 C 0 km/h
78 14-05-2009 19:26:39 18 C 9.52 g/m*3 18 C 0 km/h
79 14-05-2009 19:41:39 17.4 C 9.93 g/m*3 17.4 C 0 km/h
80 14-05-2009 19:56:39 16.4 C 10.61 g/m*3 16.4 C 0 km/h
81 14-05-2009 20:11:39 16 C 11.04 g/m*3 16 C 0 km/h
82 14-05-2009 20:26:39 15.6 C 11.3 g/m*3 15.6 C 0 km/h
83 14-05-2009 20:41:39 15.6 C 11.44 g/m*3 15.6 C 0 km/h
84 14-05-2009 20:56:39 15.3 C 11.36 g/m*3 15.3 C 0 km/h
85 14-05-2009 21:11:39 15.3 C 11.49 g/m*3 15.3 C 0 km/h
86 14-05-2009 21:26:39 15.1 C 11.35 g/m*3 15.1 C 0 km/h
87 14-05-2009 21:41:39 15 C 11.41 g/m*3 15 C 0 km/h
88 14-05-2009 21:56:39 14.5 C 11.19 g/m*3 14.5 C 0 km/h
89 14-05-2009 22:11:39 14.1 C 10.92 g/m*3 14.1 C 0 km/h
90 14-05-2009 22:26:39 14 C 10.98 g/m*3 14 C 0 km/h
91 14-05-2009 22:41:39 13.6 C 10.83 g/m*3 13.6 C 0 km/h
92 14-05-2009 22:56:39 13.6 C 10.83 g/m*3 13.6 C 0 km/h
93 14-05-2009 23:11:39 13.3 C 10.74 g/m*3 13.3 C 0 km/h
94 14-05-2009 23:26:39 13.2 C 10.68 g/m*3 13.2 C 0 km/h
95 14-05-2009 23:41:39 13.2 C 10.68 g/m*3 13.2 C 0 km/h
96 14-05-2009 23:56:40 13 C 10.55 g/m*3 13 C 0 km/h
97 15-05-2009 00:11:40 12.9 C 10.59 g/m*3 12.9 C 0 km/h
98 15-05-2009 00:26:40 12.9 C 10.59 g/m*3 12.9 C 0 km/h
99 15-05-2009 00:41:40 12.7 C 10.46 g/m*3 12.7 C 0 km/h
100 15-05-2009 00:56:40 12.8 C 10.53 g/m*3 12.8 C 0 km/h
Sensor: Nr:Datum:Temp:Abs-Feuchte:Windchill:Wind:
Aussen-T/F 101 15-05-2009 01:11:40 12.9 C 10.59 g/m*3 12.9 C 0 km/h
102 15-05-2009 01:26:40 13 C 10.43 g/m*3 13 C 0 km/h
103 15-05-2009 01:41:40 13.1 C 10.5 g/m*3 13.1 C 0 km/h
104 15-05-2009 01:56:40 13 C 10.43 g/m*3 13 C 0 km/h
105 15-05-2009 02:11:40 13.1 C 10.38 g/m*3 13.1 C 0 km/h
106 15-05-2009 02:26:40 13.1 C 10.38 g/m*3 13.1 C 0 km/h
107 15-05-2009 02:41:40 13.1 C 10.38 g/m*3 13.1 C 0 km/h
108 15-05-2009 02:56:40 13.1 C 10.38 g/m*3 13.1 C 0 km/h
109 15-05-2009 03:11:40 13.1 C 10.38 g/m*3 13.1 C 0 km/h
110 15-05-2009 03:26:40 13.2 C 10.45 g/m*3 13.2 C 0 km/h
111 15-05-2009 03:41:40 13.3 C 10.51 g/m*3 13.3 C 0 km/h
112 15-05-2009 03:56:40 13.2 C 10.45 g/m*3 13.2 C 0 km/h
113 15-05-2009 04:11:40 13.4 C 10.69 g/m*3 13.4 C 0 km/h
114 15-05-2009 04:26:40 13.4 C 10.58 g/m*3 13.4 C 0 km/h
115 15-05-2009 04:41:41 13.4 C 10.58 g/m*3 13.4 C 0 km/h
116 15-05-2009 04:56:41 13.4 C 10.69 g/m*3 13.4 C 0 km/h
117 15-05-2009 05:11:41 13.5 C 10.76 g/m*3 13.5 C 0 km/h
118 15-05-2009 05:26:41 13.6 C 10.83 g/m*3 13.6 C 0 km/h
119 15-05-2009 05:41:41 13.7 C 10.89 g/m*3 13.7 C 0 km/h
120 15-05-2009 05:56:41 13.8 C 10.96 g/m*3 13.8 C 0 km/h
121 15-05-2009 06:11:41 13.7 C 10.78 g/m*3 13.7 C 0 km/h
122 15-05-2009 06:26:41 13.8 C 10.84 g/m*3 13.8 C 0 km/h
123 15-05-2009 06:41:41 14.1 C 11.04 g/m*3 14.1 C 0 km/h
124 15-05-2009 06:56:41 14.4 C 11.13 g/m*3 14.4 C 0 km/h
125 15-05-2009 07:11:41 14.6 C 11.26 g/m*3 14.6 C 0 km/h
Sensor: Nr:Datum:Temp:Abs-Feuchte:Windchill:Wind:
Aussen-T/F 126 15-05-2009 07:26:41 14.6 C 11.14 g/m*3 14.6 C 0 km/h
127 15-05-2009 07:41:41 14.7 C 11.21 g/m*3 14.7 C 0 km/h
128 15-05-2009 07:56:41 15 C 11.41 g/m*3 15 C 0 km/h
129 15-05-2009 08:11:41 15.8 C 12.11 g/m*3 15.8 C 0 km/h
130 15-05-2009 08:26:41 16.3 C 11.93 g/m*3 16.3 C 0 km/h
131 15-05-2009 08:41:41 16.4 C 11.17 g/m*3 16.4 C 0 km/h
132 15-05-2009 08:56:41 16.5 C 10.67 g/m*3 16.5 C 0 km/h
133 15-05-2009 09:11:41 16.7 C 10.8 g/m*3 16.7 C 0 km/h
134 15-05-2009 09:26:41 16.7 C 10.23 g/m*3 16.7 C 0 km/h
135 15-05-2009 09:41:42 16.8 C 10.29 g/m*3 16.8 C 0 km/h
136 15-05-2009 09:56:02 17.2 C 9.96 g/m*3 17.2 C 0 km/h
137 15-05-2009 10:11:01 17.1 C 9.9 g/m*3 17.1 C 0 km/h
138 15-05-2009 10:26:02 17.9 C 9.77 g/m*3 17.9 C 0 km/h
139 15-05-2009 10:41:02 18.4 C 9.59 g/m*3 18.4 C 0 km/h
140 15-05-2009 10:56:01 18.6 C 9.71 g/m*3 18.6 C 0 km/h
141 15-05-2009 11:11:02 19.3 C 9.29 g/m*3 19.3 C 0 km/h
142 15-05-2009 11:26:02 20.1 C 9.04 g/m*3 20.1 C 0 km/h
143 15-05-2009 11:41:01 20.6 C 9.31 g/m*3 20.6 C 0 km/h
144 15-05-2009 11:56:01 20.6 C 8.95 g/m*3 20.6 C 0 km/h
145 15-05-2009 12:11:01 19.9 C 8.59 g/m*3 19.9 C 0 km/h
146 15-05-2009 12:26:00 20 C 8.64 g/m*3 20 C 0 km/h
147 15-05-2009 12:41:00 20.4 C 8.49 g/m*3 20.4 C 0 km/h
148 15-05-2009 12:56:00 19.2 C 8.9 g/m*3 19.2 C 0 km/h
149 15-05-2009 13:11:00 17.5 C 9.84 g/m*3 17.5 C 0 km/h
150 15-05-2009 13:26:00 17 C 10.42 g/m*3 17 C 0 km/h
Sensor: Nr:Datum:Temp:Abs-Feuchte:Windchill:Wind:
Aussen-T/F 151 15-05-2009 13:41:00 17.5 C 10.59 g/m*3 17.5 C 0 km/h
152 15-05-2009 13:56:59 18.2 C 10.26 g/m*3 18.2 C 0 km/h
153 15-05-2009 14:10:59 17.8 C 9.71 g/m*3 17.8 C 0 km/h
154 15-05-2009 14:26:00 17.9 C 10.08 g/m*3 17.9 C 0 km/h
155 15-05-2009 14:41:59 17.3 C 9.87 g/m*3 17.3 C 0 km/h
156 15-05-2009 14:56:59 16.9 C 9.49 g/m*3 16.9 C 0 km/h
157 15-05-2009 15:11:59 16.5 C 9.97 g/m*3 16.5 C 0 km/h
158 15-05-2009 15:26:59 15.9 C 10.43 g/m*3 15.9 C 0 km/h
159 15-05-2009 15:41:58 16.7 C 11.23 g/m*3 16.7 C 0 km/h
160 15-05-2009 15:56:59 17.6 C 11.4 g/m*3 17.6 C 0 km/h
161 15-05-2009 16:11:59 18.3 C 10.94 g/m*3 18.3 C 0 km/h
162 15-05-2009 16:26:58 18.4 C 10.7 g/m*3 18.4 C 0 km/h
163 15-05-2009 16:41:58 18.2 C 10.72 g/m*3 18.2 C 0 km/h
164 15-05-2009 16:56:58 18.3 C 10.79 g/m*3 18.3 C 0 km/h
165 15-05-2009 17:11:58 18 C 10.75 g/m*3 18 C 0 km/h
166 15-05-2009 17:26:57 16.3 C 9.43 g/m*3 16.3 C 0 km/h
167 15-05-2009 17:41:57 16.4 C 10.05 g/m*3 16.4 C 0 km/h
168 15-05-2009 17:49:57 16.2 C 10.2 g/m*3 16.2 C 0 km/h
169 15-05-2009 18:01:57 15.9 C 10.16 g/m*3 15.9 C 0 km/h
170 15-05-2009 18:13:57 15.7 C 10.17 g/m*3 15.7 C 0 km/h
171 15-05-2009 18:25:57 15.5 C 9.91 g/m*3 15.5 C 0 km/h
172 15-05-2009 18:37:56 15.3 C 9.92 g/m*3 15.3 C 0 km/h
173 15-05-2009 18:49:57 14.5 C 9.33 g/m*3 14.5 C 0 km/h
174 15-05-2009 19:01:56 14.1 C 9.22 g/m*3 14.1 C 0 km/h
175 15-05-2009 19:13:56 13.8 C 9.41 g/m*3 13.8 C 0 km/h
Sensor: Nr:Datum:Temp:Abs-Feuchte:Windchill:Wind:
Aussen-T/F 176 15-05-2009 19:25:56 13.7 C 9.59 g/m*3 13.7 C 0 km/h
177 15-05-2009 19:37:57 13.5 C 9.71 g/m*3 13.5 C 0 km/h
178 15-05-2009 19:49:56 13.5 C 9.83 g/m*3 13.5 C 0 km/h
179 15-05-2009 20:01:56 13.5 C 9.83 g/m*3 13.5 C 0 km/h
180 15-05-2009 20:13:56 13.3 C 9.82 g/m*3 13.3 C 0 km/h
181 15-05-2009 20:25:56 13.2 C 9.76 g/m*3 13.2 C 0 km/h
182 15-05-2009 20:37:56 13.2 C 9.76 g/m*3 13.2 C 0 km/h
183 15-05-2009 20:49:55 13.1 C 9.81 g/m*3 13.1 C 0 km/h
184 15-05-2009 21:01:56 12.8 C 9.74 g/m*3 12.8 C 0 km/h
185 15-05-2009 21:13:56 12.7 C 9.8 g/m*3 12.7 C 0 km/h
186 15-05-2009 21:25:55 12.5 C 9.68 g/m*3 12.5 C 0 km/h
187 15-05-2009 21:37:55 12.5 C 9.78 g/m*3 12.5 C 0 km/h
188 15-05-2009 21:49:55 12.5 C 9.78 g/m*3 12.5 C 0 km/h
189 15-05-2009 22:01:55 12.5 C 9.89 g/m*3 12.5 C 0 km/h
190 15-05-2009 22:13:55 12.5 C 9.89 g/m*3 12.5 C 0 km/h
191 15-05-2009 22:25:55 12.5 C 10 g/m*3 12.5 C 0 km/h
192 15-05-2009 22:37:54 12.5 C 10 g/m*3 12.5 C 0 km/h
193 15-05-2009 22:49:55 12.6 C 10.07 g/m*3 12.6 C 0 km/h
194 15-05-2009 23:01:54 12.6 C 10.07 g/m*3 12.6 C 0 km/h
195 15-05-2009 23:13:54 12.5 C 10 g/m*3 12.5 C 0 km/h
196 15-05-2009 23:25:54 12.4 C 9.94 g/m*3 12.4 C 0 km/h
197 15-05-2009 23:37:54 12.2 C 9.71 g/m*3 12.2 C 0 km/h
198 15-05-2009 23:49:54 12.4 C 9.4 g/m*3 12.4 C 0 km/h
199 16-05-2009 00:01:53 12.4 C 8.96 g/m*3 12.4 C 0 km/h
200 16-05-2009 00:13:53 12.3 C 8.8 g/m*3 12.3 C 0 km/h
Sensor: Nr:Datum:Temp:Abs-Feuchte:Windchill:Wind:
Aussen-T/F 201 16-05-2009 00:25:54 12.3 C 8.9 g/m*3 12.3 C 0 km/h
202 16-05-2009 00:37:53 12.3 C 8.9 g/m*3 12.3 C 0 km/h
203 16-05-2009 00:49:54 12.2 C 8.74 g/m*3 12.2 C 0 km/h
204 16-05-2009 01:01:53 12.1 C 8.58 g/m*3 12.1 C 0 km/h
205 16-05-2009 01:13:53 12 C 8.63 g/m*3 12 C 0 km/h
206 16-05-2009 01:25:53 11.4 C 8.52 g/m*3 11.4 C 0 km/h
207 16-05-2009 01:37:52 11.1 C 8.46 g/m*3 11.1 C 0 km/h
208 16-05-2009 01:49:53 10.8 C 8.3 g/m*3 10.8 C 0 km/h
209 16-05-2009 02:01:53 10.5 C 8.05 g/m*3 10.5 C 0 km/h
210 16-05-2009 02:13:53 10.3 C 8.04 g/m*3 10.3 C 0 km/h
211 16-05-2009 02:25:52 10 C 7.89 g/m*3 10 C 0 km/h
212 16-05-2009 02:37:53 9.7 C 8.02 g/m*3 9.7 C 0 km/h
213 16-05-2009 02:50:53 9.6 C 8.06 g/m*3 9.6 C 0 km/h
214 16-05-2009 03:02:53 9.6 C 8.15 g/m*3 9.6 C 0 km/h
215 16-05-2009 03:14:54 9.4 C 8.05 g/m*3 9.4 C 0 km/h
216 16-05-2009 03:26:54 9.3 C 8 g/m*3 9.3 C 0 km/h
217 16-05-2009 03:38:53 9.3 C 8.09 g/m*3 9.3 C 0 km/h
218 16-05-2009 03:50:53 9.2 C 8.04 g/m*3 9.2 C 0 km/h
219 16-05-2009 04:02:53 9.1 C 7.99 g/m*3 9.1 C 0 km/h
220 16-05-2009 04:14:53 9.1 C 7.99 g/m*3 9.1 C 0 km/h
221 16-05-2009 04:26:53 9.4 C 8.05 g/m*3 9.4 C 0 km/h
222 16-05-2009 04:38:53 9.4 C 7.96 g/m*3 9.4 C 0 km/h
223 16-05-2009 04:50:53 8.9 C 7.8 g/m*3 8.9 C 0 km/h
224 16-05-2009 05:02:52 8.7 C 7.7 g/m*3 8.7 C 0 km/h
225 16-05-2009 05:14:52 8.4 C 7.55 g/m*3 8.4 C 0 km/h
Sensor: Nr:Datum:Temp:Abs-Feuchte:Windchill:Wind:
Aussen-T/F 226 16-05-2009 05:26:52 8.3 C 7.5 g/m*3 8.3 C 0 km/h
227 16-05-2009 05:38:52 8.2 C 7.45 g/m*3 8.2 C 0 km/h
228 16-05-2009 05:50:52 8.1 C 7.41 g/m*3 8.1 C 0 km/h
229 16-05-2009 06:02:52 8 C 7.36 g/m*3 8 C 0 km/h
230 16-05-2009 06:14:51 8 C 7.36 g/m*3 8 C 0 km/h
231 16-05-2009 06:26:51 8 C 7.36 g/m*3 8 C 0 km/h
232 16-05-2009 06:38:52 8.2 C 7.45 g/m*3 8.2 C 0 km/h
233 16-05-2009 06:50:51 8.4 C 7.47 g/m*3 8.4 C 0 km/h
234 16-05-2009 07:02:52 8.6 C 7.48 g/m*3 8.6 C 0 km/h
235 16-05-2009 07:14:51 8.9 C 7.45 g/m*3 8.9 C 0 km/h
236 16-05-2009 07:26:51 8.9 C 7.53 g/m*3 8.9 C 0 km/h
237 16-05-2009 07:38:51 9 C 7.58 g/m*3 9 C 0 km/h
238 16-05-2009 07:50:51 9.2 C 7.59 g/m*3 9.2 C 0 km/h
239 16-05-2009 08:02:51 9.5 C 7.65 g/m*3 9.5 C 0 km/h
240 16-05-2009 08:14:50 9.8 C 7.7 g/m*3 9.8 C 0 km/h
241 16-05-2009 08:26:50 10.7 C 7.37 g/m*3 10.7 C 0 km/h
242 16-05-2009 08:38:50 10.9 C 6.96 g/m*3 10.9 C 0 km/h
243 16-05-2009 08:50:50 10.9 C 7.06 g/m*3 10.9 C 0 km/h
244 16-05-2009 09:02:50 10.9 C 7.06 g/m*3 10.9 C 0 km/h
245 16-05-2009 09:14:50 11.2 C 7.2 g/m*3 11.2 C 0 km/h
246 16-05-2009 09:26:50 11.7 C 7.22 g/m*3 11.7 C 0 km/h
247 16-05-2009 09:38:50 12 C 7.14 g/m*3 12 C 0 km/h
248 16-05-2009 09:50:50 12.6 C 7.19 g/m*3 12.6 C 0 km/h
249 16-05-2009 10:02:49 12.4 C 6.99 g/m*3 12.4 C 0 km/h
250 16-05-2009 10:14:49 12.8 C 6.61 g/m*3 12.8 C 0 km/h
Sensor: Nr:Datum:Temp:Abs-Feuchte:Windchill:Wind:
Aussen-T/F 251 16-05-2009 10:26:49 12.8 C 6.61 g/m*3 12.8 C 0 km/h
252 16-05-2009 10:38:49 13.6 C 6.59 g/m*3 13.6 C 0 km/h
253 16-05-2009 10:50:49 13.8 C 6.2 g/m*3 13.8 C 0 km/h
254 16-05-2009 11:02:48 13.7 C 6.39 g/m*3 13.7 C 0 km/h
255 16-05-2009 11:14:49 13.6 C 6.24 g/m*3 13.6 C 0 km/h
256 16-05-2009 11:26:49 13.6 C 6.24 g/m*3 13.6 C 0 km/h
257 16-05-2009 11:38:49 14.1 C 6.07 g/m*3 14.1 C 0 km/h
258 16-05-2009 11:50:48 14.6 C 6.13 g/m*3 14.6 C 0 km/h
259 16-05-2009 12:02:49 15.8 C 6.19 g/m*3 15.8 C 0 km/h
260 16-05-2009 12:14:48 15.8 C 5.65 g/m*3 15.8 C 0 km/h
261 16-05-2009 12:26:48 16.2 C 5.52 g/m*3 16.2 C 0 km/h
262 16-05-2009 12:38:48 17 C 5.5 g/m*3 17 C 0 km/h
263 16-05-2009 12:50:48 16.7 C 5.12 g/m*3 16.7 C 0 km/h
264 16-05-2009 13:02:48 16.8 C 5.29 g/m*3 16.8 C 0 km/h
265 16-05-2009 13:14:47 16.4 C 5.16 g/m*3 16.4 C 0 km/h
266 16-05-2009 13:26:47 15.8 C 5.52 g/m*3 15.8 C 0 km/h
267 16-05-2009 13:38:47 16.6 C 5.65 g/m*3 16.6 C 0 km/h
268 16-05-2009 13:50:47 17.1 C 5.39 g/m*3 17.1 C 0 km/h
269 16-05-2009 14:02:47 17.7 C 5.43 g/m*3 17.7 C 0 km/h
270 16-05-2009 14:14:47 17.1 C 5.39 g/m*3 17.1 C 0 km/h
271 16-05-2009 14:26:47 17 C 5.5 g/m*3 17 C 0 km/h
272 16-05-2009 14:38:47 17.4 C 5.48 g/m*3 17.4 C 0 km/h
273 16-05-2009 14:50:47 17.4 C 5.48 g/m*3 17.4 C 0 km/h
274 16-05-2009 15:02:46 17.8 C 5.77 g/m*3 17.8 C 0 km/h
275 16-05-2009 15:14:46 18.2 C 5.75 g/m*3 18.2 C 0 km/h
Sensor: Nr:Datum:Temp:Abs-Feuchte:Windchill:Wind:
Aussen-T/F 276 16-05-2009 15:26:46 17.6 C 5.55 g/m*3 17.6 C 0 km/h
277 16-05-2009 15:38:47 17.8 C 5.77 g/m*3 17.8 C 0 km/h
278 16-05-2009 15:50:46 17.6 C 6 g/m*3 17.6 C 0 km/h
279 16-05-2009 16:02:46 17.4 C 5.93 g/m*3 17.4 C 0 km/h
280 16-05-2009 16:14:46 17.7 C 6.04 g/m*3 17.7 C 0 km/h
281 16-05-2009 16:26:46 17.7 C 6.04 g/m*3 17.7 C 0 km/h
282 16-05-2009 16:38:46 19.1 C 5.9 g/m*3 19.1 C 0 km/h
283 16-05-2009 16:50:45 19 C 5.7 g/m*3 19 C 0 km/h
284 16-05-2009 17:02:46 19.1 C 6.07 g/m*3 19.1 C 0 km/h
285 16-05-2009 17:14:45 18.7 C 5.92 g/m*3 18.7 C 0 km/h
286 16-05-2009 17:26:45 18.2 C 5.91 g/m*3 18.2 C 0 km/h
287 16-05-2009 17:38:45 18.5 C 6.01 g/m*3 18.5 C 0 km/h
288 16-05-2009 17:50:45 18.2 C 6.06 g/m*3 18.2 C 0 km/h
289 16-05-2009 18:02:45 20.4 C 5.84 g/m*3 20.4 C 0 km/h
290 16-05-2009 18:14:45 20.7 C 5.76 g/m*3 20.7 C 0 km/h
291 16-05-2009 18:26:45 20.9 C 5.83 g/m*3 20.9 C 0 km/h
292 16-05-2009 18:38:48 21 C 5.68 g/m*3 21 C 0 km/h
293 16-05-2009 18:50:44 20.7 C 6.12 g/m*3 20.7 C 0 km/h
294 16-05-2009 19:02:44 21.6 C 6.07 g/m*3 21.6 C 0 km/h
295 16-05-2009 19:14:44 20.8 C 6.16 g/m*3 20.8 C 0 km/h
296 16-05-2009 19:26:44 20.7 C 5.94 g/m*3 20.7 C 0 km/h
297 16-05-2009 19:38:44 20.2 C 6.29 g/m*3 20.2 C 0 km/h
298 16-05-2009 19:50:43 19.3 C 7.13 g/m*3 19.3 C 0 km/h
299 16-05-2009 20:02:44 18.7 C 7.2 g/m*3 18.7 C 0 km/h
300 16-05-2009 20:14:44 17.7 C 7.69 g/m*3 17.7 C 0 km/h
Sensor: Nr:Datum:Temp:Abs-Feuchte:Windchill:Wind:
Aussen-T/F 301 16-05-2009 20:26:44 17.3 C 7.96 g/m*3 17.3 C 0 km/h
302 16-05-2009 20:38:43 16.7 C 7.82 g/m*3 16.7 C 0 km/h
303 16-05-2009 20:50:44 16.1 C 7.54 g/m*3 16.1 C 0 km/h
304 16-05-2009 21:02:43 15.6 C 7.71 g/m*3 15.6 C 0 km/h
305 16-05-2009 21:14:43 15.2 C 7.4 g/m*3 15.2 C 0 km/h
306 16-05-2009 21:26:43 14.4 C 7.54 g/m*3 14.4 C 0 km/h
307 16-05-2009 21:38:42 14.1 C 7.52 g/m*3 14.1 C 0 km/h
308 16-05-2009 21:50:43 13.5 C 7.49 g/m*3 13.5 C 0 km/h
309 16-05-2009 22:02:43 13.3 C 7.51 g/m*3 13.3 C 0 km/h
310 16-05-2009 22:14:42 13.3 C 7.51 g/m*3 13.3 C 0 km/h
311 16-05-2009 22:26:42 13.2 C 7.81 g/m*3 13.2 C 0 km/h
312 16-05-2009 22:38:43 13.1 C 7.76 g/m*3 13.1 C 0 km/h
313 16-05-2009 22:50:42 13.1 C 7.65 g/m*3 13.1 C 0 km/h
314 16-05-2009 23:02:42 13.1 C 7.65 g/m*3 13.1 C 0 km/h
315 16-05-2009 23:14:41 13.2 C 7.81 g/m*3 13.2 C 0 km/h
316 16-05-2009 23:26:41 13.5 C 7.49 g/m*3 13.5 C 0 km/h
317 16-05-2009 23:38:42 13.8 C 7.39 g/m*3 13.8 C 0 km/h
318 16-05-2009 23:50:41 14 C 7.12 g/m*3 14 C 0 km/h
319 17-05-2009 00:02:41 14 C 7 g/m*3 14 C 0 km/h
320 17-05-2009 00:14:41 13.9 C 7.19 g/m*3 13.9 C 0 km/h
321 17-05-2009 00:26:41 13.9 C 7.31 g/m*3 13.9 C 0 km/h
322 17-05-2009 00:38:41 13.9 C 7.31 g/m*3 13.9 C 0 km/h
323 17-05-2009 00:50:41 13.6 C 7.41 g/m*3 13.6 C 0 km/h
324 17-05-2009 01:02:41 13.4 C 7.32 g/m*3 13.4 C 0 km/h
325 17-05-2009 01:14:40 13.5 C 7.37 g/m*3 13.5 C 0 km/h
Sensor: Nr:Datum:Temp:Abs-Feuchte:Windchill:Wind:
Aussen-T/F 326 17-05-2009 01:26:40 13.7 C 7.22 g/m*3 13.7 C 0 km/h
327 17-05-2009 01:38:41 13.6 C 7.3 g/m*3 13.6 C 0 km/h
328 17-05-2009 01:50:40 13.4 C 7.21 g/m*3 13.4 C 0 km/h
329 17-05-2009 02:02:40 13.6 C 7.3 g/m*3 13.6 C 0 km/h
330 17-05-2009 02:14:40 13.5 C 7.37 g/m*3 13.5 C 0 km/h
331 17-05-2009 02:26:40 13.2 C 7.35 g/m*3 13.2 C 0 km/h
332 17-05-2009 02:38:40 13.1 C 7.42 g/m*3 13.1 C 0 km/h
333 17-05-2009 02:51:01 12.8 C 7.5 g/m*3 12.8 C 0 km/h
334 17-05-2009 03:03:01 12.6 C 7.41 g/m*3 12.6 C 0 km/h
335 17-05-2009 03:15:01 12.1 C 7.4 g/m*3 12.1 C 0 km/h
336 17-05-2009 03:27:02 11.8 C 7.37 g/m*3 11.8 C 0 km/h
337 17-05-2009 03:39:01 11.6 C 7.48 g/m*3 11.6 C 0 km/h
338 17-05-2009 03:51:01 11.5 C 7.54 g/m*3 11.5 C 0 km/h
339 17-05-2009 04:03:01 11.6 C 7.48 g/m*3 11.6 C 0 km/h
340 17-05-2009 04:15:02 11.5 C 7.54 g/m*3 11.5 C 0 km/h
341 17-05-2009 04:27:02 12.1 C 7.18 g/m*3 12.1 C 0 km/h
342 17-05-2009 04:39:01 12.2 C 7.12 g/m*3 12.2 C 0 km/h
343 17-05-2009 04:51:01 11.9 C 7.31 g/m*3 11.9 C 0 km/h
344 17-05-2009 05:03:01 11.7 C 7.43 g/m*3 11.7 C 0 km/h
345 17-05-2009 05:15:01 11.3 C 7.34 g/m*3 11.3 C 0 km/h
346 17-05-2009 05:27:01 11 C 7.41 g/m*3 11 C 0 km/h
347 17-05-2009 05:39:01 10.8 C 7.41 g/m*3 10.8 C 0 km/h
348 17-05-2009 05:51:02 10.7 C 7.46 g/m*3 10.7 C 0 km/h
349 17-05-2009 06:03:01 10.7 C 7.46 g/m*3 10.7 C 0 km/h
350 17-05-2009 06:15:02 10.6 C 7.52 g/m*3 10.6 C 0 km/h
Sensor: Nr:Datum:Temp:Abs-Feuchte:Windchill:Wind:
Aussen-T/F 351 17-05-2009 06:27:02 10.5 C 7.57 g/m*3 10.5 C 0 km/h
352 17-05-2009 06:39:01 10.8 C 7.71 g/m*3 10.8 C 0 km/h
353 17-05-2009 06:51:02 11.1 C 7.76 g/m*3 11.1 C 0 km/h
354 17-05-2009 07:03:01 11.4 C 7.8 g/m*3 11.4 C 0 km/h
355 17-05-2009 07:15:01 11.9 C 8.05 g/m*3 11.9 C 0 km/h
356 17-05-2009 07:27:01 12.1 C 7.94 g/m*3 12.1 C 0 km/h
357 17-05-2009 07:39:02 12.1 C 7.72 g/m*3 12.1 C 0 km/h
358 17-05-2009 07:51:02 12.1 C 7.61 g/m*3 12.1 C 0 km/h
359 17-05-2009 08:03:01 11.7 C 7.95 g/m*3 11.7 C 0 km/h
360 17-05-2009 08:15:02 11.4 C 8.11 g/m*3 11.4 C 0 km/h
361 17-05-2009 08:27:02 11.9 C 8.68 g/m*3 11.9 C 0 km/h
362 17-05-2009 08:39:01 12.1 C 8.69 g/m*3 12.1 C 0 km/h
363 17-05-2009 08:51:02 12.4 C 8.96 g/m*3 12.4 C 0 km/h
364 17-05-2009 09:03:01 12.8 C 9.07 g/m*3 12.8 C 0 km/h
365 17-05-2009 09:15:01 13.3 C 9.13 g/m*3 13.3 C 0 km/h
366 17-05-2009 09:27:01 13.8 C 9.17 g/m*3 13.8 C 0 km/h
367 17-05-2009 09:39:01 14.4 C 8.53 g/m*3 14.4 C 0 km/h
368 17-05-2009 09:51:01 15.2 C 8.7 g/m*3 15.2 C 0 km/h
369 17-05-2009 10:03:02 15.7 C 8.43 g/m*3 15.7 C 0 km/h
370 17-05-2009 10:15:01 15.3 C 8.1 g/m*3 15.3 C 0 km/h
371 17-05-2009 10:27:01 15.4 C 7.88 g/m*3 15.4 C 0 km/h
372 17-05-2009 10:39:02 16.3 C 7.91 g/m*3 16.3 C 0 km/h
373 17-05-2009 10:51:01 17.5 C 8.05 g/m*3 17.5 C 0 km/h
374 17-05-2009 11:03:02 17.9 C 8.24 g/m*3 17.9 C 0 km/h
375 17-05-2009 11:15:01 18.5 C 8.23 g/m*3 18.5 C 0 km/h
Sensor: Nr:Datum:Temp:Abs-Feuchte:Windchill:Wind:
Aussen-T/F 376 17-05-2009 11:27:01 18.6 C 7.8 g/m*3 18.6 C 0 km/h
377 17-05-2009 11:39:01 20 C 8.64 g/m*3 20 C 0 km/h
378 17-05-2009 11:51:01 21.2 C 8.52 g/m*3 21.2 C 0 km/h
379 17-05-2009 12:03:01 22.3 C 8.29 g/m*3 22.3 C 0 km/h
380 17-05-2009 12:15:02 21.9 C 7.72 g/m*3 21.9 C 0 km/h
381 17-05-2009 12:27:02 21.3 C 8.39 g/m*3 21.3 C 0 km/h
382 17-05-2009 12:39:01 20.4 C 8.49 g/m*3 20.4 C 0 km/h
383 17-05-2009 12:51:02 21.3 C 8.39 g/m*3 21.3 C 0 km/h
384 17-05-2009 13:03:01 22 C 8.35 g/m*3 22 C 0 km/h
385 17-05-2009 13:15:02 22.7 C 8.28 g/m*3 22.7 C 0 km/h
386 17-05-2009 13:27:02 22.2 C 7.85 g/m*3 22.2 C 0 km/h
387 17-05-2009 13:39:01 23.3 C 7.95 g/m*3 23.3 C 0 km/h
388 17-05-2009 13:51:01 22.8 C 7.72 g/m*3 22.8 C 0 km/h
389 17-05-2009 14:03:01 22.4 C 7.94 g/m*3 22.4 C 0 km/h
390 17-05-2009 14:15:01 22 C 7.76 g/m*3 22 C 0 km/h
391 17-05-2009 14:27:01 21.3 C 7.46 g/m*3 21.3 C 0 km/h
392 17-05-2009 14:39:02 21.2 C 7.6 g/m*3 21.2 C 0 km/h
393 17-05-2009 14:51:01 21.4 C 7.69 g/m*3 21.4 C 0 km/h
394 17-05-2009 15:03:02 21.9 C 7.72 g/m*3 21.9 C 0 km/h
395 17-05-2009 15:15:01 22.8 C 7.92 g/m*3 22.8 C 0 km/h
396 17-05-2009 15:27:01 23 C 7.6 g/m*3 23 C 0 km/h
397 17-05-2009 15:39:01 23.4 C 7.78 g/m*3 23.4 C 0 km/h
398 17-05-2009 15:51:01 23.3 C 7.32 g/m*3 23.3 C 0 km/h
399 17-05-2009 16:03:01 23.5 C 6.98 g/m*3 23.5 C 0 km/h
400 17-05-2009 16:15:01 23.4 C 6.73 g/m*3 23.4 C 0 km/h
Sensor: Nr:Datum:Temp:Abs-Feuchte:Windchill:Wind:
Aussen-T/F 401 17-05-2009 16:27:01 23.9 C 6.92 g/m*3 23.9 C 0 km/h
402 17-05-2009 16:39:01 23.5 C 6.56 g/m*3 23.5 C 0 km/h
403 17-05-2009 16:51:01 24.2 C 5.94 g/m*3 24.2 C 0 km/h
404 17-05-2009 17:03:01 24.1 C 6.13 g/m*3 24.1 C 0 km/h
405 17-05-2009 17:15:02 24.1 C 6.13 g/m*3 24.1 C 0 km/h
406 17-05-2009 17:27:02 24.5 C 6.27 g/m*3 24.5 C 0 km/h
407 17-05-2009 17:39:01 24 C 6.53 g/m*3 24 C 0 km/h
408 17-05-2009 17:51:02 23.3 C 6.48 g/m*3 23.3 C 0 km/h
409 17-05-2009 18:03:01 22.9 C 6.54 g/m*3 22.9 C 0 km/h
410 17-05-2009 18:15:01 22.1 C 6.64 g/m*3 22.1 C 0 km/h
411 17-05-2009 18:27:02 21 C 6.41 g/m*3 21 C 0 km/h
412 17-05-2009 18:39:01 20.9 C 6.74 g/m*3 20.9 C 0 km/h
413 17-05-2009 18:51:01 20.4 C 7.25 g/m*3 20.4 C 0 km/h
414 17-05-2009 19:03:01 20.5 C 7.12 g/m*3 20.5 C 0 km/h
415 17-05-2009 19:15:01 20.9 C 7.29 g/m*3 20.9 C 0 km/h
416 17-05-2009 19:27:01 20.7 C 7.56 g/m*3 20.7 C 0 km/h
417 17-05-2009 19:39:02 20.4 C 7.43 g/m*3 20.4 C 0 km/h
418 17-05-2009 19:51:01 20.1 C 7.3 g/m*3 20.1 C 0 km/h
419 17-05-2009 20:03:02 19.7 C 7.64 g/m*3 19.7 C 0 km/h
420 17-05-2009 20:15:01 19.5 C 7.72 g/m*3 19.5 C 0 km/h
421 17-05-2009 20:27:01 19.3 C 7.96 g/m*3 19.3 C 0 km/h
422 17-05-2009 20:39:01 18.9 C 8.59 g/m*3 18.9 C 0 km/h
423 17-05-2009 20:51:01 19 C 8.15 g/m*3 19 C 0 km/h
424 17-05-2009 21:03:01 18.9 C 8.1 g/m*3 18.9 C 0 km/h
425 17-05-2009 21:15:01 18.5 C 7.59 g/m*3 18.5 C 0 km/h
Sensor: Nr:Datum:Temp:Abs-Feuchte:Windchill:Wind:
Aussen-T/F 426 17-05-2009 21:27:01 18.3 C 7.66 g/m*3 18.3 C 0 km/h
427 17-05-2009 21:39:02 18 C 7.68 g/m*3 18 C 0 km/h
428 17-05-2009 21:51:01 17.7 C 7.69 g/m*3 17.7 C 0 km/h
429 17-05-2009 22:03:02 17.5 C 7.45 g/m*3 17.5 C 0 km/h
430 17-05-2009 22:15:01 17.3 C 7.37 g/m*3 17.3 C 0 km/h
431 17-05-2009 22:27:01 17.2 C 7.47 g/m*3 17.2 C 0 km/h
432 17-05-2009 22:39:01 16.9 C 7.19 g/m*3 16.9 C 0 km/h
433 17-05-2009 22:51:01 16.8 C 7.15 g/m*3 16.8 C 0 km/h
434 17-05-2009 23:03:01 16.6 C 7.35 g/m*3 16.6 C 0 km/h
435 17-05-2009 23:15:01 16.3 C 7.08 g/m*3 16.3 C 0 km/h
436 17-05-2009 23:27:01 16.2 C 6.9 g/m*3 16.2 C 0 km/h
437 17-05-2009 23:39:01 16.2 C 6.48 g/m*3 16.2 C 0 km/h
438 17-05-2009 23:51:02 16.2 C 6.48 g/m*3 16.2 C 0 km/h
439 18-05-2009 00:03:01 16.1 C 6.58 g/m*3 16.1 C 0 km/h
440 18-05-2009 00:15:01 15.8 C 6.87 g/m*3 15.8 C 0 km/h
441 18-05-2009 00:27:01 15.6 C 7.05 g/m*3 15.6 C 0 km/h
442 18-05-2009 00:39:01 15.4 C 7.09 g/m*3 15.4 C 0 km/h
443 18-05-2009 00:51:01 15.4 C 7.23 g/m*3 15.4 C 0 km/h
444 18-05-2009 01:03:01 15.1 C 7.22 g/m*3 15.1 C 0 km/h
445 18-05-2009 01:15:02 14.9 C 7.39 g/m*3 14.9 C 0 km/h
446 18-05-2009 01:27:02 14.7 C 7.43 g/m*3 14.7 C 0 km/h
447 18-05-2009 01:39:01 14.7 C 7.3 g/m*3 14.7 C 0 km/h
448 18-05-2009 01:51:02 14.5 C 7.21 g/m*3 14.5 C 0 km/h
449 18-05-2009 02:03:01 14.5 C 7.34 g/m*3 14.5 C 0 km/h
450 18-05-2009 02:15:02 14.3 C 7.25 g/m*3 14.3 C 0 km/h
Sensor: Nr:Datum:Temp:Abs-Feuchte:Windchill:Wind:
Aussen-T/F 451 18-05-2009 02:27:02 14.2 C 7.33 g/m*3 14.2 C 0 km/h
452 18-05-2009 02:39:01 14 C 7.36 g/m*3 14 C 0 km/h
453 18-05-2009 02:51:30 13.7 C 7.34 g/m*3 13.7 C 0 km/h
454 18-05-2009 03:03:30 13.6 C 7.3 g/m*3 13.6 C 0 km/h
455 18-05-2009 03:15:29 13.3 C 7.28 g/m*3 13.3 C 0 km/h
456 18-05-2009 03:27:29 13 C 7.26 g/m*3 13 C 0 km/h
457 18-05-2009 03:39:29 12.6 C 7.3 g/m*3 12.6 C 0 km/h
458 18-05-2009 03:51:29 12.8 C 7.5 g/m*3 12.8 C 0 km/h
459 18-05-2009 04:03:28 13 C 7.6 g/m*3 13 C 0 km/h
460 18-05-2009 04:15:29 13.1 C 7.65 g/m*3 13.1 C 0 km/h
461 18-05-2009 04:27:29 12.8 C 7.62 g/m*3 12.8 C 0 km/h
462 18-05-2009 04:39:28 12.4 C 7.43 g/m*3 12.4 C 0 km/h
463 18-05-2009 04:51:28 12 C 7.46 g/m*3 12 C 0 km/h
464 18-05-2009 05:03:28 11.6 C 7.38 g/m*3 11.6 C 0 km/h
465 18-05-2009 05:15:28 11.7 C 7.64 g/m*3 11.7 C 0 km/h
466 18-05-2009 05:27:28 11.2 C 7.4 g/m*3 11.2 C 0 km/h
467 18-05-2009 05:39:28 11 C 7.41 g/m*3 11 C 0 km/h
468 18-05-2009 05:51:28 10.9 C 7.56 g/m*3 10.9 C 0 km/h
469 18-05-2009 06:03:28 10.8 C 7.61 g/m*3 10.8 C 0 km/h
470 18-05-2009 06:15:27 10.7 C 7.66 g/m*3 10.7 C 0 km/h
471 18-05-2009 06:27:27 10.7 C 7.76 g/m*3 10.7 C 0 km/h
472 18-05-2009 06:39:27 10.7 C 7.86 g/m*3 10.7 C 0 km/h
473 18-05-2009 06:51:27 10.8 C 7.91 g/m*3 10.8 C 0 km/h
474 18-05-2009 07:03:27 11 C 7.91 g/m*3 11 C 0 km/h
475 18-05-2009 07:15:27 11.3 C 8.06 g/m*3 11.3 C 0 km/h
Sensor: Nr:Datum:Temp:Abs-Feuchte:Windchill:Wind:
Aussen-T/F 476 18-05-2009 07:27:27 11.4 C 8.11 g/m*3 11.4 C 0 km/h
477 18-05-2009 07:39:27 11.6 C 8.21 g/m*3 11.6 C 0 km/h
478 18-05-2009 07:51:27 11.9 C 8.26 g/m*3 11.9 C 0 km/h
479 18-05-2009 08:03:26 12.1 C 8.26 g/m*3 12.1 C 0 km/h
480 18-05-2009 08:15:26 12.4 C 8.3 g/m*3 12.4 C 0 km/h
481 18-05-2009 08:27:26 12.8 C 8.51 g/m*3 12.8 C 0 km/h
482 18-05-2009 08:39:26 13.2 C 8.38 g/m*3 13.2 C 0 km/h
483 18-05-2009 08:51:26 13.7 C 8.41 g/m*3 13.7 C 0 km/h
484 18-05-2009 09:03:25 14.8 C 8.11 g/m*3 14.8 C 0 km/h
485 18-05-2009 09:15:26 15.4 C 7.49 g/m*3 15.4 C 0 km/h
486 18-05-2009 09:27:26 15.2 C 7.53 g/m*3 15.2 C 0 km/h
487 18-05-2009 09:39:26 15.2 C 7.53 g/m*3 15.2 C 0 km/h
488 18-05-2009 09:51:25 15.9 C 7.58 g/m*3 15.9 C 0 km/h
489 18-05-2009 10:03:26 16.5 C 7.44 g/m*3 16.5 C 0 km/h
490 18-05-2009 10:15:25 16.7 C 7.25 g/m*3 16.7 C 0 km/h
491 18-05-2009 10:27:25 17.1 C 6.99 g/m*3 17.1 C 0 km/h
492 18-05-2009 10:39:25 16.5 C 7.02 g/m*3 16.5 C 0 km/h
493 18-05-2009 10:51:25 16.6 C 7.06 g/m*3 16.6 C 0 km/h
494 18-05-2009 11:03:25 17 C 6.95 g/m*3 17 C 0 km/h
495 18-05-2009 11:15:24 17.3 C 6.78 g/m*3 17.3 C 0 km/h
496 18-05-2009 11:27:24 18 C 6.45 g/m*3 18 C 0 km/h
497 18-05-2009 11:39:24 17.6 C 6.3 g/m*3 17.6 C 0 km/h
498 18-05-2009 11:51:24 18.4 C 6.29 g/m*3 18.4 C 0 km/h
499 18-05-2009 12:03:24 18.5 C 6.17 g/m*3 18.5 C 0 km/h
500 18-05-2009 12:15:24 18.7 C 6.24 g/m*3 18.7 C 0 km/h
Sensor: Nr:Datum:Temp:Abs-Feuchte:Windchill:Wind:
Aussen-T/F 501 18-05-2009 12:27:24 19.4 C 6.01 g/m*3 19.4 C 0 km/h
502 18-05-2009 12:39:24 19.3 C 5.47 g/m*3 19.3 C 0 km/h
503 18-05-2009 12:51:24 19.3 C 4.98 g/m*3 19.3 C 0 km/h
504 18-05-2009 13:03:23 19.2 C 5.11 g/m*3 19.2 C 0 km/h
505 18-05-2009 13:15:23 20.6 C 5.19 g/m*3 20.6 C 0 km/h
506 18-05-2009 13:27:23 20.8 C 3.98 g/m*3 20.8 C 0 km/h
507 18-05-2009 13:39:24 21.1 C 3.69 g/m*3 21.1 C 0 km/h
508 18-05-2009 13:51:23 21.1 C 3.69 g/m*3 21.1 C 0 km/h
509 18-05-2009 14:03:23 20.7 C 3.6 g/m*3 20.7 C 0 km/h
510 18-05-2009 14:15:23 20.6 C 3.58 g/m*3 20.6 C 0 km/h
511 18-05-2009 14:27:23 20.8 C 3.62 g/m*3 20.8 C 0 km/h
512 18-05-2009 14:39:23 20.9 C 3.64 g/m*3 20.9 C 0 km/h
513 18-05-2009 14:51:22 21.6 C 3.79 g/m*3 21.6 C 0 km/h
514 18-05-2009 15:03:23 22.5 C 3.99 g/m*3 22.5 C 0 km/h
515 18-05-2009 15:15:22 22.2 C 3.93 g/m*3 22.2 C 0 km/h
516 18-05-2009 15:27:22 21.2 C 3.89 g/m*3 21.2 C 0 km/h
517 18-05-2009 15:39:22 22.3 C 3.95 g/m*3 22.3 C 0 km/h
518 18-05-2009 15:51:21 22.6 C 4.02 g/m*3 22.6 C 0 km/h
519 18-05-2009 16:03:22 22 C 4.08 g/m*3 22 C 0 km/h
520 18-05-2009 16:15:22 21.8 C 4.22 g/m*3 21.8 C 0 km/h
521 18-05-2009 16:27:22 21.4 C 4.12 g/m*3 21.4 C 0 km/h
522 18-05-2009 16:39:21 22.6 C 4.02 g/m*3 22.6 C 0 km/h
523 18-05-2009 16:51:22 22 C 3.88 g/m*3 22 C 0 km/h
524 18-05-2009 17:03:21 21.8 C 4.22 g/m*3 21.8 C 0 km/h
525 18-05-2009 17:15:21 22.8 C 4.27 g/m*3 22.8 C 0 km/h
Sensor: Nr:Datum:Temp:Abs-Feuchte:Windchill:Wind:
Aussen-T/F 526 18-05-2009 17:27:21 22.8 C 4.06 g/m*3 22.8 C 0 km/h
527 18-05-2009 17:39:21 22.2 C 4.12 g/m*3 22.2 C 0 km/h
528 18-05-2009 17:51:21 23.1 C 4.13 g/m*3 23.1 C 0 km/h
529 18-05-2009 18:03:21 22.4 C 3.97 g/m*3 22.4 C 0 km/h
530 18-05-2009 18:15:20 22.8 C 4.27 g/m*3 22.8 C 0 km/h
531 18-05-2009 18:27:20 22.6 C 4.02 g/m*3 22.6 C 0 km/h
532 18-05-2009 18:39:21 23.6 C 4.25 g/m*3 23.6 C 0 km/h
533 18-05-2009 18:51:20 23.7 C 4.28 g/m*3 23.7 C 0 km/h
534 18-05-2009 19:03:20 23.4 C 4.21 g/m*3 23.4 C 0 km/h
535 18-05-2009 19:15:19 23.4 C 4.21 g/m*3 23.4 C 0 km/h
536 18-05-2009 19:27:19 23.3 C 4.18 g/m*3 23.3 C 0 km/h
537 18-05-2009 19:39:20 22.3 C 4.15 g/m*3 22.3 C 0 km/h
538 18-05-2009 19:51:19 22.1 C 4.68 g/m*3 22.1 C 0 km/h
539 18-05-2009 20:03:20 22.3 C 4.74 g/m*3 22.3 C 0 km/h
540 18-05-2009 20:15:19 21.8 C 4.99 g/m*3 21.8 C 0 km/h
541 18-05-2009 20:27:19 21.6 C 5.12 g/m*3 21.6 C 0 km/h
542 18-05-2009 20:39:19 20.4 C 4.78 g/m*3 20.4 C 0 km/h
543 18-05-2009 20:51:19 19.4 C 5.01 g/m*3 19.4 C 0 km/h
544 18-05-2009 21:03:19 18.5 C 5.06 g/m*3 18.5 C 0 km/h
545 18-05-2009 21:15:19 17.9 C 5.8 g/m*3 17.9 C 0 km/h
546 18-05-2009 21:27:19 17.3 C 5.3 g/m*3 17.3 C 0 km/h
547 18-05-2009 21:39:19 17 C 5.5 g/m*3 17 C 0 km/h
548 18-05-2009 21:51:18 16.7 C 5.4 g/m*3 16.7 C 0 km/h
549 18-05-2009 22:04:20 16.1 C 5.48 g/m*3 16.1 C 0 km/h
550 18-05-2009 22:16:20 15.9 C 5.82 g/m*3 15.9 C 0 km/h
Sensor: Nr:Datum:Temp:Abs-Feuchte:Windchill:Wind:
Aussen-T/F 551 18-05-2009 22:28:20 15.2 C 5.58 g/m*3 15.2 C 0 km/h
552 18-05-2009 22:40:20 14.8 C 5.83 g/m*3 14.8 C 0 km/h
553 18-05-2009 22:52:20 14.6 C 5.76 g/m*3 14.6 C 0 km/h
554 18-05-2009 23:04:20 14 C 5.91 g/m*3 14 C 0 km/h
555 18-05-2009 23:16:20 13.9 C 6.11 g/m*3 13.9 C 0 km/h
556 18-05-2009 23:28:20 13.6 C 6.12 g/m*3 13.6 C 0 km/h
557 18-05-2009 23:40:20 13.5 C 6.2 g/m*3 13.5 C 0 km/h
558 18-05-2009 23:52:20 12.9 C 6.76 g/m*3 12.9 C 0 km/h
559 19-05-2009 00:04:20 12.8 C 6.72 g/m*3 12.8 C 0 km/h
560 19-05-2009 00:16:20 12.6 C 6.75 g/m*3 12.6 C 0 km/h
561 19-05-2009 00:28:20 12.5 C 6.71 g/m*3 12.5 C 0 km/h
562 19-05-2009 00:40:20 12.4 C 6.66 g/m*3 12.4 C 0 km/h
563 19-05-2009 00:52:20 12.1 C 6.43 g/m*3 12.1 C 0 km/h
564 19-05-2009 01:04:20 12 C 6.5 g/m*3 12 C 0 km/h
565 19-05-2009 01:16:20 11.6 C 6.65 g/m*3 11.6 C 0 km/h
566 19-05-2009 01:28:20 11.4 C 6.57 g/m*3 11.4 C 0 km/h
567 19-05-2009 01:40:20 11.2 C 6.49 g/m*3 11.2 C 0 km/h
568 19-05-2009 01:52:21 11 C 6.51 g/m*3 11 C 0 km/h
569 19-05-2009 02:04:21 10.9 C 6.47 g/m*3 10.9 C 0 km/h
570 19-05-2009 02:16:21 10.7 C 6.48 g/m*3 10.7 C 0 km/h
571 19-05-2009 02:28:21 10.4 C 6.46 g/m*3 10.4 C 0 km/h
572 19-05-2009 02:40:21 10.2 C 6.47 g/m*3 10.2 C 0 km/h
573 19-05-2009 02:52:21 10 C 6.58 g/m*3 10 C 0 km/h
574 19-05-2009 03:04:21 9.9 C 6.63 g/m*3 9.9 C 0 km/h
575 19-05-2009 03:16:21 9.8 C 6.59 g/m*3 9.8 C 0 km/h
Sensor: Nr:Datum:Temp:Abs-Feuchte:Windchill:Wind:
Aussen-T/F 576 19-05-2009 03:28:21 9.7 C 6.64 g/m*3 9.7 C 0 km/h
577 19-05-2009 03:40:21 9.4 C 6.51 g/m*3 9.4 C 0 km/h
578 19-05-2009 03:52:21 9.3 C 6.56 g/m*3 9.3 C 0 km/h
579 19-05-2009 04:04:21 9.3 C 6.56 g/m*3 9.3 C 0 km/h
580 19-05-2009 04:16:21 9.1 C 6.65 g/m*3 9.1 C 0 km/h
581 19-05-2009 04:28:21 8.9 C 6.66 g/m*3 8.9 C 0 km/h
582 19-05-2009 04:40:21 8.8 C 6.7 g/m*3 8.8 C 0 km/h
583 19-05-2009 04:52:21 8.6 C 6.7 g/m*3 8.6 C 0 km/h
584 19-05-2009 05:04:21 8.5 C 6.57 g/m*3 8.5 C 0 km/h
585 19-05-2009 05:16:21 8.4 C 6.62 g/m*3 8.4 C 0 km/h
586 19-05-2009 05:28:21 8.2 C 6.62 g/m*3 8.2 C 0 km/h
587 19-05-2009 05:40:22 8.2 C 6.62 g/m*3 8.2 C 0 km/h
588 19-05-2009 05:52:22 8.1 C 6.57 g/m*3 8.1 C 0 km/h
589 19-05-2009 06:04:22 8.1 C 6.57 g/m*3 8.1 C 0 km/h
590 19-05-2009 06:16:20 8.1 C 6.57 g/m*3 8.1 C 0 km/h
591 19-05-2009 06:28:20 8.1 C 6.66 g/m*3 8.1 C 0 km/h
592 19-05-2009 06:40:19 8.2 C 6.7 g/m*3 8.2 C 0 km/h
593 19-05-2009 06:52:19 9 C 7.05 g/m*3 9 C 0 km/h
594 19-05-2009 07:04:20 9.5 C 7.01 g/m*3 9.5 C 0 km/h
595 19-05-2009 07:16:19 9.7 C 6.91 g/m*3 9.7 C 0 km/h
596 19-05-2009 07:28:19 9.6 C 6.87 g/m*3 9.6 C 0 km/h
597 19-05-2009 07:40:19 9.6 C 6.78 g/m*3 9.6 C 0 km/h
598 19-05-2009 07:52:19 9.7 C 6.82 g/m*3 9.7 C 0 km/h
599 19-05-2009 08:04:19 10.3 C 6.9 g/m*3 10.3 C 0 km/h
600 19-05-2009 08:16:18 10.5 C 6.69 g/m*3 10.5 C 0 km/h
Sensor: Nr:Datum:Temp:Abs-Feuchte:Windchill:Wind:
Aussen-T/F 601 19-05-2009 08:28:18 10.5 C 6.69 g/m*3 10.5 C 0 km/h
602 19-05-2009 08:40:18 10.8 C 6.72 g/m*3 10.8 C 0 km/h
603 19-05-2009 08:52:18 11.5 C 6.82 g/m*3 11.5 C 0 km/h
604 19-05-2009 09:04:18 12.5 C 6.93 g/m*3 12.5 C 0 km/h
605 19-05-2009 09:16:18 13.1 C 6.85 g/m*3 13.1 C 0 km/h
606 19-05-2009 09:28:18 14.1 C 7.04 g/m*3 14.1 C 0 km/h
607 19-05-2009 09:40:18 14.3 C 7.25 g/m*3 14.3 C 0 km/h
608 19-05-2009 09:52:18 15.8 C 7.27 g/m*3 15.8 C 0 km/h
609 19-05-2009 10:04:17 15.8 C 7.27 g/m*3 15.8 C 0 km/h
610 19-05-2009 10:16:17 16.2 C 7.45 g/m*3 16.2 C 0 km/h
611 19-05-2009 10:28:18 16.8 C 7.29 g/m*3 16.8 C 0 km/h
612 19-05-2009 10:40:17 17.7 C 7.54 g/m*3 17.7 C 0 km/h
613 19-05-2009 10:52:17 18.9 C 7.29 g/m*3 18.9 C 0 km/h
614 19-05-2009 11:04:16 19.7 C 7.3 g/m*3 19.7 C 0 km/h
615 19-05-2009 11:16:17 19.9 C 7.04 g/m*3 19.9 C 0 km/h
616 19-05-2009 11:28:17 20.4 C 6.72 g/m*3 20.4 C 0 km/h
617 19-05-2009 11:40:17 21 C 6.05 g/m*3 21 C 0 km/h
618 19-05-2009 11:52:16 21.2 C 6.12 g/m*3 21.2 C 0 km/h
619 19-05-2009 12:04:17 22.1 C 6.05 g/m*3 22.1 C 0 km/h
620 19-05-2009 12:16:16 22.8 C 5.69 g/m*3 22.8 C 0 km/h
621 19-05-2009 12:28:16 22.4 C 5.56 g/m*3 22.4 C 0 km/h
622 19-05-2009 12:40:16 21.9 C 5.4 g/m*3 21.9 C 0 km/h
623 19-05-2009 12:52:15 25.1 C 5.09 g/m*3 25.1 C 0 km/h
624 19-05-2009 13:04:16 23.5 C 5.92 g/m*3 23.5 C 0 km/h
625 19-05-2009 13:16:16 23.6 C 5.32 g/m*3 23.6 C 0 km/h
Sensor: Nr:Datum:Temp:Abs-Feuchte:Windchill:Wind:
Aussen-T/F 626 19-05-2009 13:28:16 23.9 C 4.76 g/m*3 23.9 C 0 km/h
627 19-05-2009 13:40:15 24.8 C 4.55 g/m*3 24.8 C 0 km/h
628 19-05-2009 13:52:16 24.2 C 5.06 g/m*3 24.2 C 0 km/h
629 19-05-2009 14:04:15 23.8 C 5.16 g/m*3 23.8 C 0 km/h
630 19-05-2009 14:16:15 23.5 C 6.56 g/m*3 23.5 C 0 km/h
631 19-05-2009 14:28:16 23.7 C 7.06 g/m*3 23.7 C 0 km/h
632 19-05-2009 14:40:14 22.7 C 7.27 g/m*3 22.7 C 0 km/h
633 19-05-2009 14:52:15 24.1 C 6.35 g/m*3 24.1 C 0 km/h
634 19-05-2009 15:04:14 25.4 C 5.18 g/m*3 25.4 C 0 km/h
635 19-05-2009 15:16:14 24.1 C 6.78 g/m*3 24.1 C 0 km/h
636 19-05-2009 15:28:14 23.2 C 7.48 g/m*3 23.2 C 0 km/h
637 19-05-2009 15:40:15 26 C 5.6 g/m*3 26 C 0 km/h
638 19-05-2009 15:52:14 27.4 C 5.79 g/m*3 27.4 C 0 km/h
639 19-05-2009 16:04:14 27.7 C 5.35 g/m*3 27.7 C 0 km/h
640 19-05-2009 16:16:13 28.2 C 5.5 g/m*3 28.2 C 0 km/h
641 19-05-2009 16:28:13 27.9 C 5.41 g/m*3 27.9 C 0 km/h
642 19-05-2009 16:40:14 27.3 C 6.54 g/m*3 27.3 C 0 km/h
643 19-05-2009 16:52:13 26.5 C 6.01 g/m*3 26.5 C 0 km/h
644 19-05-2009 17:04:13 25.9 C 6.29 g/m*3 25.9 C 0 km/h
645 19-05-2009 17:16:14 24.9 C 7.1 g/m*3 24.9 C 0 km/h
646 19-05-2009 17:28:14 21.6 C 10.05 g/m*3 21.6 C 0 km/h
647 19-05-2009 17:40:13 23.8 C 10.54 g/m*3 23.8 C 0 km/h
648 19-05-2009 17:52:13 23.6 C 9.57 g/m*3 23.6 C 0 km/h
649 19-05-2009 18:04:13 23.7 C 8.98 g/m*3 23.7 C 0 km/h
650 19-05-2009 18:16:13 25.1 C 7.18 g/m*3 25.1 C 0 km/h
Sensor: Nr:Datum:Temp:Abs-Feuchte:Windchill:Wind:
Aussen-T/F 651 19-05-2009 18:28:14 24.9 C 8.7 g/m*3 24.9 C 0 km/h
652 19-05-2009 18:40:12 24.1 C 8.53 g/m*3 24.1 C 0 km/h
653 19-05-2009 18:52:12 23.7 C 9.41 g/m*3 23.7 C 0 km/h
654 19-05-2009 19:04:12 23.1 C 9.3 g/m*3 23.1 C 0 km/h
655 19-05-2009 19:16:12 22 C 8.93 g/m*3 22 C 0 km/h
656 19-05-2009 19:28:12 21.6 C 8.72 g/m*3 21.6 C 0 km/h
657 19-05-2009 19:40:12 21.2 C 9.08 g/m*3 21.2 C 0 km/h
658 19-05-2009 19:52:12 20.6 C 9.31 g/m*3 20.6 C 0 km/h
659 19-05-2009 20:04:12 18.5 C 8.54 g/m*3 18.5 C 0 km/h
660 19-05-2009 20:16:11 16.9 C 9.21 g/m*3 16.9 C 0 km/h
661 19-05-2009 20:28:11 15.7 C 9.63 g/m*3 15.7 C 0 km/h
662 19-05-2009 20:40:12 15.6 C 10.24 g/m*3 15.6 C 0 km/h
663 19-05-2009 20:52:11 16.1 C 10.55 g/m*3 16.1 C 0 km/h
664 19-05-2009 21:04:11 15.9 C 10.56 g/m*3 15.9 C 0 km/h
665 19-05-2009 21:16:11 15.9 C 10.7 g/m*3 15.9 C 0 km/h
666 19-05-2009 21:28:12 15.8 C 10.36 g/m*3 15.8 C 0 km/h
667 19-05-2009 21:40:10 15.7 C 10.17 g/m*3 15.7 C 0 km/h
668 19-05-2009 21:52:11 15.6 C 10.11 g/m*3 15.6 C 0 km/h
669 19-05-2009 22:04:10 15.3 C 9.79 g/m*3 15.3 C 0 km/h
670 19-05-2009 22:16:10 15.3 C 9.66 g/m*3 15.3 C 0 km/h
671 19-05-2009 22:28:10 15 C 9.49 g/m*3 15 C 0 km/h
672 19-05-2009 22:41:13 14.7 C 9.44 g/m*3 14.7 C 0 km/h
673 19-05-2009 22:53:13 14.7 C 9.44 g/m*3 14.7 C 0 km/h
674 19-05-2009 23:05:13 14.4 C 9.27 g/m*3 14.4 C 0 km/h
675 19-05-2009 23:17:13 14.2 C 9.28 g/m*3 14.2 C 0 km/h
Sensor: Nr:Datum:Temp:Abs-Feuchte:Windchill:Wind:
Aussen-T/F 676 19-05-2009 23:29:13 14.1 C 9.22 g/m*3 14.1 C 0 km/h
677 19-05-2009 23:41:13 13.9 C 9.47 g/m*3 13.9 C 0 km/h
678 19-05-2009 23:53:13 13.7 C 9.24 g/m*3 13.7 C 0 km/h
679 20-05-2009 00:05:13 13.6 C 9.3 g/m*3 13.6 C 0 km/h
680 20-05-2009 00:17:13 13.3 C 9.01 g/m*3 13.3 C 0 km/h
681 20-05-2009 00:29:13 13.4 C 9.07 g/m*3 13.4 C 0 km/h
682 20-05-2009 00:41:13 13.2 C 8.96 g/m*3 13.2 C 0 km/h
683 20-05-2009 00:53:14 13.1 C 8.9 g/m*3 13.1 C 0 km/h
684 20-05-2009 01:05:14 13 C 8.85 g/m*3 13 C 0 km/h
685 20-05-2009 01:17:14 12.8 C 8.85 g/m*3 12.8 C 0 km/h
686 20-05-2009 01:29:14 12.6 C 8.74 g/m*3 12.6 C 0 km/h
687 20-05-2009 01:41:14 12.5 C 8.69 g/m*3 12.5 C 0 km/h
688 20-05-2009 01:53:14 12.4 C 8.74 g/m*3 12.4 C 0 km/h
689 20-05-2009 02:05:14 12.2 C 8.63 g/m*3 12.2 C 0 km/h
690 20-05-2009 02:17:14 12.1 C 8.69 g/m*3 12.1 C 0 km/h
691 20-05-2009 02:29:14 12 C 8.63 g/m*3 12 C 0 km/h
692 20-05-2009 02:41:14 11.8 C 8.53 g/m*3 11.8 C 0 km/h
693 20-05-2009 02:53:14 11.8 C 8.63 g/m*3 11.8 C 0 km/h
694 20-05-2009 03:05:14 11.8 C 8.74 g/m*3 11.8 C 0 km/h
695 20-05-2009 03:17:14 11.5 C 8.68 g/m*3 11.5 C 0 km/h
696 20-05-2009 03:29:14 11.3 C 8.67 g/m*3 11.3 C 0 km/h
697 20-05-2009 03:41:14 11.1 C 8.56 g/m*3 11.1 C 0 km/h
698 20-05-2009 03:53:14 11.1 C 8.66 g/m*3 11.1 C 0 km/h
699 20-05-2009 04:05:14 11 C 8.61 g/m*3 11 C 0 km/h
700 20-05-2009 04:17:14 10.9 C 8.55 g/m*3 10.9 C 0 km/h
Sensor: Nr:Datum:Temp:Abs-Feuchte:Windchill:Wind:
Aussen-T/F 701 20-05-2009 04:29:15 10.8 C 8.5 g/m*3 10.8 C 0 km/h
702 20-05-2009 04:41:15 10.6 C 8.39 g/m*3 10.6 C 0 km/h
703 20-05-2009 04:53:15 10.4 C 8.38 g/m*3 10.4 C 0 km/h
704 20-05-2009 05:05:15 10.3 C 8.33 g/m*3 10.3 C 0 km/h
705 20-05-2009 05:17:15 10.3 C 8.43 g/m*3 10.3 C 0 km/h
706 20-05-2009 05:29:15 10.2 C 8.37 g/m*3 10.2 C 0 km/h
707 20-05-2009 05:41:15 10 C 8.27 g/m*3 10 C 0 km/h
708 20-05-2009 05:53:15 10.1 C 8.32 g/m*3 10.1 C 0 km/h
709 20-05-2009 06:05:15 10.2 C 8.37 g/m*3 10.2 C 0 km/h
710 20-05-2009 06:17:15 10.4 C 8.48 g/m*3 10.4 C 0 km/h
711 20-05-2009 06:29:15 10.6 C 8.49 g/m*3 10.6 C 0 km/h
712 20-05-2009 06:41:15 10.7 C 8.55 g/m*3 10.7 C 0 km/h
713 20-05-2009 06:53:12 10.8 C 8.5 g/m*3 10.8 C 0 km/h
714 20-05-2009 07:05:12 10.9 C 8.55 g/m*3 10.9 C 0 km/h
715 20-05-2009 07:17:11 11 C 8.61 g/m*3 11 C 0 km/h
716 20-05-2009 07:29:11 11 C 8.61 g/m*3 11 C 0 km/h
717 20-05-2009 07:41:12 11.4 C 8.72 g/m*3 11.4 C 0 km/h
718 20-05-2009 07:53:11 11.5 C 8.68 g/m*3 11.5 C 0 km/h
719 20-05-2009 08:05:11 11.7 C 8.79 g/m*3 11.7 C 0 km/h
720 20-05-2009 08:17:10 12.1 C 8.79 g/m*3 12.1 C 0 km/h
721 20-05-2009 08:29:10 12.8 C 8.85 g/m*3 12.8 C 0 km/h
722 20-05-2009 08:41:11 13.2 C 8.73 g/m*3 13.2 C 0 km/h
723 20-05-2009 08:53:10 13.9 C 8.87 g/m*3 13.9 C 0 km/h
724 20-05-2009 09:05:10 14 C 8.68 g/m*3 14 C 0 km/h
725 20-05-2009 09:17:11 14.4 C 8.9 g/m*3 14.4 C 0 km/h
Sensor: Nr:Datum:Temp:Abs-Feuchte:Windchill:Wind:
Aussen-T/F 726 20-05-2009 09:29:11 15 C 8.98 g/m*3 15 C 0 km/h
727 20-05-2009 09:41:10 15.9 C 9.21 g/m*3 15.9 C 0 km/h
728 20-05-2009 09:53:10 16.6 C 9.04 g/m*3 16.6 C 0 km/h
729 20-05-2009 10:05:10 17 C 9.26 g/m*3 17 C 0 km/h
730 20-05-2009 10:17:10 17.5 C 9.54 g/m*3 17.5 C 0 km/h
731 20-05-2009 10:29:10 17.8 C 9.71 g/m*3 17.8 C 0 km/h
732 20-05-2009 10:41:10 17.9 C 9.31 g/m*3 17.9 C 0 km/h
733 20-05-2009 10:53:10 18.6 C 9.39 g/m*3 18.6 C 0 km/h
734 20-05-2009 11:05:10 19.2 C 8.9 g/m*3 19.2 C 0 km/h
735 20-05-2009 11:17:09 20.4 C 8.85 g/m*3 20.4 C 0 km/h
736 20-05-2009 11:29:09 20.8 C 8.69 g/m*3 20.8 C 0 km/h
737 20-05-2009 11:41:09 21.6 C 8.53 g/m*3 21.6 C 0 km/h
738 20-05-2009 11:53:09 22.5 C 8.39 g/m*3 22.5 C 0 km/h
739 20-05-2009 12:05:09 23.1 C 8.27 g/m*3 23.1 C 0 km/h
740 20-05-2009 12:17:08 23.4 C 7.99 g/m*3 23.4 C 0 km/h
741 20-05-2009 12:29:08 24.2 C 7.7 g/m*3 24.2 C 0 km/h
742 20-05-2009 12:41:08 24.7 C 7.24 g/m*3 24.7 C 0 km/h
743 20-05-2009 12:53:08 25.2 C 7.45 g/m*3 25.2 C 0 km/h
744 20-05-2009 13:05:08 25.5 C 7.1 g/m*3 25.5 C 0 km/h
745 20-05-2009 13:17:08 26.6 C 7.3 g/m*3 26.6 C 0 km/h
746 20-05-2009 13:29:08 26.8 C 6.62 g/m*3 26.8 C 0 km/h
747 20-05-2009 13:41:08 26.3 C 6.68 g/m*3 26.3 C 0 km/h
748 20-05-2009 13:53:08 26 C 6.57 g/m*3 26 C 0 km/h
749 20-05-2009 14:05:07 25.4 C 7.06 g/m*3 25.4 C 0 km/h
750 20-05-2009 14:17:08 25.5 C 7.1 g/m*3 25.5 C 0 km/h
Sensor: Nr:Datum:Temp:Abs-Feuchte:Windchill:Wind:
Aussen-T/F 751 20-05-2009 14:29:08 26.4 C 7.22 g/m*3 26.4 C 0 km/h
752 20-05-2009 14:41:07 27.2 C 7.03 g/m*3 27.2 C 0 km/h
753 20-05-2009 14:53:07 28 C 6.8 g/m*3 28 C 0 km/h
754 20-05-2009 15:05:07 28.1 C 7.11 g/m*3 28.1 C 0 km/h
755 20-05-2009 15:17:07 27.9 C 7.57 g/m*3 27.9 C 0 km/h
756 20-05-2009 15:29:07 28.4 C 6.95 g/m*3 28.4 C 0 km/h
757 20-05-2009 15:41:07 28.6 C 7.31 g/m*3 28.6 C 0 km/h
758 20-05-2009 15:53:06 28.7 C 7.35 g/m*3 28.7 C 0 km/h
759 20-05-2009 16:05:07 28 C 7.07 g/m*3 28 C 0 km/h
760 20-05-2009 16:17:06 27.7 C 7.49 g/m*3 27.7 C 0 km/h
761 20-05-2009 16:29:06 26.4 C 7.97 g/m*3 26.4 C 0 km/h
762 20-05-2009 16:41:06 27 C 6.95 g/m*3 27 C 0 km/h
763 20-05-2009 16:53:06 28.2 C 7.42 g/m*3 28.2 C 0 km/h
764 20-05-2009 17:05:06 28.8 C 7.1 g/m*3 28.8 C 0 km/h
765 20-05-2009 17:17:06 28.2 C 8.25 g/m*3 28.2 C 0 km/h
766 20-05-2009 17:29:06 27.7 C 8.29 g/m*3 27.7 C 0 km/h
767 20-05-2009 17:41:05 27.4 C 8.68 g/m*3 27.4 C 0 km/h
768 20-05-2009 17:53:06 26.8 C 8.65 g/m*3 26.8 C 0 km/h
769 20-05-2009 18:05:05 27.7 C 8.56 g/m*3 27.7 C 0 km/h
770 20-05-2009 18:17:05 26.5 C 8.76 g/m*3 26.5 C 0 km/h
771 20-05-2009 18:29:06 26.3 C 8.91 g/m*3 26.3 C 0 km/h
772 20-05-2009 18:41:05 26.1 C 8.81 g/m*3 26.1 C 0 km/h
773 20-05-2009 18:53:05 25.5 C 9.71 g/m*3 25.5 C 0 km/h
774 20-05-2009 19:05:05 24.8 C 9.79 g/m*3 24.8 C 0 km/h
775 20-05-2009 19:17:04 24.5 C 9.85 g/m*3 24.5 C 0 km/h
Sensor: Nr:Datum:Temp:Abs-Feuchte:Windchill:Wind:
Aussen-T/F 776 20-05-2009 19:29:04 23.9 C 9.95 g/m*3 23.9 C 0 km/h
777 20-05-2009 19:41:05 23.8 C 9.9 g/m*3 23.8 C 0 km/h
778 20-05-2009 19:53:04 23.5 C 10.15 g/m*3 23.5 C 0 km/h
779 20-05-2009 20:05:04 23.1 C 10.13 g/m*3 23.1 C 0 km/h
780 20-05-2009 20:17:04 22.2 C 10.41 g/m*3 22.2 C 0 km/h
781 20-05-2009 20:29:04 21.8 C 10.55 g/m*3 21.8 C 0 km/h
782 20-05-2009 20:41:04 21.5 C 10.37 g/m*3 21.5 C 0 km/h
783 20-05-2009 20:53:03 21.3 C 10.62 g/m*3 21.3 C 0 km/h
784 20-05-2009 21:05:04 20.8 C 10.5 g/m*3 20.8 C 0 km/h
785 20-05-2009 21:17:04 20.4 C 10.26 g/m*3 20.4 C 0 km/h
786 20-05-2009 21:29:04 20.3 C 10.38 g/m*3 20.3 C 0 km/h
787 20-05-2009 21:41:03 19.8 C 10.42 g/m*3 19.8 C 0 km/h
788 20-05-2009 21:53:04 19.5 C 10.24 g/m*3 19.5 C 0 km/h
789 20-05-2009 22:05:03 19.2 C 10.22 g/m*3 19.2 C 0 km/h
790 20-05-2009 22:17:03 19.1 C 10.33 g/m*3 19.1 C 0 km/h
791 20-05-2009 22:29:03 19 C 10.27 g/m*3 19 C 0 km/h
792 20-05-2009 22:41:02 18.9 C 10.53 g/m*3 18.9 C 0 km/h
793 20-05-2009 22:54:04 18.7 C 10.73 g/m*3 18.7 C 0 km/h
794 20-05-2009 23:06:04 18.4 C 10.54 g/m*3 18.4 C 0 km/h
795 20-05-2009 23:18:04 18.3 C 10.79 g/m*3 18.3 C 0 km/h
796 20-05-2009 23:30:04 18.2 C 10.72 g/m*3 18.2 C 0 km/h
797 20-05-2009 23:42:04 18.2 C 11.04 g/m*3 18.2 C 0 km/h
798 20-05-2009 23:54:04 18.1 C 10.82 g/m*3 18.1 C 0 km/h
799 21-05-2009 00:06:04 17.7 C 10.86 g/m*3 17.7 C 0 km/h
800 21-05-2009 00:18:04 17.5 C 10.73 g/m*3 17.5 C 0 km/h
Sensor: Nr:Datum:Temp:Abs-Feuchte:Windchill:Wind:
Aussen-T/F 801 21-05-2009 00:30:04 17.5 C 10.88 g/m*3 17.5 C 0 km/h
802 21-05-2009 00:42:04 17.4 C 10.82 g/m*3 17.4 C 0 km/h
803 21-05-2009 00:54:04 17.1 C 10.77 g/m*3 17.1 C 0 km/h
804 21-05-2009 01:06:04 16.9 C 10.79 g/m*3 16.9 C 0 km/h
805 21-05-2009 01:18:04 16.8 C 10.87 g/m*3 16.8 C 0 km/h
806 21-05-2009 01:30:04 16.4 C 10.61 g/m*3 16.4 C 0 km/h
807 21-05-2009 01:42:04 16.2 C 10.62 g/m*3 16.2 C 0 km/h
808 21-05-2009 01:54:04 16.2 C 10.48 g/m*3 16.2 C 0 km/h
809 21-05-2009 02:06:04 16 C 10.49 g/m*3 16 C 0 km/h
810 21-05-2009 02:18:05 15.7 C 10.44 g/m*3 15.7 C 0 km/h
811 21-05-2009 02:30:05 15.6 C 10.51 g/m*3 15.6 C 0 km/h
812 21-05-2009 02:42:05 15.4 C 10.38 g/m*3 15.4 C 0 km/h
813 21-05-2009 02:54:05 15.2 C 10.25 g/m*3 15.2 C 0 km/h
814 21-05-2009 03:06:05 15.2 C 10.25 g/m*3 15.2 C 0 km/h
815 21-05-2009 03:18:05 15.2 C 10.25 g/m*3 15.2 C 0 km/h
816 21-05-2009 03:30:05 15 C 10.26 g/m*3 15 C 0 km/h
817 21-05-2009 03:42:05 15 C 10.26 g/m*3 15 C 0 km/h
818 21-05-2009 03:54:05 15 C 10.13 g/m*3 15 C 0 km/h
819 21-05-2009 04:06:05 14.9 C 10.32 g/m*3 14.9 C 0 km/h
820 21-05-2009 04:18:05 14.7 C 10.32 g/m*3 14.7 C 0 km/h
821 21-05-2009 04:30:05 14.7 C 10.32 g/m*3 14.7 C 0 km/h
822 21-05-2009 04:42:05 14.7 C 10.32 g/m*3 14.7 C 0 km/h
823 21-05-2009 04:54:05 14.7 C 10.2 g/m*3 14.7 C 0 km/h
824 21-05-2009 05:06:05 14.7 C 10.2 g/m*3 14.7 C 0 km/h
825 21-05-2009 05:18:05 14.6 C 10.14 g/m*3 14.6 C 0 km/h
Sensor: Nr:Datum:Temp:Abs-Feuchte:Windchill:Wind:
Aussen-T/F 826 21-05-2009 05:30:05 14.5 C 10.07 g/m*3 14.5 C 0 km/h
827 21-05-2009 05:42:05 14.6 C 10.14 g/m*3 14.6 C 0 km/h
828 21-05-2009 05:54:05 14.6 C 10.14 g/m*3 14.6 C 0 km/h
829 21-05-2009 06:06:06 14.6 C 10.26 g/m*3 14.6 C 0 km/h
830 21-05-2009 06:18:06 14.3 C 10.2 g/m*3 14.3 C 0 km/h
831 21-05-2009 06:30:06 14.4 C 10.26 g/m*3 14.4 C 0 km/h
832 21-05-2009 06:42:06 14.5 C 10.32 g/m*3 14.5 C 0 km/h
833 21-05-2009 06:54:06 14.5 C 10.32 g/m*3 14.5 C 0 km/h
834 21-05-2009 07:06:06 14.6 C 10.39 g/m*3 14.6 C 0 km/h
835 21-05-2009 07:18:03 14.4 C 10.38 g/m*3 14.4 C 0 km/h
836 21-05-2009 07:30:04 14.6 C 10.64 g/m*3 14.6 C 0 km/h
837 21-05-2009 07:42:04 14.7 C 10.7 g/m*3 14.7 C 0 km/h
838 21-05-2009 07:54:03 14.8 C 10.64 g/m*3 14.8 C 0 km/h
839 21-05-2009 08:06:03 15.1 C 10.71 g/m*3 15.1 C 0 km/h
840 21-05-2009 08:18:04 15.6 C 10.91 g/m*3 15.6 C 0 km/h
841 21-05-2009 08:30:03 16 C 10.63 g/m*3 16 C 0 km/h
842 21-05-2009 08:42:03 16.3 C 10.54 g/m*3 16.3 C 0 km/h
843 21-05-2009 08:54:03 16.6 C 10.59 g/m*3 16.6 C 0 km/h
844 21-05-2009 09:06:03 16.3 C 10.68 g/m*3 16.3 C 0 km/h
845 21-05-2009 09:18:03 16.6 C 11.02 g/m*3 16.6 C 0 km/h
846 21-05-2009 09:30:03 17.3 C 10.9 g/m*3 17.3 C 0 km/h
847 21-05-2009 09:42:03 18.1 C 10.66 g/m*3 18.1 C 0 km/h
848 21-05-2009 09:54:03 18.6 C 10.82 g/m*3 18.6 C 0 km/h
849 21-05-2009 10:06:02 19.5 C 10.74 g/m*3 19.5 C 0 km/h
850 21-05-2009 10:18:02 20.3 C 10.55 g/m*3 20.3 C 0 km/h
Sensor: Nr:Datum:Temp:Abs-Feuchte:Windchill:Wind:
Aussen-T/F 851 21-05-2009 10:30:02 20.9 C 10.56 g/m*3 20.9 C 0 km/h
852 21-05-2009 10:42:02 21.7 C 10.87 g/m*3 21.7 C 0 km/h
853 21-05-2009 10:54:02 22.5 C 10.59 g/m*3 22.5 C 0 km/h
854 21-05-2009 11:06:01 22.4 C 9.73 g/m*3 22.4 C 0 km/h
855 21-05-2009 11:18:02 22.3 C 9.48 g/m*3 22.3 C 0 km/h
856 21-05-2009 11:30:01 23.2 C 9.36 g/m*3 23.2 C 0 km/h
857 21-05-2009 11:42:01 23 C 9.25 g/m*3 23 C 0 km/h
858 21-05-2009 11:54:02 23.7 C 9.2 g/m*3 23.7 C 0 km/h
859 21-05-2009 12:06:01 24.5 C 9.18 g/m*3 24.5 C 0 km/h
860 21-05-2009 12:18:01 24.3 C 9.52 g/m*3 24.3 C 0 km/h
861 21-05-2009 12:30:01 25.2 C 9.31 g/m*3 25.2 C 0 km/h
862 21-05-2009 12:42:01 26.1 C 9.06 g/m*3 26.1 C 0 km/h
863 21-05-2009 12:54:01 27.4 C 9.21 g/m*3 27.4 C 0 km/h
864 21-05-2009 13:06:01 27.2 C 8.85 g/m*3 27.2 C 0 km/h
865 21-05-2009 13:18:00 26.4 C 8.96 g/m*3 26.4 C 0 km/h
866 21-05-2009 13:30:01 26.7 C 9.37 g/m*3 26.7 C 0 km/h
867 21-05-2009 13:42:01 26.7 C 9.37 g/m*3 26.7 C 0 km/h
868 21-05-2009 13:54:00 25.1 C 9.26 g/m*3 25.1 C 0 km/h
869 21-05-2009 14:06:00 24.6 C 9.45 g/m*3 24.6 C 0 km/h
870 21-05-2009 14:18:00 24.6 C 9.23 g/m*3 24.6 C 0 km/h
871 21-05-2009 14:30:00 24.1 C 9.41 g/m*3 24.1 C 0 km/h
872 21-05-2009 14:42:00 25.3 C 9.13 g/m*3 25.3 C 0 km/h
873 21-05-2009 14:54:59 26.9 C 8.96 g/m*3 26.9 C 0 km/h
874 21-05-2009 15:05:59 26.4 C 8.71 g/m*3 26.4 C 0 km/h
875 21-05-2009 15:18:00 25.4 C 9.18 g/m*3 25.4 C 0 km/h
Sensor: Nr:Datum:Temp:Abs-Feuchte:Windchill:Wind:
Aussen-T/F 876 21-05-2009 15:30:59 24.5 C 9.18 g/m*3 24.5 C 0 km/h
877 21-05-2009 15:42:59 24.2 C 9.02 g/m*3 24.2 C 0 km/h
878 21-05-2009 15:54:59 25 C 9.21 g/m*3 25 C 0 km/h
879 21-05-2009 16:06:59 24.8 C 9.1 g/m*3 24.8 C 0 km/h
880 21-05-2009 16:18:59 24.1 C 8.53 g/m*3 24.1 C 0 km/h
881 21-05-2009 16:30:59 24.6 C 9 g/m*3 24.6 C 0 km/h
882 21-05-2009 16:42:59 25.8 C 9.39 g/m*3 25.8 C 0 km/h
883 21-05-2009 16:54:58 24.7 C 9.05 g/m*3 24.7 C 0 km/h
884 21-05-2009 17:06:58 25.1 C 9.03 g/m*3 25.1 C 0 km/h
885 21-05-2009 17:18:59 25.1 C 9.03 g/m*3 25.1 C 0 km/h
886 21-05-2009 17:30:58 24.8 C 9.1 g/m*3 24.8 C 0 km/h
887 21-05-2009 17:42:58 24.4 C 9.79 g/m*3 24.4 C 0 km/h
888 21-05-2009 17:54:58 23.5 C 9.94 g/m*3 23.5 C 0 km/h
889 21-05-2009 18:06:58 23.3 C 9.41 g/m*3 23.3 C 0 km/h
890 21-05-2009 18:18:58 23.1 C 10.54 g/m*3 23.1 C 0 km/h
891 21-05-2009 18:30:57 22.7 C 10.3 g/m*3 22.7 C 0 km/h
892 21-05-2009 18:42:57 22.4 C 10.13 g/m*3 22.4 C 0 km/h
893 21-05-2009 18:54:58 22.3 C 10.07 g/m*3 22.3 C 0 km/h
894 21-05-2009 19:06:57 22 C 9.9 g/m*3 22 C 0 km/h
895 21-05-2009 19:18:57 21.9 C 9.84 g/m*3 21.9 C 0 km/h
896 21-05-2009 19:30:57 21.9 C 9.84 g/m*3 21.9 C 0 km/h
897 21-05-2009 19:42:57 21.7 C 9.92 g/m*3 21.7 C 0 km/h
898 21-05-2009 19:54:57 21.6 C 9.67 g/m*3 21.6 C 0 km/h
899 21-05-2009 20:06:56 20.9 C 9.29 g/m*3 20.9 C 0 km/h
900 21-05-2009 20:18:56 19.4 C 9.18 g/m*3 19.4 C 0 km/h
Sensor: Nr:Datum:Temp:Abs-Feuchte:Windchill:Wind:
Aussen-T/F 901 21-05-2009 20:30:57 19.3 C 9.79 g/m*3 19.3 C 0 km/h
902 21-05-2009 20:42:57 17.4 C 11.41 g/m*3 17.4 C 0 km/h
903 21-05-2009 20:54:56 16.4 C 11.86 g/m*3 16.4 C 0 km/h
904 21-05-2009 21:06:56 16.2 C 12 g/m*3 16.2 C 0 km/h
905 21-05-2009 21:18:55 16.1 C 12.06 g/m*3 16.1 C 0 km/h
906 21-05-2009 21:30:56 16.1 C 12.2 g/m*3 16.1 C 0 km/h
907 21-05-2009 21:42:56 16.2 C 12.27 g/m*3 16.2 C 0 km/h
908 21-05-2009 21:54:55 16.2 C 12.27 g/m*3 16.2 C 0 km/h
909 21-05-2009 22:06:55 15.8 C 12.11 g/m*3 15.8 C 0 km/h
910 21-05-2009 22:18:56 15.8 C 12.11 g/m*3 15.8 C 0 km/h
911 21-05-2009 22:30:55 15.8 C 12.11 g/m*3 15.8 C 0 km/h
912 21-05-2009 22:42:55 15.7 C 12.04 g/m*3 15.7 C 0 km/h
913 21-05-2009 22:54:55 15.4 C 11.69 g/m*3 15.4 C 0 km/h
914 21-05-2009 23:06:55 15 C 11.16 g/m*3 15 C 0 km/h
915 21-05-2009 23:18:55 14.6 C 10.89 g/m*3 14.6 C 0 km/h
916 21-05-2009 23:30:54 14.1 C 10.44 g/m*3 14.1 C 0 km/h
917 21-05-2009 23:42:54 13.7 C 10.07 g/m*3 13.7 C 0 km/h
918 21-05-2009 23:54:54 13.8 C 10.13 g/m*3 13.8 C 0 km/h
919 22-05-2009 00:06:54 13.5 C 9.83 g/m*3 13.5 C 0 km/h
920 22-05-2009 00:18:55 13.4 C 9.65 g/m*3 13.4 C 0 km/h
921 22-05-2009 00:30:54 13.3 C 9.7 g/m*3 13.3 C 0 km/h
922 22-05-2009 00:42:54 13.3 C 9.7 g/m*3 13.3 C 0 km/h
923 22-05-2009 00:54:54 13.4 C 9.88 g/m*3 13.4 C 0 km/h
924 22-05-2009 01:06:53 13.3 C 9.82 g/m*3 13.3 C 0 km/h
925 22-05-2009 01:18:54 13.4 C 9.88 g/m*3 13.4 C 0 km/h
Sensor: Nr:Datum:Temp:Abs-Feuchte:Windchill:Wind:
Aussen-T/F 926 22-05-2009 01:30:53 13.2 C 9.64 g/m*3 13.2 C 0 km/h
927 22-05-2009 01:42:53 13.1 C 9.47 g/m*3 13.1 C 0 km/h
928 22-05-2009 01:54:53 13.3 C 9.7 g/m*3 13.3 C 0 km/h
929 22-05-2009 02:06:53 13.4 C 9.65 g/m*3 13.4 C 0 km/h
930 22-05-2009 02:18:53 13.4 C 9.42 g/m*3 13.4 C 0 km/h
931 22-05-2009 02:30:53 13.5 C 9.36 g/m*3 13.5 C 0 km/h
932 22-05-2009 02:42:53 13.3 C 9.24 g/m*3 13.3 C 0 km/h
933 22-05-2009 02:56:01 13.2 C 9.19 g/m*3 13.2 C 0 km/h
934 22-05-2009 03:08:01 13.1 C 9.01 g/m*3 13.1 C 0 km/h
935 22-05-2009 03:20:02 13.2 C 9.07 g/m*3 13.2 C 0 km/h
936 22-05-2009 03:32:01 13.4 C 9.18 g/m*3 13.4 C 0 km/h
937 22-05-2009 03:44:01 13.5 C 9.24 g/m*3 13.5 C 0 km/h
938 22-05-2009 03:56:01 13.2 C 9.19 g/m*3 13.2 C 0 km/h
939 22-05-2009 04:07:53 13.1 C 9.24 g/m*3 13.1 C 0 km/h
940 22-05-2009 04:19:54 13 C 9.07 g/m*3 13 C 0 km/h
941 22-05-2009 04:31:54 13.1 C 9.01 g/m*3 13.1 C 0 km/h
942 22-05-2009 04:43:54 13 C 8.85 g/m*3 13 C 0 km/h
943 22-05-2009 04:55:54 12.8 C 8.85 g/m*3 12.8 C 0 km/h
944 22-05-2009 05:07:53 12.9 C 8.9 g/m*3 12.9 C 0 km/h
945 22-05-2009 05:19:53 13 C 8.96 g/m*3 13 C 0 km/h
946 22-05-2009 05:31:53 12.9 C 8.9 g/m*3 12.9 C 0 km/h
947 22-05-2009 05:43:53 13 C 8.85 g/m*3 13 C 0 km/h
948 22-05-2009 05:55:53 12.8 C 8.74 g/m*3 12.8 C 0 km/h
949 22-05-2009 06:07:53 12.7 C 8.79 g/m*3 12.7 C 0 km/h
950 22-05-2009 06:19:52 12.4 C 8.52 g/m*3 12.4 C 0 km/h
Sensor: Nr:Datum:Temp:Abs-Feuchte:Windchill:Wind:
Aussen-T/F 951 22-05-2009 06:31:52 12.5 C 8.58 g/m*3 12.5 C 0 km/h
952 22-05-2009 06:43:52 12.5 C 8.69 g/m*3 12.5 C 0 km/h
953 22-05-2009 06:55:52 12.7 C 8.91 g/m*3 12.7 C 0 km/h
954 22-05-2009 07:07:52 13.2 C 9.19 g/m*3 13.2 C 0 km/h
955 22-05-2009 07:19:52 13.5 C 9.47 g/m*3 13.5 C 0 km/h
956 22-05-2009 07:31:52 13.7 C 9.35 g/m*3 13.7 C 0 km/h
957 22-05-2009 07:43:52 13.9 C 9.23 g/m*3 13.9 C 0 km/h
958 22-05-2009 07:55:52 13.8 C 9.17 g/m*3 13.8 C 0 km/h
959 22-05-2009 08:07:51 13.8 C 9.17 g/m*3 13.8 C 0 km/h
960 22-05-2009 08:19:51 14.1 C 9.22 g/m*3 14.1 C 0 km/h
961 22-05-2009 08:31:51 14.5 C 9.58 g/m*3 14.5 C 0 km/h
962 22-05-2009 08:43:51 14.9 C 9.05 g/m*3 14.9 C 0 km/h
963 22-05-2009 08:55:51 15.3 C 8.49 g/m*3 15.3 C 0 km/h
964 22-05-2009 09:07:51 16 C 8.17 g/m*3 16 C 0 km/h
965 22-05-2009 09:19:51 16.3 C 8.32 g/m*3 16.3 C 0 km/h
966 22-05-2009 09:31:50 16.5 C 8 g/m*3 16.5 C 0 km/h
967 22-05-2009 09:43:51 17.1 C 7.42 g/m*3 17.1 C 0 km/h
968 22-05-2009 09:55:51 16.9 C 6.62 g/m*3 16.9 C 0 km/h
969 22-05-2009 10:07:50 17.2 C 6.59 g/m*3 17.2 C 0 km/h
970 22-05-2009 10:19:51 17.7 C 6.49 g/m*3 17.7 C 0 km/h
971 22-05-2009 10:31:51 17.6 C 6.75 g/m*3 17.6 C 0 km/h
972 22-05-2009 10:43:50 18.7 C 7.68 g/m*3 18.7 C 0 km/h
973 22-05-2009 10:55:50 19.5 C 7.22 g/m*3 19.5 C 0 km/h
974 22-05-2009 11:07:50 20 C 6.91 g/m*3 20 C 0 km/h
975 22-05-2009 11:19:49 20.3 C 7.03 g/m*3 20.3 C 0 km/h
Sensor: Nr:Datum:Temp:Abs-Feuchte:Windchill:Wind:
Aussen-T/F 976 22-05-2009 11:31:50 20.7 C 7.2 g/m*3 20.7 C 0 km/h
977 22-05-2009 11:43:49 20.7 C 6.66 g/m*3 20.7 C 0 km/h
978 22-05-2009 11:55:49 20.2 C 6.29 g/m*3 20.2 C 0 km/h
979 22-05-2009 12:07:49 20.2 C 6.47 g/m*3 20.2 C 0 km/h
980 22-05-2009 12:19:49 20 C 6.39 g/m*3 20 C 0 km/h
981 22-05-2009 12:31:49 21.7 C 6.68 g/m*3 21.7 C 0 km/h
982 22-05-2009 12:43:49 21.7 C 6.29 g/m*3 21.7 C 0 km/h
983 22-05-2009 12:55:49 22.3 C 5.53 g/m*3 22.3 C 0 km/h
984 22-05-2009 13:07:49 22.8 C 4.47 g/m*3 22.8 C 0 km/h
985 22-05-2009 13:19:49 23.1 C 4.13 g/m*3 23.1 C 0 km/h
986 22-05-2009 13:31:48 22.4 C 3.97 g/m*3 22.4 C 0 km/h
987 22-05-2009 13:43:49 22.5 C 5.19 g/m*3 22.5 C 0 km/h
988 22-05-2009 13:55:49 22.7 C 4.65 g/m*3 22.7 C 0 km/h
989 22-05-2009 14:07:48 23 C 4.11 g/m*3 23 C 0 km/h
990 22-05-2009 14:19:48 22.9 C 4.09 g/m*3 22.9 C 0 km/h
991 22-05-2009 14:31:48 22.9 C 4.09 g/m*3 22.9 C 0 km/h
992 22-05-2009 14:43:48 22.9 C 4.09 g/m*3 22.9 C 0 km/h
993 22-05-2009 14:55:48 23.2 C 4.16 g/m*3 23.2 C 0 km/h
994 22-05-2009 15:07:48 23.8 C 4.73 g/m*3 23.8 C 0 km/h
995 22-05-2009 15:19:47 23.6 C 4.25 g/m*3 23.6 C 0 km/h
996 22-05-2009 15:31:48 23.8 C 4.3 g/m*3 23.8 C 0 km/h
997 22-05-2009 15:43:47 24.5 C 4.48 g/m*3 24.5 C 0 km/h
998 22-05-2009 15:55:47 23.8 C 4.3 g/m*3 23.8 C 0 km/h
999 22-05-2009 16:07:47 24.7 C 4.53 g/m*3 24.7 C 0 km/h
1000 22-05-2009 16:19:46 24.4 C 4.45 g/m*3 24.4 C 0 km/h
Sensor: Nr:Datum:Temp:Abs-Feuchte:Windchill:Wind:
Aussen-T/F 1001 22-05-2009 16:31:47 22.5 C 3.99 g/m*3 22.5 C 0 km/h
1002 22-05-2009 16:43:46 21.9 C 4.05 g/m*3 21.9 C 0 km/h
1003 22-05-2009 16:55:46 23 C 4.32 g/m*3 23 C 0 km/h
1004 22-05-2009 17:07:47 23.1 C 4.13 g/m*3 23.1 C 0 km/h
1005 22-05-2009 17:19:46 22.8 C 4.27 g/m*3 22.8 C 0 km/h
1006 22-05-2009 17:31:46 23.6 C 4.25 g/m*3 23.6 C 0 km/h
1007 22-05-2009 17:43:45 23.8 C 4.3 g/m*3 23.8 C 0 km/h
1008 22-05-2009 17:55:45 23.7 C 4.28 g/m*3 23.7 C 0 km/h
1009 22-05-2009 18:07:46 24.1 C 4.38 g/m*3 24.1 C 0 km/h
1010 22-05-2009 18:19:46 24.5 C 4.48 g/m*3 24.5 C 0 km/h
1011 22-05-2009 18:31:45 23.9 C 4.33 g/m*3 23.9 C 0 km/h
1012 22-05-2009 18:43:46 23.2 C 4.16 g/m*3 23.2 C 0 km/h
1013 22-05-2009 18:55:46 24.4 C 4.45 g/m*3 24.4 C 0 km/h
1014 22-05-2009 19:07:45 23.7 C 4.28 g/m*3 23.7 C 0 km/h
1015 22-05-2009 19:19:45 24.1 C 4.38 g/m*3 24.1 C 0 km/h
1016 22-05-2009 19:31:44 23.4 C 4.21 g/m*3 23.4 C 0 km/h
1017 22-05-2009 19:43:45 23.8 C 4.3 g/m*3 23.8 C 0 km/h
1018 22-05-2009 19:55:45 23.8 C 4.3 g/m*3 23.8 C 0 km/h
1019 22-05-2009 20:07:44 22.8 C 4.06 g/m*3 22.8 C 0 km/h
1020 22-05-2009 20:19:44 21.8 C 3.84 g/m*3 21.8 C 0 km/h
1021 22-05-2009 20:31:45 21.2 C 4.26 g/m*3 21.2 C 0 km/h
1022 22-05-2009 20:43:44 20.3 C 4.22 g/m*3 20.3 C 0 km/h
1023 22-05-2009 20:55:44 19.6 C 4.56 g/m*3 19.6 C 0 km/h
1024 22-05-2009 21:07:44 19.3 C 4.98 g/m*3 19.3 C 0 km/h
1025 22-05-2009 21:19:44 18.6 C 4.62 g/m*3 18.6 C 0 km/h
Sensor: Nr:Datum:Temp:Abs-Feuchte:Windchill:Wind:
Aussen-T/F 1026 22-05-2009 21:31:44 18.3 C 5 g/m*3 18.3 C 0 km/h
1027 22-05-2009 21:43:44 18.1 C 4.64 g/m*3 18.1 C 0 km/h
1028 22-05-2009 21:55:44 17.7 C 4.68 g/m*3 17.7 C 0 km/h
1029 22-05-2009 22:07:43 17.5 C 4.92 g/m*3 17.5 C 0 km/h
1030 22-05-2009 22:19:44 17.2 C 4.69 g/m*3 17.2 C 0 km/h
1031 22-05-2009 22:32:44 16.8 C 5 g/m*3 16.8 C 0 km/h
1032 22-05-2009 22:44:44 16.3 C 4.99 g/m*3 16.3 C 0 km/h
1033 22-05-2009 22:56:44 16.1 C 5.21 g/m*3 16.1 C 0 km/h
1034 22-05-2009 23:08:44 15.9 C 5.42 g/m*3 15.9 C 0 km/h
1035 22-05-2009 23:20:44 15.5 C 5.55 g/m*3 15.5 C 0 km/h
1036 22-05-2009 23:32:44 14.8 C 5.83 g/m*3 14.8 C 0 km/h
1037 22-05-2009 23:44:44 14.4 C 5.93 g/m*3 14.4 C 0 km/h
1038 22-05-2009 23:56:44 14.2 C 5.86 g/m*3 14.2 C 0 km/h
1039 23-05-2009 00:08:44 13.8 C 5.96 g/m*3 13.8 C 0 km/h
1040 23-05-2009 00:20:45 13.5 C 6.08 g/m*3 13.5 C 0 km/h
1041 23-05-2009 00:32:45 13.4 C 6.16 g/m*3 13.4 C 0 km/h
1042 23-05-2009 00:44:45 13.2 C 6.2 g/m*3 13.2 C 0 km/h
1043 23-05-2009 00:56:45 13 C 6.12 g/m*3 13 C 0 km/h
1044 23-05-2009 01:08:45 12.9 C 6.31 g/m*3 12.9 C 0 km/h
1045 23-05-2009 01:20:45 12.5 C 6.27 g/m*3 12.5 C 0 km/h
1046 23-05-2009 01:32:45 12.3 C 6.3 g/m*3 12.3 C 0 km/h
1047 23-05-2009 01:44:45 12.1 C 6.33 g/m*3 12.1 C 0 km/h
1048 23-05-2009 01:56:45 12 C 6.5 g/m*3 12 C 0 km/h
1049 23-05-2009 02:08:45 11.8 C 6.53 g/m*3 11.8 C 0 km/h
1050 23-05-2009 02:20:45 11.5 C 6.51 g/m*3 11.5 C 0 km/h
Sensor: Nr:Datum:Temp:Abs-Feuchte:Windchill:Wind:
Aussen-T/F 1051 23-05-2009 02:32:45 11.1 C 6.55 g/m*3 11.1 C 0 km/h
1052 23-05-2009 02:44:45 10.9 C 6.66 g/m*3 10.9 C 0 km/h
1053 23-05-2009 02:56:45 10.6 C 6.64 g/m*3 10.6 C 0 km/h
1054 23-05-2009 03:08:45 10.6 C 6.73 g/m*3 10.6 C 0 km/h
1055 23-05-2009 03:20:45 10.5 C 6.79 g/m*3 10.5 C 0 km/h
1056 23-05-2009 03:32:45 10.4 C 6.65 g/m*3 10.4 C 0 km/h
1057 23-05-2009 03:44:45 10.3 C 6.61 g/m*3 10.3 C 0 km/h
1058 23-05-2009 03:56:45 10.2 C 6.66 g/m*3 10.2 C 0 km/h
1059 23-05-2009 04:08:46 10.1 C 6.62 g/m*3 10.1 C 0 km/h
1060 23-05-2009 04:20:46 9.9 C 6.72 g/m*3 9.9 C 0 km/h
1061 23-05-2009 04:32:46 9.6 C 6.6 g/m*3 9.6 C 0 km/h
1062 23-05-2009 04:44:46 9.5 C 6.64 g/m*3 9.5 C 0 km/h
1063 23-05-2009 04:56:46 9.5 C 6.64 g/m*3 9.5 C 0 km/h
1064 23-05-2009 05:08:46 9.4 C 6.69 g/m*3 9.4 C 0 km/h
1065 23-05-2009 05:20:46 9.2 C 6.61 g/m*3 9.2 C 0 km/h
1066 23-05-2009 05:32:46 9.2 C 6.7 g/m*3 9.2 C 0 km/h
1067 23-05-2009 05:44:46 9.1 C 6.57 g/m*3 9.1 C 0 km/h
1068 23-05-2009 05:56:46 9 C 6.52 g/m*3 9 C 0 km/h
1069 23-05-2009 06:08:46 8.8 C 6.7 g/m*3 8.8 C 0 km/h
1070 23-05-2009 06:20:46 8.9 C 6.83 g/m*3 8.9 C 0 km/h
1071 23-05-2009 06:32:46 9 C 6.88 g/m*3 9 C 0 km/h
1072 23-05-2009 06:44:46 9 C 6.88 g/m*3 9 C 0 km/h
1073 23-05-2009 06:56:46 9 C 6.88 g/m*3 9 C 0 km/h
1074 23-05-2009 07:08:44 9.2 C 6.97 g/m*3 9.2 C 0 km/h
1075 23-05-2009 07:20:44 9.1 C 6.92 g/m*3 9.1 C 0 km/h
Sensor: Nr:Datum:Temp:Abs-Feuchte:Windchill:Wind:
Aussen-T/F 1076 23-05-2009 07:32:45 9.2 C 6.97 g/m*3 9.2 C 0 km/h
1077 23-05-2009 07:44:44 9.6 C 7.15 g/m*3 9.6 C 0 km/h
1078 23-05-2009 07:56:44 9.8 C 6.96 g/m*3 9.8 C 0 km/h
1079 23-05-2009 08:08:44 10.2 C 7.04 g/m*3 10.2 C 0 km/h
1080 23-05-2009 08:20:44 10.6 C 7.12 g/m*3 10.6 C 0 km/h
1081 23-05-2009 08:32:44 11 C 7.11 g/m*3 11 C 0 km/h
1082 23-05-2009 08:44:43 11.4 C 7.29 g/m*3 11.4 C 0 km/h
1083 23-05-2009 08:56:43 12 C 7.14 g/m*3 12 C 0 km/h
1084 23-05-2009 09:08:44 12.6 C 7.3 g/m*3 12.6 C 0 km/h
1085 23-05-2009 09:20:43 13.2 C 7.23 g/m*3 13.2 C 0 km/h
1086 23-05-2009 09:32:43 13.8 C 7.39 g/m*3 13.8 C 0 km/h
1087 23-05-2009 09:44:43 14.2 C 7.33 g/m*3 14.2 C 0 km/h
1088 23-05-2009 09:56:43 15.2 C 7.66 g/m*3 15.2 C 0 km/h
1089 23-05-2009 10:08:43 16 C 7.77 g/m*3 16 C 0 km/h
1090 23-05-2009 10:20:43 16.9 C 7.19 g/m*3 16.9 C 0 km/h
1091 23-05-2009 10:32:02 17.8 C 6.68 g/m*3 17.8 C 0 km/h
1092 23-05-2009 10:44:02 18.6 C 6.37 g/m*3 18.6 C 0 km/h
1093 23-05-2009 10:56:02 18.9 C 5.99 g/m*3 18.9 C 0 km/h
1094 23-05-2009 11:08:02 19.5 C 6.21 g/m*3 19.5 C 0 km/h
1095 23-05-2009 11:20:02 19.7 C 6.11 g/m*3 19.7 C 0 km/h
1096 23-05-2009 11:32:03 19.8 C 5.98 g/m*3 19.8 C 0 km/h
1097 23-05-2009 11:44:03 20.8 C 6.16 g/m*3 20.8 C 0 km/h
1098 23-05-2009 11:56:02 21.6 C 5.88 g/m*3 21.6 C 0 km/h
1099 23-05-2009 12:08:02 22 C 5.43 g/m*3 22 C 0 km/h
1100 23-05-2009 12:20:01 23.1 C 5.17 g/m*3 23.1 C 0 km/h
Sensor: Nr:Datum:Temp:Abs-Feuchte:Windchill:Wind:
Aussen-T/F 1101 23-05-2009 12:32:01 23.9 C 5.41 g/m*3 23.9 C 0 km/h
1102 23-05-2009 12:44:01 24.5 C 5.37 g/m*3 24.5 C 0 km/h
1103 23-05-2009 12:56:01 24.2 C 4.84 g/m*3 24.2 C 0 km/h
1104 23-05-2009 13:08:01 24.9 C 5.04 g/m*3 24.9 C 0 km/h
1105 23-05-2009 13:20:01 26.2 C 4.92 g/m*3 26.2 C 0 km/h
1106 23-05-2009 13:32:00 25.8 C 4.82 g/m*3 25.8 C 0 km/h
1107 23-05-2009 13:44:00 26.8 C 5.09 g/m*3 26.8 C 0 km/h
1108 23-05-2009 13:56:01 26.3 C 4.95 g/m*3 26.3 C 0 km/h
1109 23-05-2009 14:08:00 26 C 5.11 g/m*3 26 C 0 km/h
1110 23-05-2009 14:20:00 25.7 C 5.03 g/m*3 25.7 C 0 km/h
1111 23-05-2009 14:32:00 26.1 C 4.9 g/m*3 26.1 C 0 km/h
1112 23-05-2009 14:44:00 26.7 C 5.32 g/m*3 26.7 C 0 km/h
1113 23-05-2009 14:56:00 27.4 C 5.26 g/m*3 27.4 C 0 km/h
1114 23-05-2009 15:08:00 27.3 C 5.23 g/m*3 27.3 C 0 km/h
1115 23-05-2009 15:20:59 27.6 C 5.32 g/m*3 27.6 C 0 km/h
1116 23-05-2009 15:44:00 28.5 C 5.59 g/m*3 28.5 C 0 km/h
1117 23-05-2009 15:44:59 29.3 C 5.84 g/m*3 29.3 C 0 km/h
1118 23-05-2009 15:56:59 28.9 C 5.71 g/m*3 28.9 C 0 km/h
1119 23-05-2009 16:08:59 29.9 C 6.03 g/m*3 29.9 C 0 km/h
1120 23-05-2009 16:19:59 29.2 C 5.81 g/m*3 29.2 C 0 km/h
1121 23-05-2009 16:32:59 30.1 C 6.1 g/m*3 30.1 C 0 km/h
1122 23-05-2009 16:44:59 30.4 C 6.2 g/m*3 30.4 C 0 km/h
1123 23-05-2009 16:56:59 30.9 C 6.37 g/m*3 30.9 C 0 km/h
1124 23-05-2009 17:08:58 30.4 C 6.2 g/m*3 30.4 C 0 km/h
1125 23-05-2009 17:20:59 30.8 C 6.33 g/m*3 30.8 C 0 km/h
Sensor: Nr:Datum:Temp:Abs-Feuchte:Windchill:Wind:
Aussen-T/F 1126 23-05-2009 17:32:58 30.8 C 6.33 g/m*3 30.8 C 0 km/h
1127 23-05-2009 17:44:59 31.2 C 6.47 g/m*3 31.2 C 0 km/h
1128 23-05-2009 17:56:59 30.7 C 6.3 g/m*3 30.7 C 0 km/h
1129 23-05-2009 18:08:58 30.1 C 6.1 g/m*3 30.1 C 0 km/h
1130 23-05-2009 18:20:58 30.5 C 6.23 g/m*3 30.5 C 0 km/h
1131 23-05-2009 18:32:57 29.9 C 6.03 g/m*3 29.9 C 0 km/h
1132 23-05-2009 18:44:58 28.6 C 5.9 g/m*3 28.6 C 0 km/h
1133 23-05-2009 18:56:59 28.3 C 7.74 g/m*3 28.3 C 0 km/h
1134 23-05-2009 19:08:57 26.8 C 7.38 g/m*3 26.8 C 0 km/h
1135 23-05-2009 19:20:57 25.5 C 7.58 g/m*3 25.5 C 0 km/h
1136 23-05-2009 19:32:58 24.6 C 7.43 g/m*3 24.6 C 0 km/h
1137 23-05-2009 19:44:57 24 C 6.96 g/m*3 24 C 0 km/h
1138 23-05-2009 19:56:57 23.8 C 7.53 g/m*3 23.8 C 0 km/h
1139 23-05-2009 20:08:57 23.4 C 7.15 g/m*3 23.4 C 0 km/h
1140 23-05-2009 20:20:57 23.1 C 7.03 g/m*3 23.1 C 0 km/h
1141 23-05-2009 20:32:57 22.8 C 7.11 g/m*3 22.8 C 0 km/h
1142 23-05-2009 20:44:56 22.4 C 6.75 g/m*3 22.4 C 0 km/h
1143 23-05-2009 20:56:56 22 C 6.99 g/m*3 22 C 0 km/h
1144 23-05-2009 21:08:56 21.5 C 7.54 g/m*3 21.5 C 0 km/h
1145 23-05-2009 21:20:56 21 C 7.51 g/m*3 21 C 0 km/h
1146 23-05-2009 21:32:56 20.7 C 7.56 g/m*3 20.7 C 0 km/h
1147 23-05-2009 21:44:56 20.6 C 7.52 g/m*3 20.6 C 0 km/h
1148 23-05-2009 21:56:56 20.3 C 7.56 g/m*3 20.3 C 0 km/h
1149 23-05-2009 22:08:55 20.2 C 7.34 g/m*3 20.2 C 0 km/h
1150 23-05-2009 22:20:56 20 C 7.43 g/m*3 20 C 0 km/h
Sensor: Nr:Datum:Temp:Abs-Feuchte:Windchill:Wind:
Aussen-T/F 1151 23-05-2009 22:32:56 20 C 7.43 g/m*3 20 C 0 km/h
1152 23-05-2009 22:45:03 19.7 C 7.64 g/m*3 19.7 C 0 km/h
1153 23-05-2009 22:57:03 19.6 C 7.6 g/m*3 19.6 C 0 km/h
1154 23-05-2009 23:09:03 19.4 C 7.84 g/m*3 19.4 C 0 km/h
1155 23-05-2009 23:21:03 19.1 C 8.03 g/m*3 19.1 C 0 km/h
1156 23-05-2009 23:33:03 19.1 C 8.2 g/m*3 19.1 C 0 km/h
1157 23-05-2009 23:45:04 18.9 C 7.94 g/m*3 18.9 C 0 km/h
1158 23-05-2009 23:57:04 18.5 C 7.59 g/m*3 18.5 C 0 km/h
1159 24-05-2009 00:09:04 18.3 C 7.66 g/m*3 18.3 C 0 km/h
1160 24-05-2009 00:21:04 17.9 C 7.63 g/m*3 17.9 C 0 km/h
1161 24-05-2009 00:33:04 17.7 C 7.85 g/m*3 17.7 C 0 km/h
1162 24-05-2009 00:45:04 17.7 C 7.85 g/m*3 17.7 C 0 km/h
1163 24-05-2009 00:57:04 17.6 C 7.8 g/m*3 17.6 C 0 km/h
1164 24-05-2009 01:09:04 17.5 C 7.75 g/m*3 17.5 C 0 km/h
1165 24-05-2009 01:21:04 17.2 C 7.91 g/m*3 17.2 C 0 km/h
1166 24-05-2009 01:33:04 17 C 7.96 g/m*3 17 C 0 km/h
1167 24-05-2009 01:45:04 17 C 8.1 g/m*3 17 C 0 km/h
1168 24-05-2009 01:57:04 16.8 C 8.29 g/m*3 16.8 C 0 km/h
1169 24-05-2009 02:09:04 16.7 C 8.38 g/m*3 16.7 C 0 km/h
1170 24-05-2009 02:21:04 16.4 C 8.37 g/m*3 16.4 C 0 km/h
1171 24-05-2009 02:33:04 16 C 8.31 g/m*3 16 C 0 km/h
1172 24-05-2009 02:45:04 15.9 C 8.53 g/m*3 15.9 C 0 km/h
1173 24-05-2009 02:57:04 15.7 C 8.43 g/m*3 15.7 C 0 km/h
1174 24-05-2009 03:09:04 15.3 C 8.36 g/m*3 15.3 C 0 km/h
1175 24-05-2009 03:21:04 15.2 C 8.44 g/m*3 15.2 C 0 km/h
Sensor: Nr:Datum:Temp:Abs-Feuchte:Windchill:Wind:
Aussen-T/F 1176 24-05-2009 03:33:05 14.9 C 8.41 g/m*3 14.9 C 0 km/h
1177 24-05-2009 03:45:05 14.8 C 8.49 g/m*3 14.8 C 0 km/h
1178 24-05-2009 03:57:05 14.6 C 8.63 g/m*3 14.6 C 0 km/h
1179 24-05-2009 04:09:05 14.2 C 8.67 g/m*3 14.2 C 0 km/h
1180 24-05-2009 04:21:05 14.1 C 8.62 g/m*3 14.1 C 0 km/h
1181 24-05-2009 04:33:05 13.9 C 8.51 g/m*3 13.9 C 0 km/h
1182 24-05-2009 04:45:05 13.9 C 8.51 g/m*3 13.9 C 0 km/h
1183 24-05-2009 04:57:05 13.8 C 8.46 g/m*3 13.8 C 0 km/h
1184 24-05-2009 05:09:05 13.5 C 8.42 g/m*3 13.5 C 0 km/h
1185 24-05-2009 05:21:05 13.5 C 8.66 g/m*3 13.5 C 0 km/h
1186 24-05-2009 05:33:05 13.3 C 8.55 g/m*3 13.3 C 0 km/h
1187 24-05-2009 05:45:05 13.3 C 8.55 g/m*3 13.3 C 0 km/h
1188 24-05-2009 05:57:05 13.3 C 8.55 g/m*3 13.3 C 0 km/h
1189 24-05-2009 06:09:05 13.4 C 8.6 g/m*3 13.4 C 0 km/h
1190 24-05-2009 06:21:05 13.5 C 8.77 g/m*3 13.5 C 0 km/h
1191 24-05-2009 06:33:05 13.5 C 8.89 g/m*3 13.5 C 0 km/h
1192 24-05-2009 06:45:05 13.4 C 8.95 g/m*3 13.4 C 0 km/h
1193 24-05-2009 06:57:05 13.3 C 8.9 g/m*3 13.3 C 0 km/h
1194 24-05-2009 07:09:05 13.4 C 8.95 g/m*3 13.4 C 0 km/h
1195 24-05-2009 07:21:56 13.5 C 9.01 g/m*3 13.5 C 0 km/h
1196 24-05-2009 07:33:57 13.8 C 9.17 g/m*3 13.8 C 0 km/h
1197 24-05-2009 07:45:56 13.9 C 9.11 g/m*3 13.9 C 0 km/h
1198 24-05-2009 07:57:56 14.3 C 9.09 g/m*3 14.3 C 0 km/h
1199 24-05-2009 08:09:56 14.7 C 9.19 g/m*3 14.7 C 0 km/h
1200 24-05-2009 08:21:56 15.2 C 9.09 g/m*3 15.2 C 0 km/h
Sensor: Nr:Datum:Temp:Abs-Feuchte:Windchill:Wind:
Aussen-T/F 1201 24-05-2009 08:33:56 15.6 C 9.18 g/m*3 15.6 C 0 km/h
1202 24-05-2009 08:45:56 16.1 C 9.32 g/m*3 16.1 C 0 km/h
1203 24-05-2009 08:57:56 16.8 C 9.44 g/m*3 16.8 C 0 km/h
1204 24-05-2009 09:09:55 17.4 C 9.19 g/m*3 17.4 C 0 km/h
1205 24-05-2009 09:21:56 17.9 C 8.86 g/m*3 17.9 C 0 km/h
1206 24-05-2009 09:33:55 18.7 C 8.97 g/m*3 18.7 C 0 km/h
1207 24-05-2009 09:45:56 19.3 C 8.46 g/m*3 19.3 C 0 km/h
1208 24-05-2009 09:57:56 19.9 C 8.76 g/m*3 19.9 C 0 km/h
1209 24-05-2009 10:09:55 20.1 C 8.34 g/m*3 20.1 C 0 km/h
1210 24-05-2009 10:21:55 21 C 8.24 g/m*3 21 C 0 km/h
1211 24-05-2009 10:33:55 21.2 C 8.34 g/m*3 21.2 C 0 km/h
1212 24-05-2009 10:45:55 22.2 C 8.44 g/m*3 22.2 C 0 km/h
1213 24-05-2009 10:57:55 22.6 C 8.44 g/m*3 22.6 C 0 km/h
1214 24-05-2009 11:09:55 23.8 C 9.46 g/m*3 23.8 C 0 km/h
1215 24-05-2009 11:21:54 24.2 C 8.14 g/m*3 24.2 C 0 km/h
1216 24-05-2009 11:33:55 25.3 C 7.96 g/m*3 25.3 C 0 km/h
1217 24-05-2009 11:45:54 25.5 C 7.81 g/m*3 25.5 C 0 km/h
1218 24-05-2009 11:57:54 26 C 8.03 g/m*3 26 C 0 km/h
1219 24-05-2009 12:09:54 25.6 C 7.14 g/m*3 25.6 C 0 km/h
1220 24-05-2009 12:21:54 26.9 C 7.68 g/m*3 26.9 C 0 km/h
1221 24-05-2009 12:33:54 27.6 C 7.18 g/m*3 27.6 C 0 km/h
1222 24-05-2009 12:45:53 28.6 C 7.59 g/m*3 28.6 C 0 km/h
1223 24-05-2009 12:57:53 29.7 C 7.46 g/m*3 29.7 C 0 km/h
1224 24-05-2009 13:09:53 30.1 C 7.01 g/m*3 30.1 C 0 km/h
1225 24-05-2009 13:21:54 30.6 C 6.89 g/m*3 30.6 C 0 km/h
Sensor: Nr:Datum:Temp:Abs-Feuchte:Windchill:Wind:
Aussen-T/F 1226 24-05-2009 13:33:53 30.3 C 6.78 g/m*3 30.3 C 0 km/h
1227 24-05-2009 13:45:53 29.2 C 6.1 g/m*3 29.2 C 0 km/h
1228 24-05-2009 13:57:53 29.1 C 6.64 g/m*3 29.1 C 0 km/h
1229 24-05-2009 14:09:53 29.1 C 6.64 g/m*3 29.1 C 0 km/h
1230 24-05-2009 14:21:53 28.5 C 6.99 g/m*3 28.5 C 0 km/h
1231 24-05-2009 14:33:52 28.8 C 7.1 g/m*3 28.8 C 0 km/h
1232 24-05-2009 14:45:53 29 C 6.89 g/m*3 29 C 0 km/h
1233 24-05-2009 14:57:54 30.6 C 6.89 g/m*3 30.6 C 0 km/h
1234 24-05-2009 15:09:52 30.3 C 6.78 g/m*3 30.3 C 0 km/h
1235 24-05-2009 15:21:52 31.2 C 6.47 g/m*3 31.2 C 0 km/h
1236 24-05-2009 15:33:52 31.4 C 6.54 g/m*3 31.4 C 0 km/h
1237 24-05-2009 15:45:52 31.9 C 6.72 g/m*3 31.9 C 0 km/h
1238 24-05-2009 15:57:52 31.9 C 6.72 g/m*3 31.9 C 0 km/h
1239 24-05-2009 16:09:52 32.1 C 6.79 g/m*3 32.1 C 0 km/h
1240 24-05-2009 16:21:52 31.9 C 6.72 g/m*3 31.9 C 0 km/h
1241 24-05-2009 16:33:52 31.7 C 6.64 g/m*3 31.7 C 0 km/h
1242 24-05-2009 16:45:51 31.5 C 6.9 g/m*3 31.5 C 0 km/h
1243 24-05-2009 16:57:51 31.5 C 6.9 g/m*3 31.5 C 0 km/h
1244 24-05-2009 17:09:52 30.7 C 7.24 g/m*3 30.7 C 0 km/h
1245 24-05-2009 17:21:51 31 C 7.04 g/m*3 31 C 0 km/h
1246 24-05-2009 17:33:51 31.3 C 6.83 g/m*3 31.3 C 0 km/h
1247 24-05-2009 17:45:51 31.9 C 6.72 g/m*3 31.9 C 0 km/h
1248 24-05-2009 17:57:51 32 C 6.75 g/m*3 32 C 0 km/h
1249 24-05-2009 18:09:51 31.3 C 6.83 g/m*3 31.3 C 0 km/h
1250 24-05-2009 18:21:51 31.5 C 6.9 g/m*3 31.5 C 0 km/h
Sensor: Nr:Datum:Temp:Abs-Feuchte:Windchill:Wind:
Aussen-T/F 1251 24-05-2009 18:33:50 31.7 C 6.98 g/m*3 31.7 C 0 km/h
1252 24-05-2009 18:45:50 31.7 C 6.64 g/m*3 31.7 C 0 km/h
1253 24-05-2009 18:57:50 31.2 C 6.79 g/m*3 31.2 C 0 km/h
1254 24-05-2009 19:09:50 31.1 C 7.4 g/m*3 31.1 C 0 km/h
1255 24-05-2009 19:21:50 30.9 C 7 g/m*3 30.9 C 0 km/h
1256 24-05-2009 19:33:50 30.9 C 7.64 g/m*3 30.9 C 0 km/h
1257 24-05-2009 19:45:50 30.2 C 7.66 g/m*3 30.2 C 0 km/h
1258 24-05-2009 19:57:50 30 C 7.88 g/m*3 30 C 0 km/h
1259 24-05-2009 20:09:50 28.9 C 8 g/m*3 28.9 C 0 km/h
1260 24-05-2009 20:21:49 28.7 C 8.48 g/m*3 28.7 C 0 km/h
1261 24-05-2009 20:33:49 28.2 C 8.8 g/m*3 28.2 C 0 km/h
1262 24-05-2009 20:45:49 27.2 C 9.37 g/m*3 27.2 C 0 km/h
1263 24-05-2009 20:57:49 26 C 9.25 g/m*3 26 C 0 km/h
1264 24-05-2009 21:09:49 25.2 C 9.31 g/m*3 25.2 C 0 km/h
1265 24-05-2009 21:21:49 24.3 C 9.29 g/m*3 24.3 C 0 km/h
1266 24-05-2009 21:33:48 24 C 9.14 g/m*3 24 C 0 km/h
1267 24-05-2009 21:45:49 23.9 C 9.3 g/m*3 23.9 C 0 km/h
1268 24-05-2009 21:57:49 23.6 C 9.36 g/m*3 23.6 C 0 km/h
1269 24-05-2009 22:09:48 23.2 C 9.56 g/m*3 23.2 C 0 km/h
1270 24-05-2009 22:22:49 22.9 C 9.61 g/m*3 22.9 C 0 km/h
1271 24-05-2009 22:34:49 22.8 C 9.75 g/m*3 22.8 C 0 km/h
1272 24-05-2009 22:46:49 22.5 C 9.39 g/m*3 22.5 C 0 km/h
1273 24-05-2009 22:58:49 22.3 C 9.68 g/m*3 22.3 C 0 km/h
1274 24-05-2009 23:10:49 22 C 9.7 g/m*3 22 C 0 km/h
1275 24-05-2009 23:22:49 21.7 C 9.92 g/m*3 21.7 C 0 km/h
Sensor: Nr:Datum:Temp:Abs-Feuchte:Windchill:Wind:
Aussen-T/F 1276 24-05-2009 23:34:49 21.5 C 9.81 g/m*3 21.5 C 0 km/h
1277 24-05-2009 23:46:49 21.2 C 9.82 g/m*3 21.2 C 0 km/h
1278 24-05-2009 23:58:49 21 C 9.89 g/m*3 21 C 0 km/h
1279 25-05-2009 00:10:49 20.7 C 9.9 g/m*3 20.7 C 0 km/h
1280 25-05-2009 00:22:49 20.5 C 10.14 g/m*3 20.5 C 0 km/h
1281 25-05-2009 00:34:49 20.3 C 10.02 g/m*3 20.3 C 0 km/h
1282 25-05-2009 00:46:49 20 C 10.02 g/m*3 20 C 0 km/h
1283 25-05-2009 00:58:49 19.6 C 10.3 g/m*3 19.6 C 0 km/h
1284 25-05-2009 01:10:49 19.4 C 10.18 g/m*3 19.4 C 0 km/h
1285 25-05-2009 01:22:49 19.3 C 10.12 g/m*3 19.3 C 0 km/h
1286 25-05-2009 01:34:49 19.2 C 10.06 g/m*3 19.2 C 0 km/h
1287 25-05-2009 01:46:49 18.9 C 10.37 g/m*3 18.9 C 0 km/h
1288 25-05-2009 01:58:49 18.7 C 10.41 g/m*3 18.7 C 0 km/h
1289 25-05-2009 02:10:49 18.6 C 10.35 g/m*3 18.6 C 0 km/h
1290 25-05-2009 02:22:50 18.4 C 10.38 g/m*3 18.4 C 0 km/h
1291 25-05-2009 02:34:50 18.2 C 10.26 g/m*3 18.2 C 0 km/h
1292 25-05-2009 02:46:50 18 C 10.14 g/m*3 18 C 0 km/h
1293 25-05-2009 02:58:50 17.9 C 10.23 g/m*3 17.9 C 0 km/h
1294 25-05-2009 03:10:50 17.7 C 10.26 g/m*3 17.7 C 0 km/h
1295 25-05-2009 03:22:50 17.5 C 10.29 g/m*3 17.5 C 0 km/h
1296 25-05-2009 03:34:50 17.4 C 10.23 g/m*3 17.4 C 0 km/h
1297 25-05-2009 03:46:50 17.3 C 10.31 g/m*3 17.3 C 0 km/h
1298 25-05-2009 03:58:50 17.1 C 10.19 g/m*3 17.1 C 0 km/h
1299 25-05-2009 04:10:50 17 C 10.27 g/m*3 17 C 0 km/h
1300 25-05-2009 04:22:50 16.9 C 10.36 g/m*3 16.9 C 0 km/h
Sensor: Nr:Datum:Temp:Abs-Feuchte:Windchill:Wind:
Aussen-T/F 1301 25-05-2009 04:34:50 16.7 C 10.37 g/m*3 16.7 C 0 km/h
1302 25-05-2009 04:46:50 16.5 C 10.25 g/m*3 16.5 C 0 km/h
1303 25-05-2009 04:58:50 16.4 C 10.19 g/m*3 16.4 C 0 km/h
1304 25-05-2009 05:10:50 16.2 C 10.2 g/m*3 16.2 C 0 km/h
1305 25-05-2009 05:22:50 16.1 C 10.14 g/m*3 16.1 C 0 km/h
1306 25-05-2009 05:34:50 15.9 C 10.16 g/m*3 15.9 C 0 km/h
1307 25-05-2009 05:46:50 15.9 C 10.29 g/m*3 15.9 C 0 km/h
1308 25-05-2009 05:58:50 15.8 C 10.23 g/m*3 15.8 C 0 km/h
1309 25-05-2009 06:10:51 15.7 C 10.3 g/m*3 15.7 C 0 km/h
1310 25-05-2009 06:22:51 15.6 C 10.24 g/m*3 15.6 C 0 km/h
1311 25-05-2009 06:34:51 15.8 C 10.36 g/m*3 15.8 C 0 km/h
1312 25-05-2009 06:46:51 16 C 10.49 g/m*3 16 C 0 km/h
1313 25-05-2009 06:58:51 16 C 10.49 g/m*3 16 C 0 km/h
1314 25-05-2009 07:10:48 16 C 10.49 g/m*3 16 C 0 km/h
1315 25-05-2009 07:22:48 16.2 C 10.62 g/m*3 16.2 C 0 km/h
1316 25-05-2009 07:34:48 16.2 C 10.62 g/m*3 16.2 C 0 km/h
1317 25-05-2009 07:46:48 16.4 C 10.61 g/m*3 16.4 C 0 km/h
1318 25-05-2009 07:58:48 16.7 C 10.8 g/m*3 16.7 C 0 km/h
1319 25-05-2009 08:10:47 17.2 C 10.98 g/m*3 17.2 C 0 km/h
1320 25-05-2009 08:22:48 17.5 C 11.03 g/m*3 17.5 C 0 km/h
1321 25-05-2009 08:34:48 17.9 C 10.99 g/m*3 17.9 C 0 km/h
1322 25-05-2009 08:46:47 18.3 C 10.94 g/m*3 18.3 C 0 km/h
1323 25-05-2009 08:58:47 18.8 C 11.27 g/m*3 18.8 C 0 km/h
1324 25-05-2009 09:10:48 19.5 C 11.08 g/m*3 19.5 C 0 km/h
1325 25-05-2009 09:22:47 20.3 C 10.73 g/m*3 20.3 C 0 km/h
Sensor: Nr:Datum:Temp:Abs-Feuchte:Windchill:Wind:
Aussen-T/F 1326 25-05-2009 09:34:47 21 C 10.62 g/m*3 21 C 0 km/h
1327 25-05-2009 09:46:46 21.5 C 10.75 g/m*3 21.5 C 0 km/h
1328 25-05-2009 09:58:46 22.2 C 10.6 g/m*3 22.2 C 0 km/h
1329 25-05-2009 10:10:47 22.9 C 10.42 g/m*3 22.9 C 0 km/h
1330 25-05-2009 10:22:47 23.7 C 10.69 g/m*3 23.7 C 0 km/h
1331 25-05-2009 10:34:46 24.4 C 10.46 g/m*3 24.4 C 0 km/h
1332 25-05-2009 10:46:47 24.9 C 10.53 g/m*3 24.9 C 0 km/h
1333 25-05-2009 10:58:47 25.8 C 10.11 g/m*3 25.8 C 0 km/h
1334 25-05-2009 11:10:46 26.4 C 10.7 g/m*3 26.4 C 0 km/h
1335 25-05-2009 11:22:46 27.2 C 9.89 g/m*3 27.2 C 0 km/h
1336 25-05-2009 11:34:01 27.3 C 9.94 g/m*3 27.3 C 0 km/h
1337 25-05-2009 11:46:01 28 C 9.79 g/m*3 28 C 0 km/h
1338 25-05-2009 11:58:02 28.7 C 9.61 g/m*3 28.7 C 0 km/h
1339 25-05-2009 12:10:01 29.7 C 9.85 g/m*3 29.7 C 0 km/h
1340 25-05-2009 12:22:01 29.8 C 9.6 g/m*3 29.8 C 0 km/h
1341 25-05-2009 12:34:01 30.6 C 9.08 g/m*3 30.6 C 0 km/h
1342 25-05-2009 12:46:01 31.3 C 8.78 g/m*3 31.3 C 0 km/h
1343 25-05-2009 12:58:01 31.5 C 8.55 g/m*3 31.5 C 0 km/h
1344 25-05-2009 13:10:01 31.8 C 8.02 g/m*3 31.8 C 0 km/h
1345 25-05-2009 13:22:00 31.8 C 7.35 g/m*3 31.8 C 0 km/h
1346 25-05-2009 13:34:01 32.2 C 7.85 g/m*3 32.2 C 0 km/h
1347 25-05-2009 13:46:00 32.4 C 6.9 g/m*3 32.4 C 0 km/h
1348 25-05-2009 13:58:00 32.3 C 7.2 g/m*3 32.3 C 0 km/h
1349 25-05-2009 14:10:00 32 C 7.09 g/m*3 32 C 0 km/h
1350 25-05-2009 14:22:59 32 C 7.76 g/m*3 32 C 0 km/h
Sensor: Nr:Datum:Temp:Abs-Feuchte:Windchill:Wind:
Aussen-T/F 1351 25-05-2009 14:34:00 32.3 C 7.2 g/m*3 32.3 C 0 km/h
1352 25-05-2009 14:46:59 32.6 C 6.97 g/m*3 32.6 C 0 km/h
1353 25-05-2009 14:58:59 32.6 C 7.67 g/m*3 32.6 C 0 km/h
1354 25-05-2009 15:10:59 33.2 C 7.55 g/m*3 33.2 C 0 km/h
1355 25-05-2009 15:22:00 33.3 C 7.23 g/m*3 33.3 C 0 km/h
1356 25-05-2009 15:34:59 33.3 C 7.23 g/m*3 33.3 C 0 km/h
1357 25-05-2009 15:46:59 33.4 C 7.27 g/m*3 33.4 C 0 km/h
1358 25-05-2009 15:58:59 33.6 C 7.35 g/m*3 33.6 C 0 km/h
1359 25-05-2009 16:10:59 33.1 C 7.52 g/m*3 33.1 C 0 km/h
1360 25-05-2009 16:22:59 33.1 C 8.59 g/m*3 33.1 C 0 km/h
1361 25-05-2009 16:34:59 32.4 C 10 g/m*3 32.4 C 0 km/h
1362 25-05-2009 16:46:58 31.9 C 10.75 g/m*3 31.9 C 0 km/h
1363 25-05-2009 16:58:58 31.3 C 11.38 g/m*3 31.3 C 0 km/h
1364 25-05-2009 17:10:59 30.6 C 11.9 g/m*3 30.6 C 0 km/h
1365 25-05-2009 17:22:58 29.8 C 12.6 g/m*3 29.8 C 0 km/h
1366 25-05-2009 17:34:58 29.1 C 12.71 g/m*3 29.1 C 0 km/h
1367 25-05-2009 17:46:58 28.2 C 12.92 g/m*3 28.2 C 0 km/h
1368 25-05-2009 17:58:58 28 C 12.51 g/m*3 28 C 0 km/h
1369 25-05-2009 18:10:57 27.6 C 11.97 g/m*3 27.6 C 0 km/h
1370 25-05-2009 18:22:58 26.8 C 7.64 g/m*3 26.8 C 0 km/h
1371 25-05-2009 18:34:57 26.4 C 7.47 g/m*3 26.4 C 0 km/h
1372 25-05-2009 18:46:57 25.9 C 7.26 g/m*3 25.9 C 0 km/h
1373 25-05-2009 18:58:57 25.8 C 8.19 g/m*3 25.8 C 0 km/h
1374 25-05-2009 19:10:57 25.2 C 7.92 g/m*3 25.2 C 0 km/h
1375 25-05-2009 19:22:57 25 C 8.06 g/m*3 25 C 0 km/h
Sensor: Nr:Datum:Temp:Abs-Feuchte:Windchill:Wind:
Aussen-T/F 1376 25-05-2009 19:34:57 25.3 C 7.96 g/m*3 25.3 C 0 km/h
1377 25-05-2009 19:46:57 25.5 C 8.76 g/m*3 25.5 C 0 km/h
1378 25-05-2009 19:58:57 25.4 C 8.48 g/m*3 25.4 C 0 km/h
1379 25-05-2009 20:10:57 25.5 C 9.23 g/m*3 25.5 C 0 km/h
1380 25-05-2009 20:22:56 25.8 C 9.15 g/m*3 25.8 C 0 km/h
1381 25-05-2009 20:34:56 26.2 C 8.86 g/m*3 26.2 C 0 km/h
1382 25-05-2009 20:46:56 26.1 C 10.04 g/m*3 26.1 C 0 km/h
1383 25-05-2009 20:58:56 25.5 C 9.94 g/m*3 25.5 C 0 km/h
1384 25-05-2009 21:10:56 24.9 C 10.3 g/m*3 24.9 C 0 km/h
1385 25-05-2009 21:22:56 24.1 C 10.28 g/m*3 24.1 C 0 km/h
1386 25-05-2009 21:34:56 23.4 C 10.09 g/m*3 23.4 C 0 km/h
1387 25-05-2009 21:46:55 22.8 C 9.96 g/m*3 22.8 C 0 km/h
1388 25-05-2009 21:58:55 22.4 C 9.93 g/m*3 22.4 C 0 km/h
1389 25-05-2009 22:10:55 22.1 C 9.96 g/m*3 22.1 C 0 km/h
1390 25-05-2009 22:23:57 21.9 C 9.84 g/m*3 21.9 C 0 km/h
1391 25-05-2009 22:35:57 21.7 C 9.92 g/m*3 21.7 C 0 km/h
1392 25-05-2009 22:47:57 21.7 C 10.3 g/m*3 21.7 C 0 km/h
1393 25-05-2009 22:59:57 21.5 C 10.37 g/m*3 21.5 C 0 km/h
1394 25-05-2009 23:11:57 21.2 C 10.38 g/m*3 21.2 C 0 km/h
1395 25-05-2009 23:23:57 21 C 10.26 g/m*3 21 C 0 km/h
1396 25-05-2009 23:35:57 20.8 C 10.5 g/m*3 20.8 C 0 km/h
1397 25-05-2009 23:47:57 20.5 C 10.5 g/m*3 20.5 C 0 km/h
1398 25-05-2009 23:59:57 20.4 C 10.61 g/m*3 20.4 C 0 km/h
1399 26-05-2009 00:11:57 20.2 C 10.84 g/m*3 20.2 C 0 km/h
1400 26-05-2009 00:23:57 20 C 10.89 g/m*3 20 C 0 km/h
Sensor: Nr:Datum:Temp:Abs-Feuchte:Windchill:Wind:
Aussen-T/F 1401 26-05-2009 00:35:57 19.9 C 11 g/m*3 19.9 C 0 km/h
1402 26-05-2009 00:47:57 19.7 C 11.04 g/m*3 19.7 C 0 km/h
1403 26-05-2009 00:59:57 19.5 C 11.24 g/m*3 19.5 C 0 km/h
1404 26-05-2009 01:11:57 19.3 C 11.11 g/m*3 19.3 C 0 km/h
1405 26-05-2009 01:23:58 19.2 C 11.05 g/m*3 19.2 C 0 km/h
1406 26-05-2009 01:35:58 18.9 C 11.18 g/m*3 18.9 C 0 km/h
1407 26-05-2009 01:47:58 18.9 C 11.5 g/m*3 18.9 C 0 km/h
1408 26-05-2009 01:59:58 19.1 C 11.47 g/m*3 19.1 C 0 km/h
1409 26-05-2009 02:11:58 18.8 C 11.43 g/m*3 18.8 C 0 km/h
1410 26-05-2009 02:23:58 18.6 C 11.3 g/m*3 18.6 C 0 km/h
1411 26-05-2009 02:35:58 18.5 C 11.39 g/m*3 18.5 C 0 km/h
1412 26-05-2009 02:47:58 18.3 C 11.41 g/m*3 18.3 C 0 km/h
1413 26-05-2009 02:59:58 18.3 C 11.41 g/m*3 18.3 C 0 km/h
1414 26-05-2009 03:11:58 18.4 C 11.48 g/m*3 18.4 C 0 km/h
1415 26-05-2009 03:23:58 18.4 C 11.48 g/m*3 18.4 C 0 km/h
1416 26-05-2009 03:35:58 18.5 C 11.55 g/m*3 18.5 C 0 km/h
1417 26-05-2009 03:47:58 18.3 C 11.41 g/m*3 18.3 C 0 km/h
1418 26-05-2009 03:59:58 18 C 11.37 g/m*3 18 C 0 km/h
1419 26-05-2009 04:11:58 17.9 C 11.45 g/m*3 17.9 C 0 km/h
1420 26-05-2009 04:23:58 17.7 C 11.47 g/m*3 17.7 C 0 km/h
1421 26-05-2009 04:35:58 17.5 C 11.48 g/m*3 17.5 C 0 km/h
1422 26-05-2009 04:47:58 17.4 C 11.56 g/m*3 17.4 C 0 km/h
1423 26-05-2009 04:59:58 17.3 C 11.34 g/m*3 17.3 C 0 km/h
1424 26-05-2009 05:11:58 17.2 C 11.42 g/m*3 17.2 C 0 km/h
1425 26-05-2009 05:23:58 17.2 C 11.42 g/m*3 17.2 C 0 km/h
Sensor: Nr:Datum:Temp:Abs-Feuchte:Windchill:Wind:
Aussen-T/F 1426 26-05-2009 05:35:59 17.4 C 11.86 g/m*3 17.4 C 0 km/h
1427 26-05-2009 05:47:59 17.6 C 11.85 g/m*3 17.6 C 0 km/h
1428 26-05-2009 05:59:59 17.6 C 11.55 g/m*3 17.6 C 0 km/h
1429 26-05-2009 06:11:59 17.6 C 11.7 g/m*3 17.6 C 0 km/h
1430 26-05-2009 06:23:59 17.7 C 11.77 g/m*3 17.7 C 0 km/h
1431 26-05-2009 06:35:56 18 C 11.83 g/m*3 18 C 0 km/h
1432 26-05-2009 06:47:56 18.2 C 11.81 g/m*3 18.2 C 0 km/h
1433 26-05-2009 06:59:56 18.4 C 12.11 g/m*3 18.4 C 0 km/h
1434 26-05-2009 07:11:56 18.5 C 12.02 g/m*3 18.5 C 0 km/h
1435 26-05-2009 07:23:56 18.7 C 12.17 g/m*3 18.7 C 0 km/h
1436 26-05-2009 07:35:56 18.7 C 12.01 g/m*3 18.7 C 0 km/h
1437 26-05-2009 07:47:55 19.1 C 11.97 g/m*3 19.1 C 0 km/h
1438 26-05-2009 07:59:55 19.3 C 11.94 g/m*3 19.3 C 0 km/h
1439 26-05-2009 08:11:56 19.6 C 12.15 g/m*3 19.6 C 0 km/h
1440 26-05-2009 08:23:55 20.1 C 12.17 g/m*3 20.1 C 0 km/h
1441 26-05-2009 08:35:55 20.9 C 10.93 g/m*3 20.9 C 0 km/h
1442 26-05-2009 08:47:55 21.4 C 9.75 g/m*3 21.4 C 0 km/h
1443 26-05-2009 08:59:55 21.5 C 9.43 g/m*3 21.5 C 0 km/h
1444 26-05-2009 09:11:55 21.4 C 9.94 g/m*3 21.4 C 0 km/h
1445 26-05-2009 09:23:54 20.4 C 10.61 g/m*3 20.4 C 0 km/h
1446 26-05-2009 09:35:54 21.2 C 10.75 g/m*3 21.2 C 0 km/h
1447 26-05-2009 09:47:55 21.8 C 10.55 g/m*3 21.8 C 0 km/h
1448 26-05-2009 09:59:55 22.5 C 10.39 g/m*3 22.5 C 0 km/h
1449 26-05-2009 10:11:54 23 C 10.07 g/m*3 23 C 0 km/h
1450 26-05-2009 10:23:54 22.8 C 9.75 g/m*3 22.8 C 0 km/h
Sensor: Nr:Datum:Temp:Abs-Feuchte:Windchill:Wind:
Aussen-T/F 1451 26-05-2009 10:35:54 22.9 C 10.01 g/m*3 22.9 C 0 km/h
1452 26-05-2009 10:47:54 23.1 C 9.72 g/m*3 23.1 C 0 km/h
1453 26-05-2009 10:59:55 23.7 C 9.84 g/m*3 23.7 C 0 km/h
1454 26-05-2009 11:11:53 23.8 C 9.9 g/m*3 23.8 C 0 km/h
1455 26-05-2009 11:23:53 23.6 C 10 g/m*3 23.6 C 0 km/h
1456 26-05-2009 11:35:54 23.3 C 10.04 g/m*3 23.3 C 0 km/h
1457 26-05-2009 11:47:53 23.8 C 9.9 g/m*3 23.8 C 0 km/h
1458 26-05-2009 11:59:53 24.4 C 9.79 g/m*3 24.4 C 0 km/h
1459 26-05-2009 12:11:53 24.4 C 8.9 g/m*3 24.4 C 0 km/h
1460 26-05-2009 12:23:53 23.1 C 8.68 g/m*3 23.1 C 0 km/h
1461 26-05-2009 12:35:53 24.3 C 9.29 g/m*3 24.3 C 0 km/h
1462 26-05-2009 12:47:52 25.4 C 8.71 g/m*3 25.4 C 0 km/h
1463 26-05-2009 12:59:52 24.3 C 8.41 g/m*3 24.3 C 0 km/h
1464 26-05-2009 13:11:53 25.6 C 8.33 g/m*3 25.6 C 0 km/h
1465 26-05-2009 13:23:53 26.5 C 8.26 g/m*3 26.5 C 0 km/h
1466 26-05-2009 13:35:52 26.5 C 7.76 g/m*3 26.5 C 0 km/h
1467 26-05-2009 13:47:52 25.7 C 7.66 g/m*3 25.7 C 0 km/h
1468 26-05-2009 13:59:52 26.1 C 7.83 g/m*3 26.1 C 0 km/h
1469 26-05-2009 14:11:52 25.6 C 7.86 g/m*3 25.6 C 0 km/h
1470 26-05-2009 14:23:52 24.7 C 7.47 g/m*3 24.7 C 0 km/h
1471 26-05-2009 14:35:51 24 C 7.61 g/m*3 24 C 0 km/h
1472 26-05-2009 14:47:52 23.6 C 7.87 g/m*3 23.6 C 0 km/h
1473 26-05-2009 14:59:53 24.6 C 7.88 g/m*3 24.6 C 0 km/h
1474 26-05-2009 15:11:51 24.1 C 7.88 g/m*3 24.1 C 0 km/h
1475 26-05-2009 15:23:51 25 C 7.6 g/m*3 25 C 0 km/h
Sensor: Nr:Datum:Temp:Abs-Feuchte:Windchill:Wind:
Aussen-T/F 1476 26-05-2009 15:35:51 23.8 C 7.31 g/m*3 23.8 C 0 km/h
1477 26-05-2009 15:47:51 24.3 C 7.08 g/m*3 24.3 C 0 km/h
1478 26-05-2009 15:59:51 24.5 C 7.39 g/m*3 24.5 C 0 km/h
1479 26-05-2009 16:05:51 24.7 C 7.47 g/m*3 24.7 C 0 km/h
1480 26-05-2009 16:21:50 25 C 7.37 g/m*3 25 C 0 km/h
1481 26-05-2009 16:33:51 24.9 C 7.55 g/m*3 24.9 C 0 km/h
1482 26-05-2009 16:45:50 24.3 C 7.08 g/m*3 24.3 C 0 km/h
1483 26-05-2009 16:57:50 23.9 C 7.14 g/m*3 23.9 C 0 km/h
1484 26-05-2009 17:09:50 23.3 C 7.32 g/m*3 23.3 C 0 km/h
1485 26-05-2009 17:21:50 24 C 7.61 g/m*3 24 C 0 km/h
1486 26-05-2009 17:33:50 24.3 C 7.52 g/m*3 24.3 C 0 km/h
1487 26-05-2009 17:45:49 24.4 C 7.57 g/m*3 24.4 C 0 km/h
1488 26-05-2009 17:57:49 23.7 C 7.7 g/m*3 23.7 C 0 km/h
1489 26-05-2009 18:09:50 22.9 C 7.77 g/m*3 22.9 C 0 km/h
1490 26-05-2009 18:21:50 21 C 7.88 g/m*3 21 C 0 km/h
1491 26-05-2009 18:33:49 18.4 C 9.75 g/m*3 18.4 C 0 km/h
1492 26-05-2009 18:45:49 17.5 C 11.03 g/m*3 17.5 C 0 km/h
1493 26-05-2009 18:57:49 17 C 11 g/m*3 17 C 0 km/h
1494 26-05-2009 19:09:49 17.1 C 11.06 g/m*3 17.1 C 0 km/h
1495 26-05-2009 19:21:49 17.1 C 10.77 g/m*3 17.1 C 0 km/h
1496 26-05-2009 19:33:49 15.7 C 9.5 g/m*3 15.7 C 0 km/h
1497 26-05-2009 19:45:49 16.2 C 9.65 g/m*3 16.2 C 0 km/h
1498 26-05-2009 19:57:49 16.5 C 9.55 g/m*3 16.5 C 0 km/h
1499 26-05-2009 20:09:49 16.6 C 8.9 g/m*3 16.6 C 0 km/h
1500 26-05-2009 20:21:48 16.3 C 8.88 g/m*3 16.3 C 0 km/h
Sensor: Nr:Datum:Temp:Abs-Feuchte:Windchill:Wind:
Aussen-T/F 1501 26-05-2009 20:33:49 15.5 C 9.65 g/m*3 15.5 C 0 km/h
1502 26-05-2009 20:45:48 15.1 C 9.93 g/m*3 15.1 C 0 km/h
1503 26-05-2009 20:57:48 14.6 C 9.64 g/m*3 14.6 C 0 km/h
1504 26-05-2009 21:09:48 14.5 C 9.33 g/m*3 14.5 C 0 km/h
1505 26-05-2009 21:21:47 14.8 C 9.37 g/m*3 14.8 C 0 km/h
1506 26-05-2009 21:33:47 15.1 C 8.64 g/m*3 15.1 C 0 km/h
1507 26-05-2009 21:45:48 15.2 C 8.57 g/m*3 15.2 C 0 km/h
1508 26-05-2009 21:57:48 15.1 C 8.39 g/m*3 15.1 C 0 km/h
1509 26-05-2009 22:09:47 15.1 C 8.39 g/m*3 15.1 C 0 km/h
1510 26-05-2009 22:21:47 14 C 7.6 g/m*3 14 C 0 km/h
1511 26-05-2009 22:34:01 13.7 C 7.22 g/m*3 13.7 C 0 km/h
1512 26-05-2009 22:46:01 13.2 C 6.54 g/m*3 13.2 C 0 km/h
1513 26-05-2009 22:58:01 12.8 C 6.61 g/m*3 12.8 C 0 km/h
1514 26-05-2009 23:10:01 12.5 C 6.49 g/m*3 12.5 C 0 km/h
1515 26-05-2009 23:22:01 12.3 C 6.41 g/m*3 12.3 C 0 km/h
1516 26-05-2009 23:34:01 12.2 C 6.47 g/m*3 12.2 C 0 km/h
1517 26-05-2009 23:46:01 12.2 C 6.58 g/m*3 12.2 C 0 km/h
1518 26-05-2009 23:58:01 12.1 C 6.65 g/m*3 12.1 C 0 km/h
1519 27-05-2009 00:10:02 12.4 C 6.88 g/m*3 12.4 C 0 km/h
1520 27-05-2009 00:22:02 12.4 C 6.88 g/m*3 12.4 C 0 km/h
1521 27-05-2009 00:34:02 12.2 C 6.91 g/m*3 12.2 C 0 km/h
1522 27-05-2009 00:46:02 12 C 6.93 g/m*3 12 C 0 km/h
1523 27-05-2009 00:58:02 11.6 C 7.07 g/m*3 11.6 C 0 km/h
1524 27-05-2009 01:10:02 11.5 C 7.13 g/m*3 11.5 C 0 km/h
1525 27-05-2009 01:22:02 11.4 C 7.08 g/m*3 11.4 C 0 km/h
Sensor: Nr:Datum:Temp:Abs-Feuchte:Windchill:Wind:
Aussen-T/F 1526 27-05-2009 01:34:02 11.2 C 6.99 g/m*3 11.2 C 0 km/h
1527 27-05-2009 01:46:02 11.1 C 6.95 g/m*3 11.1 C 0 km/h
1528 27-05-2009 01:58:02 10.9 C 6.96 g/m*3 10.9 C 0 km/h
1529 27-05-2009 02:10:02 10.7 C 6.97 g/m*3 10.7 C 0 km/h
1530 27-05-2009 02:22:02 10.4 C 6.94 g/m*3 10.4 C 0 km/h
1531 27-05-2009 02:34:02 10.2 C 6.85 g/m*3 10.2 C 0 km/h
1532 27-05-2009 02:46:02 10.2 C 6.76 g/m*3 10.2 C 0 km/h
1533 27-05-2009 02:58:02 10.3 C 6.7 g/m*3 10.3 C 0 km/h
1534 27-05-2009 03:10:02 10.1 C 6.71 g/m*3 10.1 C 0 km/h
1535 27-05-2009 03:22:02 9.8 C 6.77 g/m*3 9.8 C 0 km/h
1536 27-05-2009 03:34:02 9.6 C 6.78 g/m*3 9.6 C 0 km/h
1537 27-05-2009 03:46:02 9.6 C 6.78 g/m*3 9.6 C 0 km/h
1538 27-05-2009 03:58:02 9.5 C 6.74 g/m*3 9.5 C 0 km/h
1539 27-05-2009 04:10:02 9.4 C 6.69 g/m*3 9.4 C 0 km/h
1540 27-05-2009 04:22:03 9.3 C 6.65 g/m*3 9.3 C 0 km/h
1541 27-05-2009 04:34:03 9.2 C 6.7 g/m*3 9.2 C 0 km/h
1542 27-05-2009 04:46:03 9.2 C 6.7 g/m*3 9.2 C 0 km/h
1543 27-05-2009 04:58:03 9.2 C 6.7 g/m*3 9.2 C 0 km/h
1544 27-05-2009 05:10:03 9.1 C 6.74 g/m*3 9.1 C 0 km/h
1545 27-05-2009 05:22:03 9.1 C 6.74 g/m*3 9.1 C 0 km/h
1546 27-05-2009 05:34:03 9.3 C 6.83 g/m*3 9.3 C 0 km/h
1547 27-05-2009 05:46:03 9.2 C 6.79 g/m*3 9.2 C 0 km/h
1548 27-05-2009 05:58:03 9.2 C 6.7 g/m*3 9.2 C 0 km/h
1549 27-05-2009 06:10:03 9.3 C 6.74 g/m*3 9.3 C 0 km/h
1550 27-05-2009 06:22:03 9.3 C 6.83 g/m*3 9.3 C 0 km/h
Sensor: Nr:Datum:Temp:Abs-Feuchte:Windchill:Wind:
Aussen-T/F 1551 27-05-2009 06:34:03 9.3 C 6.74 g/m*3 9.3 C 0 km/h
1552 27-05-2009 06:46:03 9.5 C 6.83 g/m*3 9.5 C 0 km/h
1553 27-05-2009 06:58:03 9.7 C 6.82 g/m*3 9.7 C 0 km/h
1554 27-05-2009 07:10:02 9.8 C 6.87 g/m*3 9.8 C 0 km/h
1555 27-05-2009 07:22:02 9.9 C 6.82 g/m*3 9.9 C 0 km/h
1556 27-05-2009 07:34:01 10 C 6.77 g/m*3 10 C 0 km/h
1557 27-05-2009 07:46:02 10.2 C 6.76 g/m*3 10.2 C 0 km/h
1558 27-05-2009 07:58:02 10.5 C 6.89 g/m*3 10.5 C 0 km/h
1559 27-05-2009 08:10:01 10.7 C 6.97 g/m*3 10.7 C 0 km/h
1560 27-05-2009 08:22:02 11 C 6.91 g/m*3 11 C 0 km/h
1561 27-05-2009 08:34:01 11.3 C 6.94 g/m*3 11.3 C 0 km/h
1562 27-05-2009 08:46:01 11.7 C 7.01 g/m*3 11.7 C 0 km/h
1563 27-05-2009 08:58:01 12.2 C 6.91 g/m*3 12.2 C 0 km/h
1564 27-05-2009 09:10:01 12.4 C 6.88 g/m*3 12.4 C 0 km/h
1565 27-05-2009 09:22:01 12.9 C 6.88 g/m*3 12.9 C 0 km/h
1566 27-05-2009 09:34:02 13.2 C 6.77 g/m*3 13.2 C 0 km/h
1567 27-05-2009 09:46:01 13.5 C 6.78 g/m*3 13.5 C 0 km/h
1568 27-05-2009 09:58:01 13.7 C 6.63 g/m*3 13.7 C 0 km/h
1569 27-05-2009 10:10:02 14.3 C 6.51 g/m*3 14.3 C 0 km/h
1570 27-05-2009 10:22:01 14.7 C 6.3 g/m*3 14.7 C 0 km/h
1571 27-05-2009 10:34:01 14.9 C 6.37 g/m*3 14.9 C 0 km/h
1572 27-05-2009 10:46:01 15.3 C 6.27 g/m*3 15.3 C 0 km/h
1573 27-05-2009 10:58:01 15.7 C 6.02 g/m*3 15.7 C 0 km/h
1574 27-05-2009 11:10:01 15.8 C 6.06 g/m*3 15.8 C 0 km/h
1575 27-05-2009 11:22:02 16.1 C 5.76 g/m*3 16.1 C 0 km/h
Sensor: Nr:Datum:Temp:Abs-Feuchte:Windchill:Wind:
Aussen-T/F 1576 27-05-2009 11:34:01 16.9 C 6.18 g/m*3 16.9 C 0 km/h
1577 27-05-2009 11:46:02 17 C 5.64 g/m*3 17 C 0 km/h
1578 27-05-2009 11:58:02 17.5 C 5.37 g/m*3 17.5 C 0 km/h
1579 27-05-2009 12:10:01 18.8 C 5.31 g/m*3 18.8 C 0 km/h
1580 27-05-2009 12:22:02 18.5 C 4.75 g/m*3 18.5 C 0 km/h
1581 27-05-2009 12:34:01 19.1 C 4.59 g/m*3 19.1 C 0 km/h
1582 27-05-2009 12:46:02 19.6 C 4.39 g/m*3 19.6 C 0 km/h
1583 27-05-2009 12:58:02 17.8 C 4.1 g/m*3 17.8 C 0 km/h
1584 27-05-2009 13:10:01 20.1 C 4.35 g/m*3 20.1 C 0 km/h
1585 27-05-2009 13:22:01 20.3 C 4.57 g/m*3 20.3 C 0 km/h
1586 27-05-2009 13:34:02 20.1 C 3.82 g/m*3 20.1 C 0 km/h
1587 27-05-2009 13:46:01 20.8 C 3.8 g/m*3 20.8 C 0 km/h
1588 27-05-2009 13:58:01 19.5 C 3.36 g/m*3 19.5 C 0 km/h
1589 27-05-2009 14:10:02 19.6 C 3.71 g/m*3 19.6 C 0 km/h
1590 27-05-2009 14:22:01 19.8 C 3.76 g/m*3 19.8 C 0 km/h
1591 27-05-2009 14:34:01 19.9 C 3.44 g/m*3 19.9 C 0 km/h
1592 27-05-2009 14:46:01 20.1 C 3.48 g/m*3 20.1 C 0 km/h
1593 27-05-2009 14:58:01 19.4 C 3.84 g/m*3 19.4 C 0 km/h
1594 27-05-2009 15:10:01 19.2 C 4.12 g/m*3 19.2 C 0 km/h
1595 27-05-2009 15:22:01 19.3 C 4.31 g/m*3 19.3 C 0 km/h
1596 27-05-2009 15:34:01 19.3 C 4.31 g/m*3 19.3 C 0 km/h
1597 27-05-2009 15:46:01 19.3 C 4.48 g/m*3 19.3 C 0 km/h
1598 27-05-2009 15:58:01 19.5 C 4.53 g/m*3 19.5 C 0 km/h
1599 27-05-2009 16:10:01 19.9 C 4.64 g/m*3 19.9 C 0 km/h
1600 27-05-2009 16:22:02 19.4 C 4.34 g/m*3 19.4 C 0 km/h
Sensor: Nr:Datum:Temp:Abs-Feuchte:Windchill:Wind:
Aussen-T/F 1601 27-05-2009 16:34:01 20.3 C 4.57 g/m*3 20.3 C 0 km/h
1602 27-05-2009 16:46:02 19.6 C 4.56 g/m*3 19.6 C 0 km/h
1603 27-05-2009 16:58:02 19.5 C 4.7 g/m*3 19.5 C 0 km/h
1604 27-05-2009 17:10:01 19.1 C 4.43 g/m*3 19.1 C 0 km/h
1605 27-05-2009 17:22:01 19.3 C 4.81 g/m*3 19.3 C 0 km/h
1606 27-05-2009 17:34:02 18.4 C 4.72 g/m*3 18.4 C 0 km/h
1607 27-05-2009 17:46:01 17.9 C 4.89 g/m*3 17.9 C 0 km/h
1608 27-05-2009 17:58:01 18 C 4.76 g/m*3 18 C 0 km/h
1609 27-05-2009 18:10:02 17.5 C 4.62 g/m*3 17.5 C 0 km/h
1610 27-05-2009 18:22:01 17.4 C 4.45 g/m*3 17.4 C 0 km/h
1611 27-05-2009 18:34:02 17.2 C 4.39 g/m*3 17.2 C 0 km/h
1612 27-05-2009 18:46:01 17.5 C 4.62 g/m*3 17.5 C 0 km/h
1613 27-05-2009 18:58:01 17.4 C 4.74 g/m*3 17.4 C 0 km/h
1614 27-05-2009 19:10:02 17.5 C 4.92 g/m*3 17.5 C 0 km/h
1615 27-05-2009 19:22:01 17.7 C 4.98 g/m*3 17.7 C 0 km/h
1616 27-05-2009 19:34:01 17.3 C 4.86 g/m*3 17.3 C 0 km/h
1617 27-05-2009 19:46:01 17.2 C 5.13 g/m*3 17.2 C 0 km/h
1618 27-05-2009 19:58:01 17.1 C 5.09 g/m*3 17.1 C 0 km/h
1619 27-05-2009 20:10:01 16.8 C 5.15 g/m*3 16.8 C 0 km/h
1620 27-05-2009 20:22:02 16.6 C 5.23 g/m*3 16.6 C 0 km/h
1621 27-05-2009 20:34:01 16.3 C 5.13 g/m*3 16.3 C 0 km/h
1622 27-05-2009 20:46:02 16 C 5.31 g/m*3 16 C 0 km/h
1623 27-05-2009 20:58:02 15.5 C 5.02 g/m*3 15.5 C 0 km/h
1624 27-05-2009 21:10:01 15 C 5.26 g/m*3 15 C 0 km/h
1625 27-05-2009 21:22:01 14.7 C 5.54 g/m*3 14.7 C 0 km/h
Sensor: Nr:Datum:Temp:Abs-Feuchte:Windchill:Wind:
Aussen-T/F 1626 27-05-2009 21:34:01 14.4 C 5.56 g/m*3 14.4 C 0 km/h
1627 27-05-2009 21:46:01 14.5 C 5.72 g/m*3 14.5 C 0 km/h
1628 27-05-2009 21:58:01 14.5 C 5.72 g/m*3 14.5 C 0 km/h
1629 27-05-2009 22:10:01 14.3 C 5.77 g/m*3 14.3 C 0 km/h
1630 27-05-2009 22:22:40 14.2 C 5.74 g/m*3 14.2 C 0 km/h
1631 27-05-2009 22:34:40 13.8 C 6.2 g/m*3 13.8 C 0 km/h
1632 27-05-2009 22:46:40 13.3 C 6.12 g/m*3 13.3 C 0 km/h
1633 27-05-2009 22:58:40 13.5 C 6.32 g/m*3 13.5 C 0 km/h
1634 27-05-2009 23:10:41 13.2 C 6.2 g/m*3 13.2 C 0 km/h
1635 27-05-2009 23:22:41 13.2 C 6.09 g/m*3 13.2 C 0 km/h
1636 27-05-2009 23:34:41 13.3 C 5.89 g/m*3 13.3 C 0 km/h
1637 27-05-2009 23:46:41 13.6 C 5.77 g/m*3 13.6 C 0 km/h
1638 27-05-2009 23:58:41 13.6 C 5.77 g/m*3 13.6 C 0 km/h
1639 28-05-2009 00:10:41 13.4 C 5.7 g/m*3 13.4 C 0 km/h
1640 28-05-2009 00:22:41 13.4 C 5.58 g/m*3 13.4 C 0 km/h
1641 28-05-2009 00:34:41 13.4 C 5.7 g/m*3 13.4 C 0 km/h
1642 28-05-2009 00:46:41 13.3 C 5.66 g/m*3 13.3 C 0 km/h
1643 28-05-2009 00:58:41 13.2 C 5.74 g/m*3 13.2 C 0 km/h
1644 28-05-2009 01:10:41 13.2 C 5.86 g/m*3 13.2 C 0 km/h
1645 28-05-2009 01:22:41 13.1 C 5.93 g/m*3 13.1 C 0 km/h
1646 28-05-2009 01:34:41 13.1 C 6.05 g/m*3 13.1 C 0 km/h
1647 28-05-2009 01:46:41 13 C 6.12 g/m*3 13 C 0 km/h
1648 28-05-2009 01:58:41 13.1 C 6.28 g/m*3 13.1 C 0 km/h
1649 28-05-2009 02:10:41 13.1 C 6.28 g/m*3 13.1 C 0 km/h
1650 28-05-2009 02:22:41 12.9 C 6.65 g/m*3 12.9 C 0 km/h
Sensor: Nr:Datum:Temp:Abs-Feuchte:Windchill:Wind:
Aussen-T/F 1651 28-05-2009 02:34:41 12.3 C 7.06 g/m*3 12.3 C 0 km/h
1652 28-05-2009 02:46:41 12.7 C 6.79 g/m*3 12.7 C 0 km/h
1653 28-05-2009 02:58:41 12.9 C 6.65 g/m*3 12.9 C 0 km/h
1654 28-05-2009 03:10:41 13 C 6.46 g/m*3 13 C 0 km/h
1655 28-05-2009 03:22:42 13 C 6.58 g/m*3 13 C 0 km/h
1656 28-05-2009 03:34:42 12.7 C 6.68 g/m*3 12.7 C 0 km/h
1657 28-05-2009 03:46:42 12.7 C 6.79 g/m*3 12.7 C 0 km/h
1658 28-05-2009 03:58:42 12.8 C 6.83 g/m*3 12.8 C 0 km/h
1659 28-05-2009 04:10:42 12.9 C 6.88 g/m*3 12.9 C 0 km/h
1660 28-05-2009 04:22:42 13 C 6.92 g/m*3 13 C 0 km/h
1661 28-05-2009 04:34:42 13 C 6.92 g/m*3 13 C 0 km/h
1662 28-05-2009 04:46:42 12.9 C 7.1 g/m*3 12.9 C 0 km/h
1663 28-05-2009 04:58:42 12.9 C 7.1 g/m*3 12.9 C 0 km/h
1664 28-05-2009 05:10:42 12.8 C 7.17 g/m*3 12.8 C 0 km/h
1665 28-05-2009 05:22:40 12.8 C 7.39 g/m*3 12.8 C 0 km/h
1666 28-05-2009 05:34:40 12.8 C 7.39 g/m*3 12.8 C 0 km/h
1667 28-05-2009 05:46:40 12.9 C 7.55 g/m*3 12.9 C 0 km/h
1668 28-05-2009 05:58:40 13 C 7.48 g/m*3 13 C 0 km/h
1669 28-05-2009 06:10:39 13 C 7.48 g/m*3 13 C 0 km/h
1670 28-05-2009 06:22:39 13 C 7.48 g/m*3 13 C 0 km/h
1671 28-05-2009 06:34:39 13.1 C 7.53 g/m*3 13.1 C 0 km/h
1672 28-05-2009 06:46:39 13.2 C 7.58 g/m*3 13.2 C 0 km/h
1673 28-05-2009 06:58:40 13.2 C 7.58 g/m*3 13.2 C 0 km/h
1674 28-05-2009 07:10:38 13.3 C 7.63 g/m*3 13.3 C 0 km/h
1675 28-05-2009 07:22:39 13.4 C 7.67 g/m*3 13.4 C 0 km/h
Sensor: Nr:Datum:Temp:Abs-Feuchte:Windchill:Wind:
Aussen-T/F 1676 28-05-2009 07:34:38 13.5 C 7.72 g/m*3 13.5 C 0 km/h
1677 28-05-2009 07:46:38 13.6 C 7.89 g/m*3 13.6 C 0 km/h
1678 28-05-2009 07:58:39 13.6 C 7.77 g/m*3 13.6 C 0 km/h
1679 28-05-2009 08:10:38 13.7 C 7.82 g/m*3 13.7 C 0 km/h
1680 28-05-2009 08:22:38 13.9 C 7.91 g/m*3 13.9 C 0 km/h
1681 28-05-2009 08:34:38 14.1 C 8.01 g/m*3 14.1 C 0 km/h
1682 28-05-2009 08:46:38 14.6 C 8.01 g/m*3 14.6 C 0 km/h
1683 28-05-2009 08:58:38 14.8 C 7.85 g/m*3 14.8 C 0 km/h
1684 28-05-2009 09:10:38 15 C 7.95 g/m*3 15 C 0 km/h
1685 28-05-2009 09:22:37 14.9 C 8.03 g/m*3 14.9 C 0 km/h
1686 28-05-2009 09:34:37 14.9 C 8.16 g/m*3 14.9 C 0 km/h
1687 28-05-2009 09:46:37 15.2 C 8.05 g/m*3 15.2 C 0 km/h
1688 28-05-2009 09:58:37 15.3 C 8.23 g/m*3 15.3 C 0 km/h
1689 28-05-2009 10:10:37 15.4 C 8.15 g/m*3 15.4 C 0 km/h
1690 28-05-2009 10:22:37 15.7 C 8.16 g/m*3 15.7 C 0 km/h
1691 28-05-2009 10:34:37 15.3 C 8.23 g/m*3 15.3 C 0 km/h
1692 28-05-2009 10:46:37 15.4 C 8.28 g/m*3 15.4 C 0 km/h
1693 28-05-2009 10:58:37 16 C 8.31 g/m*3 16 C 0 km/h
1694 28-05-2009 11:10:36 16.4 C 8.37 g/m*3 16.4 C 0 km/h
1695 28-05-2009 11:22:36 16.6 C 8.33 g/m*3 16.6 C 0 km/h
1696 28-05-2009 11:34:36 16.8 C 8.44 g/m*3 16.8 C 0 km/h
1697 28-05-2009 11:46:36 16.7 C 8.53 g/m*3 16.7 C 0 km/h
1698 28-05-2009 11:58:37 16.6 C 8.48 g/m*3 16.6 C 0 km/h
1699 28-05-2009 12:10:35 16.2 C 8.55 g/m*3 16.2 C 0 km/h
1700 28-05-2009 12:22:36 15.6 C 9.04 g/m*3 15.6 C 0 km/h
Sensor: Nr:Datum:Temp:Abs-Feuchte:Windchill:Wind:
Aussen-T/F 1701 28-05-2009 12:34:36 14.9 C 9.81 g/m*3 14.9 C 0 km/h
1702 28-05-2009 12:46:35 14.9 C 10.07 g/m*3 14.9 C 0 km/h
1703 28-05-2009 12:58:35 15 C 10.39 g/m*3 15 C 0 km/h
1704 28-05-2009 13:10:36 15.6 C 10.91 g/m*3 15.6 C 0 km/h
1705 28-05-2009 13:22:35 15.8 C 10.9 g/m*3 15.8 C 0 km/h
1706 28-05-2009 13:34:35 15.7 C 10.84 g/m*3 15.7 C 0 km/h
1707 28-05-2009 13:46:34 16.8 C 11.72 g/m*3 16.8 C 0 km/h
1708 28-05-2009 13:58:34 17 C 11.14 g/m*3 17 C 0 km/h
1709 28-05-2009 14:10:35 16 C 10.49 g/m*3 16 C 0 km/h
1710 28-05-2009 14:22:35 16.7 C 11.51 g/m*3 16.7 C 0 km/h
1711 28-05-2009 14:34:34 18.2 C 11.35 g/m*3 18.2 C 0 km/h
1712 28-05-2009 14:46:35 18.5 C 10.6 g/m*3 18.5 C 0 km/h
1713 28-05-2009 14:58:35 17.9 C 10.54 g/m*3 17.9 C 0 km/h
1714 28-05-2009 15:10:34 16.8 C 10.44 g/m*3 16.8 C 0 km/h
1715 28-05-2009 15:22:34 17.1 C 10.77 g/m*3 17.1 C 0 km/h
1716 28-05-2009 15:34:33 18.3 C 10.16 g/m*3 18.3 C 0 km/h
1717 28-05-2009 15:46:34 19.3 C 9.62 g/m*3 19.3 C 0 km/h
1718 28-05-2009 15:58:35 18.5 C 9.97 g/m*3 18.5 C 0 km/h
1719 28-05-2009 16:10:33 18.5 C 9.49 g/m*3 18.5 C 0 km/h
1720 28-05-2009 16:22:33 18.3 C 9.22 g/m*3 18.3 C 0 km/h
1721 28-05-2009 16:34:34 20.3 C 9.5 g/m*3 20.3 C 0 km/h
1722 28-05-2009 16:46:33 20.6 C 8.95 g/m*3 20.6 C 0 km/h
1723 28-05-2009 16:58:33 19.4 C 9.01 g/m*3 19.4 C 0 km/h
1724 28-05-2009 17:10:33 19.1 C 9.02 g/m*3 19.1 C 0 km/h
1725 28-05-2009 17:22:33 19.7 C 9 g/m*3 19.7 C 0 km/h
Sensor: Nr:Datum:Temp:Abs-Feuchte:Windchill:Wind:
Aussen-T/F 1726 28-05-2009 17:34:33 19.4 C 9.01 g/m*3 19.4 C 0 km/h
1727 28-05-2009 17:46:33 19.3 C 8.79 g/m*3 19.3 C 0 km/h
1728 28-05-2009 17:58:33 18.9 C 7.94 g/m*3 18.9 C 0 km/h
1729 28-05-2009 18:10:32 18.7 C 8.33 g/m*3 18.7 C 0 km/h
1730 28-05-2009 18:22:33 18.4 C 8.49 g/m*3 18.4 C 0 km/h
1731 28-05-2009 18:34:32 18.3 C 8.44 g/m*3 18.3 C 0 km/h
1732 28-05-2009 18:46:32 18.1 C 8.65 g/m*3 18.1 C 0 km/h
1733 28-05-2009 18:58:32 18.5 C 8.7 g/m*3 18.5 C 0 km/h
1734 28-05-2009 19:10:32 18.5 C 9.02 g/m*3 18.5 C 0 km/h
1735 28-05-2009 19:22:31 18 C 9.06 g/m*3 18 C 0 km/h
1736 28-05-2009 19:34:31 17.7 C 9.35 g/m*3 17.7 C 0 km/h
1737 28-05-2009 19:46:31 17.5 C 9.09 g/m*3 17.5 C 0 km/h
1738 28-05-2009 19:58:31 17.5 C 9.09 g/m*3 17.5 C 0 km/h
1739 28-05-2009 20:10:31 17.5 C 8.95 g/m*3 17.5 C 0 km/h
1740 28-05-2009 20:22:31 17.5 C 9.09 g/m*3 17.5 C 0 km/h
1741 28-05-2009 20:34:31 17.5 C 9.09 g/m*3 17.5 C 0 km/h
1742 28-05-2009 20:46:31 17.4 C 8.74 g/m*3 17.4 C 0 km/h
1743 28-05-2009 20:58:32 17.2 C 8.64 g/m*3 17.2 C 0 km/h
1744 28-05-2009 21:10:31 16.6 C 8.76 g/m*3 16.6 C 0 km/h
1745 28-05-2009 21:22:31 16.2 C 8.55 g/m*3 16.2 C 0 km/h
1746 28-05-2009 21:34:30 16.3 C 8.05 g/m*3 16.3 C 0 km/h
1747 28-05-2009 21:47:31 16.2 C 8 g/m*3 16.2 C 0 km/h
1748 28-05-2009 21:59:31 16 C 8.17 g/m*3 16 C 0 km/h
1749 28-05-2009 22:11:31 15.8 C 8.21 g/m*3 15.8 C 0 km/h
1750 28-05-2009 22:23:31 15.6 C 8.25 g/m*3 15.6 C 0 km/h
Sensor: Nr:Datum:Temp:Abs-Feuchte:Windchill:Wind:
Aussen-T/F 1751 28-05-2009 22:35:31 15.5 C 8.2 g/m*3 15.5 C 0 km/h
1752 28-05-2009 22:47:31 15.7 C 8.16 g/m*3 15.7 C 0 km/h
1753 28-05-2009 22:59:31 15.8 C 8.08 g/m*3 15.8 C 0 km/h
1754 28-05-2009 23:11:31 15.8 C 8.08 g/m*3 15.8 C 0 km/h
1755 28-05-2009 23:23:31 15.6 C 7.98 g/m*3 15.6 C 0 km/h
1756 28-05-2009 23:35:31 15.5 C 7.93 g/m*3 15.5 C 0 km/h
1757 28-05-2009 23:47:31 15.6 C 7.98 g/m*3 15.6 C 0 km/h
1758 28-05-2009 23:59:31 15.6 C 7.71 g/m*3 15.6 C 0 km/h
1759 29-05-2009 00:11:31 15.6 C 7.71 g/m*3 15.6 C 0 km/h
1760 29-05-2009 00:23:31 15.4 C 7.62 g/m*3 15.4 C 0 km/h
1761 29-05-2009 00:35:31 15.1 C 7.61 g/m*3 15.1 C 0 km/h
1762 29-05-2009 00:47:31 14.6 C 7.76 g/m*3 14.6 C 0 km/h
1763 29-05-2009 00:59:31 14.2 C 7.69 g/m*3 14.2 C 0 km/h
1764 29-05-2009 01:11:32 13.9 C 7.91 g/m*3 13.9 C 0 km/h
1765 29-05-2009 01:23:32 13.5 C 7.84 g/m*3 13.5 C 0 km/h
1766 29-05-2009 01:35:32 13.2 C 7.92 g/m*3 13.2 C 0 km/h
1767 29-05-2009 01:47:32 13 C 7.94 g/m*3 13 C 0 km/h
1768 29-05-2009 01:59:32 12.8 C 8.06 g/m*3 12.8 C 0 km/h
1769 29-05-2009 02:11:32 12.5 C 8.03 g/m*3 12.5 C 0 km/h
1770 29-05-2009 02:23:32 12.2 C 7.88 g/m*3 12.2 C 0 km/h
1771 29-05-2009 02:35:32 12.1 C 7.94 g/m*3 12.1 C 0 km/h
1772 29-05-2009 02:47:32 11.8 C 8 g/m*3 11.8 C 0 km/h
1773 29-05-2009 02:59:32 11.6 C 8 g/m*3 11.6 C 0 km/h
1774 29-05-2009 03:11:32 11.4 C 8.01 g/m*3 11.4 C 0 km/h
1775 29-05-2009 03:23:32 11.1 C 7.86 g/m*3 11.1 C 0 km/h
Sensor: Nr:Datum:Temp:Abs-Feuchte:Windchill:Wind:
Aussen-T/F 1776 29-05-2009 03:35:32 10.8 C 7.81 g/m*3 10.8 C 0 km/h
1777 29-05-2009 03:47:32 10.6 C 7.71 g/m*3 10.6 C 0 km/h
1778 29-05-2009 03:59:32 10.5 C 7.76 g/m*3 10.5 C 0 km/h
1779 29-05-2009 04:11:32 10.2 C 7.61 g/m*3 10.2 C 0 km/h
1780 29-05-2009 04:23:32 10.1 C 7.56 g/m*3 10.1 C 0 km/h
1781 29-05-2009 04:35:32 9.9 C 7.56 g/m*3 9.9 C 0 km/h
1782 29-05-2009 04:47:32 9.7 C 7.56 g/m*3 9.7 C 0 km/h
1783 29-05-2009 04:59:32 9.6 C 7.51 g/m*3 9.6 C 0 km/h
1784 29-05-2009 05:11:33 9.4 C 7.42 g/m*3 9.4 C 0 km/h
1785 29-05-2009 05:23:33 9.4 C 7.51 g/m*3 9.4 C 0 km/h
1786 29-05-2009 05:35:33 9.4 C 7.6 g/m*3 9.4 C 0 km/h
1787 29-05-2009 05:47:33 9.3 C 7.55 g/m*3 9.3 C 0 km/h
1788 29-05-2009 05:59:33 9.2 C 7.59 g/m*3 9.2 C 0 km/h
1789 29-05-2009 06:11:33 9.1 C 7.54 g/m*3 9.1 C 0 km/h
1790 29-05-2009 06:23:33 9.1 C 7.63 g/m*3 9.1 C 0 km/h
1791 29-05-2009 06:35:33 9.2 C 7.68 g/m*3 9.2 C 0 km/h
1792 29-05-2009 06:47:33 9.2 C 7.68 g/m*3 9.2 C 0 km/h
1793 29-05-2009 06:59:33 9.3 C 7.73 g/m*3 9.3 C 0 km/h
1794 29-05-2009 07:11:31 9.5 C 7.83 g/m*3 9.5 C 0 km/h
1795 29-05-2009 07:23:30 9.5 C 7.74 g/m*3 9.5 C 0 km/h
1796 29-05-2009 07:35:31 9.7 C 7.84 g/m*3 9.7 C 0 km/h
1797 29-05-2009 07:47:30 9.8 C 7.79 g/m*3 9.8 C 0 km/h
1798 29-05-2009 07:59:30 10.2 C 7.9 g/m*3 10.2 C 0 km/h
1799 29-05-2009 08:11:30 10.5 C 7.76 g/m*3 10.5 C 0 km/h
1800 29-05-2009 08:23:30 11.1 C 7.05 g/m*3 11.1 C 0 km/h
Sensor: Nr:Datum:Temp:Abs-Feuchte:Windchill:Wind:
Aussen-T/F 1801 29-05-2009 08:35:30 11.4 C 6.47 g/m*3 11.4 C 0 km/h
1802 29-05-2009 08:47:29 11.8 C 6.31 g/m*3 11.8 C 0 km/h
1803 29-05-2009 08:59:29 12.2 C 6.15 g/m*3 12.2 C 0 km/h
1804 29-05-2009 09:11:29 12.7 C 5.57 g/m*3 12.7 C 0 km/h
1805 29-05-2009 09:23:30 13.2 C 5.17 g/m*3 13.2 C 0 km/h
1806 29-05-2009 09:35:29 13.6 C 4.71 g/m*3 13.6 C 0 km/h
1807 29-05-2009 09:47:29 13.9 C 4.68 g/m*3 13.9 C 0 km/h
1808 29-05-2009 09:59:29 14.1 C 3.76 g/m*3 14.1 C 0 km/h
1809 29-05-2009 10:11:29 14.7 C 3.9 g/m*3 14.7 C 0 km/h
1810 29-05-2009 10:23:29 15 C 4.1 g/m*3 15 C 0 km/h
1811 29-05-2009 10:35:28 15.9 C 4.33 g/m*3 15.9 C 0 km/h
1812 29-05-2009 10:47:29 15.7 C 4.01 g/m*3 15.7 C 0 km/h
1813 29-05-2009 10:59:29 16.6 C 4.24 g/m*3 16.6 C 0 km/h
1814 29-05-2009 11:11:28 17.5 C 3.73 g/m*3 17.5 C 0 km/h
1815 29-05-2009 11:23:28 17 C 3.04 g/m*3 17 C 0 km/h
1816 29-05-2009 11:35:28 17.6 C 3.75 g/m*3 17.6 C 0 km/h
1817 29-05-2009 11:47:28 18.8 C 3.7 g/m*3 18.8 C 0 km/h
1818 29-05-2009 11:59:28 19.6 C 3.55 g/m*3 19.6 C 0 km/h
1819 29-05-2009 12:11:28 20.3 C 3.52 g/m*3 20.3 C 0 km/h
1820 29-05-2009 12:23:27 20.4 C 3.54 g/m*3 20.4 C 0 km/h
1821 29-05-2009 12:35:28 21.7 C 3.82 g/m*3 21.7 C 0 km/h
1822 29-05-2009 12:47:27 22.6 C 4.02 g/m*3 22.6 C 0 km/h
1823 29-05-2009 12:59:27 23.2 C 4.16 g/m*3 23.2 C 0 km/h
1824 29-05-2009 13:11:27 23.4 C 4.21 g/m*3 23.4 C 0 km/h
1825 29-05-2009 13:23:27 23.7 C 4.28 g/m*3 23.7 C 0 km/h
Sensor: Nr:Datum:Temp:Abs-Feuchte:Windchill:Wind:
Aussen-T/F 1826 29-05-2009 13:35:27 24.7 C 4.53 g/m*3 24.7 C 0 km/h
1827 29-05-2009 13:47:27 24.8 C 4.55 g/m*3 24.8 C 0 km/h
1828 29-05-2009 13:59:27 24 C 4.35 g/m*3 24 C 0 km/h
1829 29-05-2009 14:11:26 23 C 4.11 g/m*3 23 C 0 km/h
1830 29-05-2009 14:23:26 23.1 C 4.13 g/m*3 23.1 C 0 km/h
1831 29-05-2009 14:35:26 22.6 C 4.02 g/m*3 22.6 C 0 km/h
1832 29-05-2009 14:47:26 23.3 C 4.18 g/m*3 23.3 C 0 km/h
1833 29-05-2009 14:59:26 24.6 C 4.5 g/m*3 24.6 C 0 km/h
1834 29-05-2009 15:11:26 25 C 4.6 g/m*3 25 C 0 km/h
1835 29-05-2009 15:23:26 25.6 C 4.76 g/m*3 25.6 C 0 km/h
1836 29-05-2009 15:35:26 26.6 C 5.03 g/m*3 26.6 C 0 km/h
1837 29-05-2009 15:47:26 26.2 C 4.92 g/m*3 26.2 C 0 km/h
1838 29-05-2009 15:59:26 26.1 C 4.9 g/m*3 26.1 C 0 km/h
1839 29-05-2009 16:11:25 27.3 C 5.23 g/m*3 27.3 C 0 km/h
1840 29-05-2009 16:23:25 27.4 C 5.26 g/m*3 27.4 C 0 km/h
1841 29-05-2009 16:35:25 28.4 C 5.56 g/m*3 28.4 C 0 km/h
1842 29-05-2009 16:47:25 27.8 C 5.38 g/m*3 27.8 C 0 km/h
1843 29-05-2009 16:59:25 26.4 C 4.98 g/m*3 26.4 C 0 km/h
1844 29-05-2009 17:11:24 28 C 5.44 g/m*3 28 C 0 km/h
1845 29-05-2009 17:23:25 28 C 5.44 g/m*3 28 C 0 km/h
1846 29-05-2009 17:35:25 29 C 5.74 g/m*3 29 C 0 km/h
1847 29-05-2009 17:47:24 28.8 C 5.68 g/m*3 28.8 C 0 km/h
1848 29-05-2009 17:59:24 28.3 C 5.53 g/m*3 28.3 C 0 km/h
1849 29-05-2009 18:11:25 27.9 C 5.41 g/m*3 27.9 C 0 km/h
1850 29-05-2009 18:23:24 28.6 C 5.62 g/m*3 28.6 C 0 km/h
Sensor: Nr:Datum:Temp:Abs-Feuchte:Windchill:Wind:
Aussen-T/F 1851 29-05-2009 18:35:24 28.7 C 5.65 g/m*3 28.7 C 0 km/h
1852 29-05-2009 18:47:24 27.6 C 5.32 g/m*3 27.6 C 0 km/h
1853 29-05-2009 18:59:24 27.1 C 5.18 g/m*3 27.1 C 0 km/h
1854 29-05-2009 19:11:24 26.9 C 5.12 g/m*3 26.9 C 0 km/h
1855 29-05-2009 19:23:24 26.8 C 5.09 g/m*3 26.8 C 0 km/h
1856 29-05-2009 19:35:23 26.6 C 5.03 g/m*3 26.6 C 0 km/h
1857 29-05-2009 19:47:24 26.2 C 4.92 g/m*3 26.2 C 0 km/h
1858 29-05-2009 19:59:24 25.5 C 4.73 g/m*3 25.5 C 0 km/h
1859 29-05-2009 20:11:23 24.5 C 4.48 g/m*3 24.5 C 0 km/h
1860 29-05-2009 20:23:23 23.7 C 4.28 g/m*3 23.7 C 0 km/h
1861 29-05-2009 20:35:02 23.2 C 4.16 g/m*3 23.2 C 0 km/h
1862 29-05-2009 20:47:02 22.5 C 4.39 g/m*3 22.5 C 0 km/h
1863 29-05-2009 20:59:02 21.6 C 5.12 g/m*3 21.6 C 0 km/h
1864 29-05-2009 21:11:02 20.2 C 5.07 g/m*3 20.2 C 0 km/h
1865 29-05-2009 21:23:02 19.1 C 4.92 g/m*3 19.1 C 0 km/h
1866 29-05-2009 21:35:01 18.4 C 5.03 g/m*3 18.4 C 0 km/h
1867 29-05-2009 21:47:02 18.1 C 4.94 g/m*3 18.1 C 0 km/h
1868 29-05-2009 21:59:02 18 C 4.92 g/m*3 18 C 0 km/h
1869 29-05-2009 22:11:01 17.8 C 5.16 g/m*3 17.8 C 0 km/h
1870 29-05-2009 22:23:01 17.4 C 5.04 g/m*3 17.4 C 0 km/h
1871 29-05-2009 22:35:01 16.8 C 5.15 g/m*3 16.8 C 0 km/h
1872 29-05-2009 22:48:02 16.4 C 5.02 g/m*3 16.4 C 0 km/h
1873 29-05-2009 23:00:02 16.2 C 5.1 g/m*3 16.2 C 0 km/h
1874 29-05-2009 23:12:02 15.7 C 5.08 g/m*3 15.7 C 0 km/h
1875 29-05-2009 23:24:03 15.4 C 5.12 g/m*3 15.4 C 0 km/h
Sensor: Nr:Datum:Temp:Abs-Feuchte:Windchill:Wind:
Aussen-T/F 1876 29-05-2009 23:36:03 15 C 5.13 g/m*3 15 C 0 km/h
1877 29-05-2009 23:48:03 14.5 C 5.6 g/m*3 14.5 C 0 km/h
1878 30-05-2009 00:00:03 14.4 C 5.44 g/m*3 14.4 C 0 km/h
1879 30-05-2009 00:12:03 14.3 C 5.65 g/m*3 14.3 C 0 km/h
1880 30-05-2009 00:24:03 14.1 C 5.46 g/m*3 14.1 C 0 km/h
1881 30-05-2009 00:36:03 13.8 C 5.48 g/m*3 13.8 C 0 km/h
1882 30-05-2009 00:48:03 13.5 C 5.38 g/m*3 13.5 C 0 km/h
1883 30-05-2009 01:00:03 13.4 C 5.46 g/m*3 13.4 C 0 km/h
1884 30-05-2009 01:12:03 13 C 5.67 g/m*3 13 C 0 km/h
1885 30-05-2009 01:24:03 12.8 C 5.71 g/m*3 12.8 C 0 km/h
1886 30-05-2009 01:36:03 12.7 C 5.57 g/m*3 12.7 C 0 km/h
1887 30-05-2009 01:48:03 12.4 C 5.79 g/m*3 12.4 C 0 km/h
1888 30-05-2009 02:00:03 12.1 C 5.9 g/m*3 12.1 C 0 km/h
1889 30-05-2009 02:12:03 11.9 C 6.04 g/m*3 11.9 C 0 km/h
1890 30-05-2009 02:24:03 11.6 C 6.03 g/m*3 11.6 C 0 km/h
1891 30-05-2009 02:36:03 11.5 C 5.99 g/m*3 11.5 C 0 km/h
1892 30-05-2009 02:48:03 11.5 C 6.09 g/m*3 11.5 C 0 km/h
1893 30-05-2009 03:00:03 11.4 C 5.95 g/m*3 11.4 C 0 km/h
1894 30-05-2009 03:12:03 11.4 C 5.75 g/m*3 11.4 C 0 km/h
1895 30-05-2009 03:24:04 11.5 C 5.68 g/m*3 11.5 C 0 km/h
1896 30-05-2009 03:36:04 11.4 C 5.75 g/m*3 11.4 C 0 km/h
1897 30-05-2009 03:48:04 11.3 C 5.71 g/m*3 11.3 C 0 km/h
1898 30-05-2009 04:00:04 11.1 C 5.74 g/m*3 11.1 C 0 km/h
1899 30-05-2009 04:12:04 11 C 5.91 g/m*3 11 C 0 km/h
1900 30-05-2009 04:24:04 10.8 C 5.93 g/m*3 10.8 C 0 km/h
Sensor: Nr:Datum:Temp:Abs-Feuchte:Windchill:Wind:
Aussen-T/F 1901 30-05-2009 04:36:04 10.8 C 5.93 g/m*3 10.8 C 0 km/h
1902 30-05-2009 04:48:04 10.7 C 5.89 g/m*3 10.7 C 0 km/h
1903 30-05-2009 05:00:04 10.6 C 5.95 g/m*3 10.6 C 0 km/h
1904 30-05-2009 05:12:04 10.4 C 5.88 g/m*3 10.4 C 0 km/h
1905 30-05-2009 05:24:04 10.2 C 6.19 g/m*3 10.2 C 0 km/h
1906 30-05-2009 05:36:04 10.1 C 6.34 g/m*3 10.1 C 0 km/h
1907 30-05-2009 05:48:04 10 C 6.58 g/m*3 10 C 0 km/h
1908 30-05-2009 06:00:04 9.9 C 6.54 g/m*3 9.9 C 0 km/h
1909 30-05-2009 06:12:04 9.9 C 6.54 g/m*3 9.9 C 0 km/h
1910 30-05-2009 06:24:04 9.9 C 6.54 g/m*3 9.9 C 0 km/h
1911 30-05-2009 06:36:04 9.9 C 6.72 g/m*3 9.9 C 0 km/h
1912 30-05-2009 06:48:04 10 C 6.67 g/m*3 10 C 0 km/h
1913 30-05-2009 07:00:04 10.1 C 6.71 g/m*3 10.1 C 0 km/h
1914 30-05-2009 07:12:04 10.3 C 6.9 g/m*3 10.3 C 0 km/h
1915 30-05-2009 07:24:05 10.5 C 6.89 g/m*3 10.5 C 0 km/h
1916 30-05-2009 07:36:02 10.8 C 6.92 g/m*3 10.8 C 0 km/h
1917 30-05-2009 07:48:02 11.1 C 6.95 g/m*3 11.1 C 0 km/h
1918 30-05-2009 08:00:02 11.4 C 6.98 g/m*3 11.4 C 0 km/h
1919 30-05-2009 08:12:01 11.7 C 6.9 g/m*3 11.7 C 0 km/h
1920 30-05-2009 08:24:02 12.3 C 6.84 g/m*3 12.3 C 0 km/h
1921 30-05-2009 08:36:02 12.7 C 6.68 g/m*3 12.7 C 0 km/h
1922 30-05-2009 08:48:01 13.4 C 6.51 g/m*3 13.4 C 0 km/h
1923 30-05-2009 09:00:01 13.8 C 6.31 g/m*3 13.8 C 0 km/h
1924 30-05-2009 09:12:02 14.2 C 6.35 g/m*3 14.2 C 0 km/h
1925 30-05-2009 09:24:01 14.8 C 6.33 g/m*3 14.8 C 0 km/h
Sensor: Nr:Datum:Temp:Abs-Feuchte:Windchill:Wind:
Aussen-T/F 1926 30-05-2009 09:36:01 15.3 C 6.4 g/m*3 15.3 C 0 km/h
1927 30-05-2009 09:48:01 15.9 C 6.37 g/m*3 15.9 C 0 km/h
1928 30-05-2009 10:00:01 16.5 C 6.32 g/m*3 16.5 C 0 km/h
1929 30-05-2009 10:12:01 16.9 C 6.04 g/m*3 16.9 C 0 km/h
1930 30-05-2009 10:24:00 17.6 C 6.15 g/m*3 17.6 C 0 km/h
1931 30-05-2009 10:36:00 18.2 C 6.22 g/m*3 18.2 C 0 km/h
1932 30-05-2009 10:48:00 18.9 C 6.48 g/m*3 18.9 C 0 km/h
1933 30-05-2009 11:00:00 19.6 C 6.25 g/m*3 19.6 C 0 km/h
1934 30-05-2009 11:12:00 19.6 C 6.25 g/m*3 19.6 C 0 km/h
1935 30-05-2009 11:24:00 19.9 C 6.19 g/m*3 19.9 C 0 km/h
1936 30-05-2009 11:36:00 20.6 C 6.26 g/m*3 20.6 C 0 km/h
1937 30-05-2009 11:48:00 21.2 C 5.93 g/m*3 21.2 C 0 km/h
1938 30-05-2009 12:00:00 21.4 C 5.44 g/m*3 21.4 C 0 km/h
1939 30-05-2009 12:12:59 23 C 5.34 g/m*3 23 C 0 km/h
1940 30-05-2009 12:24:00 21.6 C 5.5 g/m*3 21.6 C 0 km/h
1941 30-05-2009 12:36:00 22.1 C 5.08 g/m*3 22.1 C 0 km/h
1942 30-05-2009 12:48:59 22 C 5.05 g/m*3 22 C 0 km/h
1943 30-05-2009 13:00:59 21.5 C 5.09 g/m*3 21.5 C 0 km/h
1944 30-05-2009 13:11:59 24.3 C 5.09 g/m*3 24.3 C 0 km/h
1945 30-05-2009 13:24:59 26.5 C 5.01 g/m*3 26.5 C 0 km/h
1946 30-05-2009 13:36:59 26.6 C 5.03 g/m*3 26.6 C 0 km/h
1947 30-05-2009 13:48:58 25.8 C 4.82 g/m*3 25.8 C 0 km/h
1948 30-05-2009 14:00:59 24.9 C 4.58 g/m*3 24.9 C 0 km/h
1949 30-05-2009 14:13:00 23.2 C 4.16 g/m*3 23.2 C 0 km/h
1950 30-05-2009 14:24:58 22.7 C 4.65 g/m*3 22.7 C 0 km/h
Sensor: Nr:Datum:Temp:Abs-Feuchte:Windchill:Wind:
Aussen-T/F 1951 30-05-2009 14:36:58 24.1 C 4.38 g/m*3 24.1 C 0 km/h
1952 30-05-2009 14:48:58 25.7 C 4.79 g/m*3 25.7 C 0 km/h
1953 30-05-2009 15:00:58 25.4 C 4.71 g/m*3 25.4 C 0 km/h
1954 30-05-2009 15:12:58 25.1 C 4.63 g/m*3 25.1 C 0 km/h
1955 30-05-2009 15:24:58 25.7 C 4.79 g/m*3 25.7 C 0 km/h
1956 30-05-2009 15:36:57 26.6 C 5.03 g/m*3 26.6 C 0 km/h
1957 30-05-2009 15:48:58 25.3 C 4.68 g/m*3 25.3 C 0 km/h
1958 30-05-2009 16:00:57 26 C 4.87 g/m*3 26 C 0 km/h
1959 30-05-2009 16:12:57 27.5 C 5.29 g/m*3 27.5 C 0 km/h
1960 30-05-2009 16:24:57 28.2 C 5.5 g/m*3 28.2 C 0 km/h
1961 30-05-2009 16:36:58 28.2 C 5.5 g/m*3 28.2 C 0 km/h
1962 30-05-2009 16:48:57 29.1 C 5.78 g/m*3 29.1 C 0 km/h
1963 30-05-2009 17:00:57 28.6 C 5.62 g/m*3 28.6 C 0 km/h
1964 30-05-2009 17:12:57 28.3 C 5.53 g/m*3 28.3 C 0 km/h
1965 30-05-2009 17:24:57 26.9 C 5.12 g/m*3 26.9 C 0 km/h
1966 30-05-2009 17:36:57 25.1 C 4.63 g/m*3 25.1 C 0 km/h
1967 30-05-2009 17:48:56 27.9 C 5.41 g/m*3 27.9 C 0 km/h
1968 30-05-2009 18:00:56 28.6 C 5.62 g/m*3 28.6 C 0 km/h
1969 30-05-2009 18:12:57 29.4 C 5.87 g/m*3 29.4 C 0 km/h
1970 30-05-2009 18:24:56 26.6 C 5.03 g/m*3 26.6 C 0 km/h
1971 30-05-2009 18:36:56 25.2 C 4.66 g/m*3 25.2 C 0 km/h
1972 30-05-2009 18:48:55 25.7 C 4.79 g/m*3 25.7 C 0 km/h
1973 30-05-2009 19:00:56 26.9 C 5.12 g/m*3 26.9 C 0 km/h
1974 30-05-2009 19:12:56 27.2 C 5.2 g/m*3 27.2 C 0 km/h
1975 30-05-2009 19:24:56 27.1 C 5.18 g/m*3 27.1 C 0 km/h
Sensor: Nr:Datum:Temp:Abs-Feuchte:Windchill:Wind:
Aussen-T/F 1976 30-05-2009 19:36:55 26.8 C 5.09 g/m*3 26.8 C 0 km/h
1977 30-05-2009 19:48:56 26.1 C 4.9 g/m*3 26.1 C 0 km/h
1978 30-05-2009 20:00:55 25.5 C 4.73 g/m*3 25.5 C 0 km/h
1979 30-05-2009 20:12:55 25.1 C 4.86 g/m*3 25.1 C 0 km/h
1980 30-05-2009 20:24:55 24.5 C 4.92 g/m*3 24.5 C 0 km/h
1981 30-05-2009 20:36:55 23.6 C 5.32 g/m*3 23.6 C 0 km/h
1982 30-05-2009 20:48:55 22.6 C 5.42 g/m*3 22.6 C 0 km/h
1983 30-05-2009 21:00:55 21.6 C 5.88 g/m*3 21.6 C 0 km/h
1984 30-05-2009 21:12:56 20.9 C 6.19 g/m*3 20.9 C 0 km/h
1985 30-05-2009 21:24:54 20.4 C 6.19 g/m*3 20.4 C 0 km/h
1986 30-05-2009 21:36:54 19.7 C 6.28 g/m*3 19.7 C 0 km/h
1987 30-05-2009 21:48:54 19.6 C 6.58 g/m*3 19.6 C 0 km/h
1988 30-05-2009 22:00:54 18.9 C 6.48 g/m*3 18.9 C 0 km/h
1989 30-05-2009 22:12:54 18.7 C 6.72 g/m*3 18.7 C 0 km/h
1990 30-05-2009 22:24:54 18.2 C 6.53 g/m*3 18.2 C 0 km/h
1991 30-05-2009 22:36:54 17.8 C 6.68 g/m*3 17.8 C 0 km/h
1992 30-05-2009 22:48:54 17.5 C 6.71 g/m*3 17.5 C 0 km/h
1993 30-05-2009 23:01:54 17.5 C 6.86 g/m*3 17.5 C 0 km/h
1994 30-05-2009 23:13:54 17.3 C 6.78 g/m*3 17.3 C 0 km/h
1995 30-05-2009 23:25:54 17.2 C 6.88 g/m*3 17.2 C 0 km/h
1996 30-05-2009 23:37:54 17 C 6.95 g/m*3 17 C 0 km/h
1997 30-05-2009 23:49:54 17 C 6.95 g/m*3 17 C 0 km/h
1998 31-05-2009 00:01:54 16.6 C 6.92 g/m*3 16.6 C 0 km/h
1999 31-05-2009 00:13:54 16.4 C 7.12 g/m*3 16.4 C 0 km/h
2000 31-05-2009 00:25:54 16.3 C 7.21 g/m*3 16.3 C 0 km/h
Sensor: Nr:Datum:Temp:Abs-Feuchte:Windchill:Wind:
Aussen-T/F 2001 31-05-2009 00:37:54 16.6 C 7.35 g/m*3 16.6 C 0 km/h
2002 31-05-2009 00:49:55 16.7 C 7.39 g/m*3 16.7 C 0 km/h
2003 31-05-2009 01:01:55 16.7 C 7.39 g/m*3 16.7 C 0 km/h
2004 31-05-2009 01:13:55 16.4 C 7.4 g/m*3 16.4 C 0 km/h
2005 31-05-2009 01:25:55 16 C 7.36 g/m*3 16 C 0 km/h
2006 31-05-2009 01:37:55 15.5 C 7.4 g/m*3 15.5 C 0 km/h
2007 31-05-2009 01:49:55 15.6 C 7.71 g/m*3 15.6 C 0 km/h
2008 31-05-2009 02:01:55 15.8 C 7.67 g/m*3 15.8 C 0 km/h
2009 31-05-2009 02:13:55 15.8 C 7.67 g/m*3 15.8 C 0 km/h
2010 31-05-2009 02:25:55 15.7 C 7.76 g/m*3 15.7 C 0 km/h
2011 31-05-2009 02:37:55 15.9 C 7.85 g/m*3 15.9 C 0 km/h
2012 31-05-2009 02:49:55 15.9 C 7.85 g/m*3 15.9 C 0 km/h
2013 31-05-2009 03:01:55 15.8 C 7.81 g/m*3 15.8 C 0 km/h
2014 31-05-2009 03:13:55 15.9 C 7.72 g/m*3 15.9 C 0 km/h
2015 31-05-2009 03:25:55 15.6 C 7.71 g/m*3 15.6 C 0 km/h
2016 31-05-2009 03:37:55 15.5 C 7.8 g/m*3 15.5 C 0 km/h
2017 31-05-2009 03:49:55 15.5 C 7.8 g/m*3 15.5 C 0 km/h
2018 31-05-2009 04:01:55 15.6 C 7.98 g/m*3 15.6 C 0 km/h
2019 31-05-2009 04:13:55 15.5 C 7.93 g/m*3 15.5 C 0 km/h
2020 31-05-2009 04:25:55 15.2 C 7.92 g/m*3 15.2 C 0 km/h
2021 31-05-2009 04:37:56 15.4 C 8.01 g/m*3 15.4 C 0 km/h
2022 31-05-2009 04:49:56 15.5 C 8.06 g/m*3 15.5 C 0 km/h
2023 31-05-2009 05:01:56 15.5 C 8.06 g/m*3 15.5 C 0 km/h
2024 31-05-2009 05:13:56 15.4 C 8.01 g/m*3 15.4 C 0 km/h
2025 31-05-2009 05:25:56 15.4 C 8.01 g/m*3 15.4 C 0 km/h
Sensor: Nr:Datum:Temp:Abs-Feuchte:Windchill:Wind:
Aussen-T/F 2026 31-05-2009 05:37:56 15.4 C 8.01 g/m*3 15.4 C 0 km/h
2027 31-05-2009 05:49:56 15.4 C 8.15 g/m*3 15.4 C 0 km/h
2028 31-05-2009 06:01:56 15.3 C 8.1 g/m*3 15.3 C 0 km/h
2029 31-05-2009 06:13:56 15.4 C 8.28 g/m*3 15.4 C 0 km/h
2030 31-05-2009 06:25:56 15.6 C 8.38 g/m*3 15.6 C 0 km/h
2031 31-05-2009 06:37:56 15.8 C 8.35 g/m*3 15.8 C 0 km/h
2032 31-05-2009 06:49:56 15.9 C 8.4 g/m*3 15.9 C 0 km/h
2033 31-05-2009 07:01:56 16 C 8.31 g/m*3 16 C 0 km/h
2034 31-05-2009 07:13:56 15.9 C 8.26 g/m*3 15.9 C 0 km/h
2035 31-05-2009 07:25:56 16 C 8.31 g/m*3 16 C 0 km/h
2036 31-05-2009 07:37:56 16 C 8.58 g/m*3 16 C 0 km/h
2037 31-05-2009 07:49:56 16 C 8.58 g/m*3 16 C 0 km/h
2038 31-05-2009 08:01:54 15.9 C 8.67 g/m*3 15.9 C 0 km/h
2039 31-05-2009 08:13:54 16.2 C 8.83 g/m*3 16.2 C 0 km/h
2040 31-05-2009 08:25:54 16.7 C 8.95 g/m*3 16.7 C 0 km/h
2041 31-05-2009 08:37:53 17.5 C 8.8 g/m*3 17.5 C 0 km/h
2042 31-05-2009 08:49:54 17.6 C 8.7 g/m*3 17.6 C 0 km/h
2043 31-05-2009 09:01:53 17.7 C 8.75 g/m*3 17.7 C 0 km/h
2044 31-05-2009 09:13:53 18.3 C 8.6 g/m*3 18.3 C 0 km/h
2045 31-05-2009 09:25:53 18.6 C 8.59 g/m*3 18.6 C 0 km/h
2046 31-05-2009 09:37:54 18.9 C 8.59 g/m*3 18.9 C 0 km/h
2047 31-05-2009 09:49:53 18.9 C 8.26 g/m*3 18.9 C 0 km/h
2048 31-05-2009 10:01:53 19.3 C 8.29 g/m*3 19.3 C 0 km/h
2049 31-05-2009 10:13:53 20.1 C 8.34 g/m*3 20.1 C 0 km/h
2050 31-05-2009 10:25:53 20.4 C 7.96 g/m*3 20.4 C 0 km/h
Sensor: Nr:Datum:Temp:Abs-Feuchte:Windchill:Wind:
Aussen-T/F 2051 31-05-2009 10:37:53 20.5 C 8.01 g/m*3 20.5 C 0 km/h
2052 31-05-2009 10:49:52 20.5 C 8.19 g/m*3 20.5 C 0 km/h
2053 31-05-2009 11:01:53 20.9 C 8.01 g/m*3 20.9 C 0 km/h
2054 31-05-2009 11:13:54 21.2 C 7.78 g/m*3 21.2 C 0 km/h
2055 31-05-2009 11:25:52 21.4 C 7.5 g/m*3 21.4 C 0 km/h
2056 31-05-2009 11:37:52 21.9 C 7.53 g/m*3 21.9 C 0 km/h
2057 31-05-2009 11:49:51 22.4 C 7.35 g/m*3 22.4 C 0 km/h
2058 31-05-2009 12:01:52 23.3 C 7.11 g/m*3 23.3 C 0 km/h
2059 31-05-2009 12:13:52 23.9 C 7.14 g/m*3 23.9 C 0 km/h
2060 31-05-2009 12:25:52 23 C 6.78 g/m*3 23 C 0 km/h
2061 31-05-2009 12:37:51 22.7 C 7.07 g/m*3 22.7 C 0 km/h
2062 31-05-2009 12:49:52 22.2 C 7.07 g/m*3 22.2 C 0 km/h
2063 31-05-2009 13:01:51 23.1 C 6.82 g/m*3 23.1 C 0 km/h
2064 31-05-2009 13:13:51 25.6 C 6.43 g/m*3 25.6 C 0 km/h
2065 31-05-2009 13:25:51 26.1 C 5.39 g/m*3 26.1 C 0 km/h
2066 31-05-2009 13:37:51 23.5 C 6.13 g/m*3 23.5 C 0 km/h
2067 31-05-2009 13:49:51 23.1 C 5.99 g/m*3 23.1 C 0 km/h
2068 31-05-2009 14:01:51 24.5 C 6.49 g/m*3 24.5 C 0 km/h
2069 31-05-2009 14:13:51 25 C 6.22 g/m*3 25 C 0 km/h
2070 31-05-2009 14:25:50 25.4 C 5.89 g/m*3 25.4 C 0 km/h
2071 31-05-2009 14:37:51 25.7 C 5.99 g/m*3 25.7 C 0 km/h
2072 31-05-2009 14:49:50 25.6 C 5.95 g/m*3 25.6 C 0 km/h
2073 31-05-2009 15:01:50 25.8 C 5.3 g/m*3 25.8 C 0 km/h
2074 31-05-2009 15:13:50 26.3 C 5.2 g/m*3 26.3 C 0 km/h
2075 31-05-2009 15:25:50 25.6 C 5 g/m*3 25.6 C 0 km/h
Sensor: Nr:Datum:Temp:Abs-Feuchte:Windchill:Wind:
Aussen-T/F 2076 31-05-2009 15:37:50 26.7 C 5.32 g/m*3 26.7 C 0 km/h
2077 31-05-2009 15:49:49 27.4 C 5.26 g/m*3 27.4 C 0 km/h
2078 31-05-2009 16:01:50 27.1 C 5.18 g/m*3 27.1 C 0 km/h
2079 31-05-2009 16:13:50 27.1 C 5.18 g/m*3 27.1 C 0 km/h
2080 31-05-2009 16:25:50 28.1 C 5.47 g/m*3 28.1 C 0 km/h
2081 31-05-2009 16:37:49 27.1 C 5.18 g/m*3 27.1 C 0 km/h
2082 31-05-2009 16:49:50 27 C 5.15 g/m*3 27 C 0 km/h
2083 31-05-2009 17:01:49 25.4 C 5.41 g/m*3 25.4 C 0 km/h
2084 31-05-2009 17:13:49 25.5 C 5.21 g/m*3 25.5 C 0 km/h
2085 31-05-2009 17:25:49 25.8 C 5.3 g/m*3 25.8 C 0 km/h
2086 31-05-2009 17:37:48 25.8 C 5.54 g/m*3 25.8 C 0 km/h
2087 31-05-2009 17:49:49 25.5 C 5.21 g/m*3 25.5 C 0 km/h
2088 31-05-2009 18:01:48 24.8 C 5.46 g/m*3 24.8 C 0 km/h
2089 31-05-2009 18:13:48 27.5 C 5.29 g/m*3 27.5 C 0 km/h
2090 31-05-2009 18:25:48 25.6 C 5.24 g/m*3 25.6 C 0 km/h
2091 31-05-2009 18:37:49 25.7 C 5.75 g/m*3 25.7 C 0 km/h
2092 31-05-2009 18:49:48 27 C 5.4 g/m*3 27 C 0 km/h
2093 31-05-2009 19:01:48 27.5 C 5.56 g/m*3 27.5 C 0 km/h
2094 31-05-2009 19:13:48 27.5 C 5.56 g/m*3 27.5 C 0 km/h
2095 31-05-2009 19:25:48 27.6 C 5.59 g/m*3 27.6 C 0 km/h
2096 31-05-2009 19:37:47 26.8 C 5.6 g/m*3 26.8 C 0 km/h
2097 31-05-2009 19:49:48 25.6 C 5.95 g/m*3 25.6 C 0 km/h
2098 31-05-2009 20:01:47 24.1 C 5.69 g/m*3 24.1 C 0 km/h
2099 31-05-2009 20:13:47 24.1 C 5.91 g/m*3 24.1 C 0 km/h
2100 31-05-2009 20:25:48 23.3 C 6.06 g/m*3 23.3 C 0 km/h
Sensor: Nr:Datum:Temp:Abs-Feuchte:Windchill:Wind:
Aussen-T/F 2101 31-05-2009 20:37:47 22.9 C 6.34 g/m*3 22.9 C 0 km/h
2102 31-05-2009 20:49:47 22.2 C 6.48 g/m*3 22.2 C 0 km/h
2103 31-05-2009 21:01:47 21.4 C 6.75 g/m*3 21.4 C 0 km/h
2104 31-05-2009 21:13:47 20.8 C 6.88 g/m*3 20.8 C 0 km/h
2105 31-05-2009 21:25:47 20 C 6.57 g/m*3 20 C 0 km/h
2106 31-05-2009 21:37:46 19.6 C 6.75 g/m*3 19.6 C 0 km/h
2107 31-05-2009 21:49:47 19.2 C 6.76 g/m*3 19.2 C 0 km/h
2108 31-05-2009 22:01:46 18.9 C 6.97 g/m*3 18.9 C 0 km/h
2109 31-05-2009 22:13:46 18.6 C 7 g/m*3 18.6 C 0 km/h
2110 31-05-2009 22:25:46 18.4 C 7.08 g/m*3 18.4 C 0 km/h
2111 31-05-2009 22:37:46 18 C 7.07 g/m*3 18 C 0 km/h
2112 31-05-2009 22:49:01 17.8 C 7.29 g/m*3 17.8 C 0 km/h
2113 31-05-2009 23:01:01 17.7 C 7.24 g/m*3 17.7 C 0 km/h
2114 31-05-2009 23:13:01 17.4 C 7.26 g/m*3 17.4 C 0 km/h
2115 31-05-2009 23:25:01 17.2 C 7.32 g/m*3 17.2 C 0 km/h
2116 31-05-2009 23:37:01 16.9 C 7.34 g/m*3 16.9 C 0 km/h
2117 31-05-2009 23:49:00 16.6 C 7.35 g/m*3 16.6 C 0 km/h
2118 01-06-2009 00:01:00 16.6 C 7.49 g/m*3 16.6 C 0 km/h
2119 01-06-2009 00:13:00 16.3 C 7.49 g/m*3 16.3 C 0 km/h
2120 01-06-2009 00:26:01 16.1 C 7.54 g/m*3 16.1 C 0 km/h
2121 01-06-2009 00:38:01 15.9 C 7.85 g/m*3 15.9 C 0 km/h
2122 01-06-2009 00:50:01 15.6 C 7.85 g/m*3 15.6 C 0 km/h
2123 01-06-2009 01:02:01 15.6 C 7.98 g/m*3 15.6 C 0 km/h
2124 01-06-2009 01:14:01 15.2 C 7.92 g/m*3 15.2 C 0 km/h
2125 01-06-2009 01:26:01 14.9 C 7.9 g/m*3 14.9 C 0 km/h
Sensor: Nr:Datum:Temp:Abs-Feuchte:Windchill:Wind:
Aussen-T/F 2126 01-06-2009 01:38:01 14.8 C 8.11 g/m*3 14.8 C 0 km/h
2127 01-06-2009 01:50:01 14.6 C 8.01 g/m*3 14.6 C 0 km/h
2128 01-06-2009 02:02:01 14.5 C 7.96 g/m*3 14.5 C 0 km/h
2129 01-06-2009 02:14:01 14.3 C 8.11 g/m*3 14.3 C 0 km/h
2130 01-06-2009 02:26:01 14.1 C 8.13 g/m*3 14.1 C 0 km/h
2131 01-06-2009 02:38:01 13.7 C 8.05 g/m*3 13.7 C 0 km/h
2132 01-06-2009 02:50:01 13.8 C 8.22 g/m*3 13.8 C 0 km/h
2133 01-06-2009 03:02:01 13.6 C 8.24 g/m*3 13.6 C 0 km/h
2134 01-06-2009 03:14:01 13.4 C 8.25 g/m*3 13.4 C 0 km/h
2135 01-06-2009 03:26:01 13.3 C 8.2 g/m*3 13.3 C 0 km/h
2136 01-06-2009 03:38:01 13.1 C 8.22 g/m*3 13.1 C 0 km/h
2137 01-06-2009 03:50:01 13 C 8.28 g/m*3 13 C 0 km/h
2138 01-06-2009 04:02:01 12.9 C 8.34 g/m*3 12.9 C 0 km/h
2139 01-06-2009 04:14:02 12.8 C 8.4 g/m*3 12.8 C 0 km/h
2140 01-06-2009 04:26:02 12.6 C 8.3 g/m*3 12.6 C 0 km/h
2141 01-06-2009 04:38:02 12.5 C 8.36 g/m*3 12.5 C 0 km/h
2142 01-06-2009 04:50:02 12.4 C 8.3 g/m*3 12.4 C 0 km/h
2143 01-06-2009 05:02:02 12.2 C 8.2 g/m*3 12.2 C 0 km/h
2144 01-06-2009 05:14:02 12.3 C 8.25 g/m*3 12.3 C 0 km/h
2145 01-06-2009 05:26:02 12.4 C 8.41 g/m*3 12.4 C 0 km/h
2146 01-06-2009 05:38:02 12.6 C 8.52 g/m*3 12.6 C 0 km/h
2147 01-06-2009 05:50:02 12.8 C 8.51 g/m*3 12.8 C 0 km/h
2148 01-06-2009 06:02:02 12.8 C 8.51 g/m*3 12.8 C 0 km/h
2149 01-06-2009 06:14:02 13 C 8.39 g/m*3 13 C 0 km/h
2150 01-06-2009 06:26:02 13.2 C 8.5 g/m*3 13.2 C 0 km/h
Sensor: Nr:Datum:Temp:Abs-Feuchte:Windchill:Wind:
Aussen-T/F 2151 01-06-2009 06:38:02 13.2 C 8.38 g/m*3 13.2 C 0 km/h
2152 01-06-2009 06:50:02 13.5 C 8.54 g/m*3 13.5 C 0 km/h
2153 01-06-2009 07:02:02 13.5 C 8.54 g/m*3 13.5 C 0 km/h
2154 01-06-2009 07:14:02 13.6 C 8.59 g/m*3 13.6 C 0 km/h
2155 01-06-2009 07:26:02 13.8 C 8.7 g/m*3 13.8 C 0 km/h
2156 01-06-2009 07:38:02 14.3 C 8.72 g/m*3 14.3 C 0 km/h
2157 01-06-2009 07:50:02 14.4 C 8.65 g/m*3 14.4 C 0 km/h
2158 01-06-2009 08:02:03 14.3 C 8.72 g/m*3 14.3 C 0 km/h
2159 01-06-2009 08:14:03 14.5 C 8.83 g/m*3 14.5 C 0 km/h
2160 01-06-2009 08:26:03 15.1 C 8.9 g/m*3 15.1 C 0 km/h
2161 01-06-2009 08:38:01 15.9 C 8.94 g/m*3 15.9 C 0 km/h
2162 01-06-2009 08:50:01 16.9 C 8.92 g/m*3 16.9 C 0 km/h
2163 01-06-2009 09:02:00 17.1 C 8.73 g/m*3 17.1 C 0 km/h
2164 01-06-2009 09:14:00 17.6 C 9 g/m*3 17.6 C 0 km/h
2165 01-06-2009 09:26:01 18.2 C 8.7 g/m*3 18.2 C 0 km/h
2166 01-06-2009 09:38:01 18.3 C 8.76 g/m*3 18.3 C 0 km/h
2167 01-06-2009 09:50:00 18.7 C 8.81 g/m*3 18.7 C 0 km/h
2168 01-06-2009 10:02:01 19.6 C 8.78 g/m*3 19.6 C 0 km/h
2169 01-06-2009 10:14:01 20.1 C 8.52 g/m*3 20.1 C 0 km/h
2170 01-06-2009 10:26:00 20.8 C 8.87 g/m*3 20.8 C 0 km/h
2171 01-06-2009 10:38:00 21.7 C 9.16 g/m*3 21.7 C 0 km/h
2172 01-06-2009 10:50:00 22.1 C 8.39 g/m*3 22.1 C 0 km/h
2173 01-06-2009 11:14:00 22.8 C 8.53 g/m*3 22.8 C 0 km/h
2174 01-06-2009 11:14:00 22.5 C 8.39 g/m*3 22.5 C 0 km/h
2175 01-06-2009 11:14:00 22.8 C 8.53 g/m*3 22.8 C 0 km/h
Sensor: Nr:Datum:Temp:Abs-Feuchte:Windchill:Wind:
Aussen-T/F 2176 01-06-2009 11:14:00 22.5 C 8.39 g/m*3 22.5 C 0 km/h
2177 01-06-2009 11:26:00 22.6 C 8.44 g/m*3 22.6 C 0 km/h
2178 01-06-2009 11:37:59 23.3 C 8.15 g/m*3 23.3 C 0 km/h
2179 01-06-2009 11:50:59 24.5 C 8.06 g/m*3 24.5 C 0 km/h
2180 01-06-2009 12:02:59 24.5 C 7.83 g/m*3 24.5 C 0 km/h
2181 01-06-2009 12:14:58 25.7 C 7.42 g/m*3 25.7 C 0 km/h
2182 01-06-2009 12:26:58 26.5 C 7.76 g/m*3 26.5 C 0 km/h
2183 01-06-2009 12:38:59 26.8 C 7.38 g/m*3 26.8 C 0 km/h
2184 01-06-2009 12:50:58 26.2 C 7.39 g/m*3 26.2 C 0 km/h
2185 01-06-2009 13:02:58 25.4 C 8.24 g/m*3 25.4 C 0 km/h
2186 01-06-2009 13:14:59 24.8 C 8.65 g/m*3 24.8 C 0 km/h
2187 01-06-2009 13:26:59 25.6 C 8.09 g/m*3 25.6 C 0 km/h
2188 01-06-2009 13:38:58 25.7 C 8.38 g/m*3 25.7 C 0 km/h
2189 01-06-2009 13:50:58 24.4 C 8.46 g/m*3 24.4 C 0 km/h
2190 01-06-2009 14:02:58 19.6 C 9.12 g/m*3 19.6 C 0 km/h
2191 01-06-2009 14:14:58 19 C 11.73 g/m*3 19 C 0 km/h
2192 01-06-2009 14:26:59 20.1 C 12.69 g/m*3 20.1 C 0 km/h
2193 01-06-2009 14:38:57 22.4 C 11.12 g/m*3 22.4 C 0 km/h
2194 01-06-2009 14:50:57 22.7 C 11.11 g/m*3 22.7 C 0 km/h
2195 01-06-2009 15:02:57 22.1 C 12.1 g/m*3 22.1 C 0 km/h
2196 01-06-2009 15:14:57 22.6 C 12.25 g/m*3 22.6 C 0 km/h
2197 01-06-2009 15:26:57 23.7 C 11.55 g/m*3 23.7 C 0 km/h
2198 01-06-2009 15:38:57 23.6 C 11.91 g/m*3 23.6 C 0 km/h
2199 01-06-2009 15:50:57 24.6 C 11.25 g/m*3 24.6 C 0 km/h
2200 01-06-2009 16:02:57 25.9 C 9.44 g/m*3 25.9 C 0 km/h
Sensor: Nr:Datum:Temp:Abs-Feuchte:Windchill:Wind:
Aussen-T/F 2201 01-06-2009 16:14:56 26.9 C 8.7 g/m*3 26.9 C 0 km/h
2202 01-06-2009 16:26:56 28.8 C 7.39 g/m*3 28.8 C 0 km/h
2203 01-06-2009 16:38:56 29.4 C 6.75 g/m*3 29.4 C 0 km/h
2204 01-06-2009 16:50:56 25.6 C 6.9 g/m*3 25.6 C 0 km/h
2205 01-06-2009 17:02:56 21.6 C 11.57 g/m*3 21.6 C 0 km/h
2206 01-06-2009 17:14:56 22.4 C 11.72 g/m*3 22.4 C 0 km/h
2207 01-06-2009 17:26:56 23.3 C 11.5 g/m*3 23.3 C 0 km/h
2208 01-06-2009 17:38:56 24.3 C 10.4 g/m*3 24.3 C 0 km/h
2209 01-06-2009 17:50:56 24.7 C 9.96 g/m*3 24.7 C 0 km/h
2210 01-06-2009 18:02:55 24.7 C 9.51 g/m*3 24.7 C 0 km/h
2211 01-06-2009 18:14:56 25.4 C 8.95 g/m*3 25.4 C 0 km/h
2212 01-06-2009 18:26:57 25.9 C 9.44 g/m*3 25.9 C 0 km/h
2213 01-06-2009 18:38:55 28 C 8.16 g/m*3 28 C 0 km/h
2214 01-06-2009 18:50:55 27.4 C 8.95 g/m*3 27.4 C 0 km/h
2215 01-06-2009 19:02:54 25.6 C 8.81 g/m*3 25.6 C 0 km/h
2216 01-06-2009 19:14:55 23.7 C 8.34 g/m*3 23.7 C 0 km/h
2217 01-06-2009 19:26:55 24.2 C 8.14 g/m*3 24.2 C 0 km/h
2218 01-06-2009 19:38:55 25.3 C 8.19 g/m*3 25.3 C 0 km/h
2219 01-06-2009 19:50:54 25.3 C 7.73 g/m*3 25.3 C 0 km/h
2220 01-06-2009 20:02:55 25.2 C 7.68 g/m*3 25.2 C 0 km/h
2221 01-06-2009 20:14:54 24.9 C 7.78 g/m*3 24.9 C 0 km/h
2222 01-06-2009 20:26:54 24.5 C 7.61 g/m*3 24.5 C 0 km/h
2223 01-06-2009 20:38:54 23.7 C 7.49 g/m*3 23.7 C 0 km/h
2224 01-06-2009 20:50:54 22.6 C 7.83 g/m*3 22.6 C 0 km/h
2225 01-06-2009 21:02:53 22.1 C 8.59 g/m*3 22.1 C 0 km/h
Sensor: Nr:Datum:Temp:Abs-Feuchte:Windchill:Wind:
Aussen-T/F 2226 01-06-2009 21:14:54 21.1 C 8.48 g/m*3 21.1 C 0 km/h
2227 01-06-2009 21:26:54 20.3 C 8.62 g/m*3 20.3 C 0 km/h
2228 01-06-2009 21:38:54 19.7 C 8.49 g/m*3 19.7 C 0 km/h
2229 01-06-2009 21:50:53 19.3 C 8.63 g/m*3 19.3 C 0 km/h
2230 01-06-2009 22:02:54 19 C 8.64 g/m*3 19 C 0 km/h
2231 01-06-2009 22:14:53 18.6 C 8.91 g/m*3 18.6 C 0 km/h
2232 01-06-2009 22:26:53 18.4 C 8.81 g/m*3 18.4 C 0 km/h
2233 01-06-2009 22:39:09 18.1 C 8.96 g/m*3 18.1 C 0 km/h
2234 01-06-2009 22:51:09 17.8 C 9.11 g/m*3 17.8 C 0 km/h
2235 01-06-2009 23:03:09 17.4 C 8.89 g/m*3 17.4 C 0 km/h
2236 01-06-2009 23:15:09 17.2 C 8.93 g/m*3 17.2 C 0 km/h
2237 01-06-2009 23:27:09 17 C 9.12 g/m*3 17 C 0 km/h
2238 01-06-2009 23:39:09 16.9 C 9.21 g/m*3 16.9 C 0 km/h
2239 01-06-2009 23:51:09 16.6 C 9.18 g/m*3 16.6 C 0 km/h
2240 02-06-2009 00:03:09 16.4 C 9.21 g/m*3 16.4 C 0 km/h
2241 02-06-2009 00:15:09 16.1 C 9.18 g/m*3 16.1 C 0 km/h
2242 02-06-2009 00:27:09 16 C 9.26 g/m*3 16 C 0 km/h
2243 02-06-2009 00:39:09 15.8 C 9.56 g/m*3 15.8 C 0 km/h
2244 02-06-2009 00:51:09 15.5 C 9.65 g/m*3 15.5 C 0 km/h
2245 02-06-2009 01:03:09 15.3 C 9.66 g/m*3 15.3 C 0 km/h
2246 02-06-2009 01:15:09 15 C 9.62 g/m*3 15 C 0 km/h
2247 02-06-2009 01:27:10 14.9 C 9.69 g/m*3 14.9 C 0 km/h
2248 02-06-2009 01:39:10 14.7 C 9.82 g/m*3 14.7 C 0 km/h
2249 02-06-2009 01:51:10 14.6 C 9.76 g/m*3 14.6 C 0 km/h
2250 02-06-2009 02:03:10 14.4 C 9.64 g/m*3 14.4 C 0 km/h
Sensor: Nr:Datum:Temp:Abs-Feuchte:Windchill:Wind:
Aussen-T/F 2251 02-06-2009 02:15:10 14.1 C 9.59 g/m*3 14.1 C 0 km/h
2252 02-06-2009 02:27:10 14 C 9.65 g/m*3 14 C 0 km/h
2253 02-06-2009 02:39:10 13.7 C 9.59 g/m*3 13.7 C 0 km/h
2254 02-06-2009 02:51:10 13.7 C 9.59 g/m*3 13.7 C 0 km/h
2255 02-06-2009 03:03:10 13.7 C 9.59 g/m*3 13.7 C 0 km/h
2256 02-06-2009 03:15:10 13.5 C 9.59 g/m*3 13.5 C 0 km/h
2257 02-06-2009 03:27:10 13.4 C 9.53 g/m*3 13.4 C 0 km/h
2258 02-06-2009 03:39:10 13.4 C 9.53 g/m*3 13.4 C 0 km/h
2259 02-06-2009 03:51:10 13.4 C 9.53 g/m*3 13.4 C 0 km/h
2260 02-06-2009 04:03:10 13.4 C 9.42 g/m*3 13.4 C 0 km/h
2261 02-06-2009 04:15:10 13.2 C 9.3 g/m*3 13.2 C 0 km/h
2262 02-06-2009 04:27:10 13 C 9.19 g/m*3 13 C 0 km/h
2263 02-06-2009 04:39:10 12.9 C 9.35 g/m*3 12.9 C 0 km/h
2264 02-06-2009 04:51:10 12.8 C 9.3 g/m*3 12.8 C 0 km/h
2265 02-06-2009 05:03:10 12.7 C 9.35 g/m*3 12.7 C 0 km/h
2266 02-06-2009 05:15:11 12.5 C 9.24 g/m*3 12.5 C 0 km/h
2267 02-06-2009 05:27:11 12.4 C 9.18 g/m*3 12.4 C 0 km/h
2268 02-06-2009 05:39:11 12.4 C 9.18 g/m*3 12.4 C 0 km/h
2269 02-06-2009 05:51:11 12.4 C 9.18 g/m*3 12.4 C 0 km/h
2270 02-06-2009 06:03:11 12.4 C 9.18 g/m*3 12.4 C 0 km/h
2271 02-06-2009 06:15:11 12.6 C 9.18 g/m*3 12.6 C 0 km/h
2272 02-06-2009 06:27:11 12.9 C 8.9 g/m*3 12.9 C 0 km/h
2273 02-06-2009 06:39:54 13.1 C 8.22 g/m*3 13.1 C 0 km/h
2274 02-06-2009 06:51:54 13.5 C 7.95 g/m*3 13.5 C 0 km/h
2275 02-06-2009 07:03:53 13.6 C 7.77 g/m*3 13.6 C 0 km/h
Sensor: Nr:Datum:Temp:Abs-Feuchte:Windchill:Wind:
Aussen-T/F 2276 02-06-2009 07:15:54 13.7 C 7.7 g/m*3 13.7 C 0 km/h
2277 02-06-2009 07:27:54 13.8 C 7.86 g/m*3 13.8 C 0 km/h
2278 02-06-2009 07:39:53 13.7 C 7.7 g/m*3 13.7 C 0 km/h
2279 02-06-2009 07:51:53 14 C 7.6 g/m*3 14 C 0 km/h
2280 02-06-2009 08:03:53 14.2 C 7.82 g/m*3 14.2 C 0 km/h
2281 02-06-2009 08:15:53 14.4 C 7.91 g/m*3 14.4 C 0 km/h
2282 02-06-2009 08:27:53 14.6 C 7.63 g/m*3 14.6 C 0 km/h
2283 02-06-2009 08:39:53 14.7 C 7.68 g/m*3 14.7 C 0 km/h
2284 02-06-2009 08:51:53 15.1 C 7.74 g/m*3 15.1 C 0 km/h
2285 02-06-2009 09:03:53 15.5 C 7.8 g/m*3 15.5 C 0 km/h
2286 02-06-2009 09:15:52 15.8 C 7.81 g/m*3 15.8 C 0 km/h
2287 02-06-2009 09:27:52 16 C 7.63 g/m*3 16 C 0 km/h
2288 02-06-2009 09:39:53 16.5 C 7.86 g/m*3 16.5 C 0 km/h
2289 02-06-2009 09:51:52 17 C 7.81 g/m*3 17 C 0 km/h
2290 02-06-2009 10:03:52 17.6 C 7.8 g/m*3 17.6 C 0 km/h
2291 02-06-2009 10:15:51 18 C 7.83 g/m*3 18 C 0 km/h
2292 02-06-2009 10:27:51 18.3 C 7.82 g/m*3 18.3 C 0 km/h
2293 02-06-2009 10:39:52 18.8 C 7.73 g/m*3 18.8 C 0 km/h
2294 02-06-2009 10:51:51 18.8 C 7.57 g/m*3 18.8 C 0 km/h
2295 02-06-2009 11:03:51 19.3 C 7.8 g/m*3 19.3 C 0 km/h
2296 02-06-2009 11:15:52 19.5 C 7.89 g/m*3 19.5 C 0 km/h
2297 02-06-2009 11:27:52 20.6 C 8.23 g/m*3 20.6 C 0 km/h
2298 02-06-2009 11:39:51 20.5 C 8.19 g/m*3 20.5 C 0 km/h
2299 02-06-2009 11:51:51 20.8 C 8.15 g/m*3 20.8 C 0 km/h
2300 02-06-2009 12:03:51 21.8 C 7.87 g/m*3 21.8 C 0 km/h
Sensor: Nr:Datum:Temp:Abs-Feuchte:Windchill:Wind:
Aussen-T/F 2301 02-06-2009 12:15:51 22.4 C 7.75 g/m*3 22.4 C 0 km/h
2302 02-06-2009 12:27:51 23.8 C 7.74 g/m*3 23.8 C 0 km/h
2303 02-06-2009 12:39:50 23.2 C 7.28 g/m*3 23.2 C 0 km/h
2304 02-06-2009 12:51:51 23.8 C 7.31 g/m*3 23.8 C 0 km/h
2305 02-06-2009 13:03:50 24.1 C 7 g/m*3 24.1 C 0 km/h
2306 02-06-2009 13:15:50 24.3 C 6.86 g/m*3 24.3 C 0 km/h
2307 02-06-2009 13:27:50 24.4 C 6.45 g/m*3 24.4 C 0 km/h
2308 02-06-2009 13:39:50 24.6 C 5.85 g/m*3 24.6 C 0 km/h
2309 02-06-2009 13:51:50 24.4 C 5.56 g/m*3 24.4 C 0 km/h
2310 02-06-2009 14:03:50 24.3 C 5.53 g/m*3 24.3 C 0 km/h
2311 02-06-2009 14:15:49 24.6 C 5.85 g/m*3 24.6 C 0 km/h
2312 02-06-2009 14:27:49 24 C 5.87 g/m*3 24 C 0 km/h
2313 02-06-2009 14:39:50 25.2 C 5.82 g/m*3 25.2 C 0 km/h
2314 02-06-2009 14:51:49 24.6 C 5.63 g/m*3 24.6 C 0 km/h
2315 02-06-2009 15:03:49 24.7 C 5.21 g/m*3 24.7 C 0 km/h
2316 02-06-2009 15:15:48 25.4 C 5.41 g/m*3 25.4 C 0 km/h
2317 02-06-2009 15:27:48 25.7 C 5.03 g/m*3 25.7 C 0 km/h
2318 02-06-2009 15:39:49 25.9 C 5.57 g/m*3 25.9 C 0 km/h
2319 02-06-2009 15:51:48 27 C 5.4 g/m*3 27 C 0 km/h
2320 02-06-2009 16:03:48 26.5 C 5.76 g/m*3 26.5 C 0 km/h
2321 02-06-2009 16:15:49 26 C 5.11 g/m*3 26 C 0 km/h
2322 02-06-2009 16:27:49 26.7 C 5.06 g/m*3 26.7 C 0 km/h
2323 02-06-2009 16:39:48 27.1 C 5.18 g/m*3 27.1 C 0 km/h
2324 02-06-2009 16:51:48 27 C 5.15 g/m*3 27 C 0 km/h
2325 02-06-2009 17:03:48 27.8 C 5.38 g/m*3 27.8 C 0 km/h
Sensor: Nr:Datum:Temp:Abs-Feuchte:Windchill:Wind:
Aussen-T/F 2326 02-06-2009 17:15:48 27.5 C 5.29 g/m*3 27.5 C 0 km/h
2327 02-06-2009 17:27:49 27.1 C 5.18 g/m*3 27.1 C 0 km/h
2328 02-06-2009 17:39:47 27.8 C 5.38 g/m*3 27.8 C 0 km/h
2329 02-06-2009 17:51:48 27.6 C 5.32 g/m*3 27.6 C 0 km/h
2330 02-06-2009 18:03:48 27.8 C 5.38 g/m*3 27.8 C 0 km/h
2331 02-06-2009 18:15:47 28.1 C 5.47 g/m*3 28.1 C 0 km/h
2332 02-06-2009 18:27:47 28.5 C 5.59 g/m*3 28.5 C 0 km/h
2333 02-06-2009 18:39:47 29.2 C 5.81 g/m*3 29.2 C 0 km/h
2334 02-06-2009 18:51:47 27.5 C 5.29 g/m*3 27.5 C 0 km/h
2335 02-06-2009 19:03:47 28.6 C 5.62 g/m*3 28.6 C 0 km/h
2336 02-06-2009 19:15:46 28.2 C 5.5 g/m*3 28.2 C 0 km/h
2337 02-06-2009 19:27:46 28.1 C 5.47 g/m*3 28.1 C 0 km/h
2338 02-06-2009 19:39:47 27.4 C 5.26 g/m*3 27.4 C 0 km/h
2339 02-06-2009 19:51:46 27.9 C 5.68 g/m*3 27.9 C 0 km/h
2340 02-06-2009 20:03:46 27.6 C 5.59 g/m*3 27.6 C 0 km/h
2341 02-06-2009 20:15:46 27.3 C 5.49 g/m*3 27.3 C 0 km/h
2342 02-06-2009 20:27:46 26.4 C 5.73 g/m*3 26.4 C 0 km/h
2343 02-06-2009 20:39:46 25.3 C 5.85 g/m*3 25.3 C 0 km/h
2344 02-06-2009 20:51:46 24.2 C 5.72 g/m*3 24.2 C 0 km/h
2345 02-06-2009 21:03:45 23.9 C 5.62 g/m*3 23.9 C 0 km/h
2346 02-06-2009 21:15:46 23.3 C 5.23 g/m*3 23.3 C 0 km/h
2347 02-06-2009 21:27:46 22.7 C 5.46 g/m*3 22.7 C 0 km/h
2348 02-06-2009 21:39:45 22.4 C 5.56 g/m*3 22.4 C 0 km/h
2349 02-06-2009 21:51:13 22.1 C 5.47 g/m*3 22.1 C 0 km/h
2350 02-06-2009 22:03:13 21.7 C 5.72 g/m*3 21.7 C 0 km/h
Sensor: Nr:Datum:Temp:Abs-Feuchte:Windchill:Wind:
Aussen-T/F 2351 02-06-2009 22:15:13 21.5 C 5.66 g/m*3 21.5 C 0 km/h
2352 02-06-2009 22:27:13 21.2 C 5.56 g/m*3 21.2 C 0 km/h
2353 02-06-2009 22:39:13 20.9 C 5.83 g/m*3 20.9 C 0 km/h
2354 02-06-2009 22:51:13 20.6 C 5.91 g/m*3 20.6 C 0 km/h
2355 02-06-2009 23:03:13 20.3 C 5.8 g/m*3 20.3 C 0 km/h
2356 02-06-2009 23:15:13 20.2 C 5.77 g/m*3 20.2 C 0 km/h
2357 02-06-2009 23:27:45 19.9 C 5.84 g/m*3 19.9 C 0 km/h
2358 02-06-2009 23:39:45 19.7 C 5.77 g/m*3 19.7 C 0 km/h
2359 02-06-2009 23:51:45 19.9 C 6.01 g/m*3 19.9 C 0 km/h
2360 03-06-2009 00:03:45 19.7 C 5.77 g/m*3 19.7 C 0 km/h
2361 03-06-2009 00:15:45 19.4 C 5.67 g/m*3 19.4 C 0 km/h
2362 03-06-2009 00:27:45 19 C 5.38 g/m*3 19 C 0 km/h
2363 03-06-2009 00:39:44 18.6 C 5.57 g/m*3 18.6 C 0 km/h
2364 03-06-2009 00:51:45 18.2 C 5.44 g/m*3 18.2 C 0 km/h
2365 03-06-2009 01:03:44 17.9 C 5.5 g/m*3 17.9 C 0 km/h
2366 03-06-2009 01:15:44 17.7 C 5.43 g/m*3 17.7 C 0 km/h
2367 03-06-2009 01:27:44 17.3 C 5.3 g/m*3 17.3 C 0 km/h
2368 03-06-2009 01:39:44 17.1 C 5.24 g/m*3 17.1 C 0 km/h
2369 03-06-2009 01:51:44 16.8 C 5.29 g/m*3 16.8 C 0 km/h
2370 03-06-2009 02:03:44 16.4 C 5.16 g/m*3 16.4 C 0 km/h
2371 03-06-2009 02:15:43 16 C 5.18 g/m*3 16 C 0 km/h
2372 03-06-2009 02:27:43 15.7 C 5.22 g/m*3 15.7 C 0 km/h
2373 03-06-2009 02:39:44 15.4 C 5.65 g/m*3 15.4 C 0 km/h
2374 03-06-2009 02:52:45 15.1 C 5.81 g/m*3 15.1 C 0 km/h
2375 03-06-2009 03:04:45 15 C 5.77 g/m*3 15 C 0 km/h
Sensor: Nr:Datum:Temp:Abs-Feuchte:Windchill:Wind:
Aussen-T/F 2376 03-06-2009 03:16:45 14.6 C 5.88 g/m*3 14.6 C 0 km/h
2377 03-06-2009 03:28:45 14.4 C 5.81 g/m*3 14.4 C 0 km/h
2378 03-06-2009 03:40:45 14.2 C 5.74 g/m*3 14.2 C 0 km/h
2379 03-06-2009 03:52:45 13.8 C 5.96 g/m*3 13.8 C 0 km/h
2380 03-06-2009 04:04:45 13.7 C 6.04 g/m*3 13.7 C 0 km/h
2381 03-06-2009 04:16:44 13.6 C 6 g/m*3 13.6 C 0 km/h
2382 03-06-2009 04:28:44 13.5 C 5.97 g/m*3 13.5 C 0 km/h
2383 03-06-2009 04:40:45 13.3 C 6.01 g/m*3 13.3 C 0 km/h
2384 03-06-2009 04:52:44 13.1 C 5.93 g/m*3 13.1 C 0 km/h
2385 03-06-2009 05:04:44 13 C 5.9 g/m*3 13 C 0 km/h
2386 03-06-2009 05:16:44 13 C 5.9 g/m*3 13 C 0 km/h
2387 03-06-2009 05:28:44 12.8 C 5.94 g/m*3 12.8 C 0 km/h
2388 03-06-2009 05:40:44 12.7 C 6.01 g/m*3 12.7 C 0 km/h
2389 03-06-2009 05:52:44 12.7 C 6.01 g/m*3 12.7 C 0 km/h
2390 03-06-2009 06:04:43 12.9 C 6.2 g/m*3 12.9 C 0 km/h
2391 03-06-2009 06:16:43 13 C 6.24 g/m*3 13 C 0 km/h
2392 03-06-2009 06:28:43 13 C 6.24 g/m*3 13 C 0 km/h
2393 03-06-2009 06:40:43 13 C 6.35 g/m*3 13 C 0 km/h
2394 03-06-2009 06:52:43 12.9 C 6.54 g/m*3 12.9 C 0 km/h
2395 03-06-2009 07:04:42 12.8 C 6.27 g/m*3 12.8 C 0 km/h
2396 03-06-2009 07:16:43 12.7 C 6.35 g/m*3 12.7 C 0 km/h
2397 03-06-2009 07:28:43 12.5 C 6.05 g/m*3 12.5 C 0 km/h
2398 03-06-2009 07:40:43 12.8 C 6.16 g/m*3 12.8 C 0 km/h
2399 03-06-2009 07:52:42 12.9 C 6.2 g/m*3 12.9 C 0 km/h
2400 03-06-2009 08:04:43 12.8 C 5.94 g/m*3 12.8 C 0 km/h
Sensor: Nr:Datum:Temp:Abs-Feuchte:Windchill:Wind:
Aussen-T/F 2401 03-06-2009 08:16:42 12.8 C 5.94 g/m*3 12.8 C 0 km/h
2402 03-06-2009 08:28:42 13 C 5.9 g/m*3 13 C 0 km/h
2403 03-06-2009 08:40:42 13 C 5.67 g/m*3 13 C 0 km/h
2404 03-06-2009 08:52:42 13.1 C 5.48 g/m*3 13.1 C 0 km/h
2405 03-06-2009 09:04:42 13.5 C 5.5 g/m*3 13.5 C 0 km/h
2406 03-06-2009 09:16:41 13.9 C 5.39 g/m*3 13.9 C 0 km/h
2407 03-06-2009 09:28:41 13.9 C 5.04 g/m*3 13.9 C 0 km/h
2408 03-06-2009 09:40:41 14.6 C 5.13 g/m*3 14.6 C 0 km/h
2409 03-06-2009 09:52:41 14.7 C 5.67 g/m*3 14.7 C 0 km/h
2410 03-06-2009 10:04:41 14.2 C 5.62 g/m*3 14.2 C 0 km/h
2411 03-06-2009 10:16:41 14.9 C 5.23 g/m*3 14.9 C 0 km/h
2412 03-06-2009 10:28:41 14.6 C 5.63 g/m*3 14.6 C 0 km/h
2413 03-06-2009 10:40:41 15 C 5.39 g/m*3 15 C 0 km/h
2414 03-06-2009 10:52:41 15.4 C 5.26 g/m*3 15.4 C 0 km/h
2415 03-06-2009 11:04:40 14.9 C 5.23 g/m*3 14.9 C 0 km/h
2416 03-06-2009 11:16:41 15.2 C 5.19 g/m*3 15.2 C 0 km/h
2417 03-06-2009 11:28:41 16 C 5.31 g/m*3 16 C 0 km/h
2418 03-06-2009 11:40:40 16.8 C 5.43 g/m*3 16.8 C 0 km/h
2419 03-06-2009 11:52:40 17 C 5.21 g/m*3 17 C 0 km/h
2420 03-06-2009 12:04:40 16.7 C 4.97 g/m*3 16.7 C 0 km/h
2421 03-06-2009 12:16:40 16.8 C 4.86 g/m*3 16.8 C 0 km/h
2422 03-06-2009 12:28:40 17.7 C 4.98 g/m*3 17.7 C 0 km/h
2423 03-06-2009 12:40:39 17.9 C 4.73 g/m*3 17.9 C 0 km/h
2424 03-06-2009 12:52:40 18.8 C 4.83 g/m*3 18.8 C 0 km/h
2425 03-06-2009 13:04:40 17.3 C 4.42 g/m*3 17.3 C 0 km/h
Sensor: Nr:Datum:Temp:Abs-Feuchte:Windchill:Wind:
Aussen-T/F 2426 03-06-2009 13:16:39 18.2 C 4.66 g/m*3 18.2 C 0 km/h
2427 03-06-2009 13:28:39 19.5 C 4.53 g/m*3 19.5 C 0 km/h
2428 03-06-2009 13:40:39 18.4 C 4.09 g/m*3 18.4 C 0 km/h
2429 03-06-2009 13:52:39 19.8 C 4.27 g/m*3 19.8 C 0 km/h
2430 03-06-2009 14:04:39 19.3 C 4.15 g/m*3 19.3 C 0 km/h
2431 03-06-2009 14:16:38 20.1 C 4.35 g/m*3 20.1 C 0 km/h
2432 03-06-2009 14:28:38 19.3 C 4.31 g/m*3 19.3 C 0 km/h
2433 03-06-2009 14:40:39 19.1 C 4.43 g/m*3 19.1 C 0 km/h
2434 03-06-2009 14:52:38 19.7 C 4.92 g/m*3 19.7 C 0 km/h
2435 03-06-2009 15:04:38 20.5 C 4.45 g/m*3 20.5 C 0 km/h
2436 03-06-2009 15:16:39 20 C 4.67 g/m*3 20 C 0 km/h
2437 03-06-2009 15:28:39 20.8 C 4.53 g/m*3 20.8 C 0 km/h
2438 03-06-2009 15:40:38 20.4 C 4.6 g/m*3 20.4 C 0 km/h
2439 03-06-2009 15:52:37 20.9 C 4.55 g/m*3 20.9 C 0 km/h
2440 03-06-2009 16:04:38 20.1 C 4.52 g/m*3 20.1 C 0 km/h
2441 03-06-2009 16:16:38 20.4 C 4.42 g/m*3 20.4 C 0 km/h
2442 03-06-2009 16:28:38 20.2 C 4.55 g/m*3 20.2 C 0 km/h
2443 03-06-2009 16:40:37 20.3 C 4.75 g/m*3 20.3 C 0 km/h
2444 03-06-2009 16:52:38 20 C 4.32 g/m*3 20 C 0 km/h
2445 03-06-2009 17:04:37 20.3 C 4.57 g/m*3 20.3 C 0 km/h
2446 03-06-2009 17:16:37 20.6 C 4.65 g/m*3 20.6 C 0 km/h
2447 03-06-2009 17:28:37 20.7 C 4.32 g/m*3 20.7 C 0 km/h
2448 03-06-2009 17:40:36 19.4 C 4.34 g/m*3 19.4 C 0 km/h
2449 03-06-2009 17:52:37 20.6 C 4.12 g/m*3 20.6 C 0 km/h
2450 03-06-2009 18:04:36 19.2 C 3.79 g/m*3 19.2 C 0 km/h
Sensor: Nr:Datum:Temp:Abs-Feuchte:Windchill:Wind:
Aussen-T/F 2451 03-06-2009 18:16:36 20.3 C 4.05 g/m*3 20.3 C 0 km/h
2452 03-06-2009 18:28:36 19.3 C 3.98 g/m*3 19.3 C 0 km/h
2453 03-06-2009 18:40:37 20 C 4.32 g/m*3 20 C 0 km/h
2454 03-06-2009 18:52:36 19 C 4.24 g/m*3 19 C 0 km/h
2455 03-06-2009 19:04:36 19.1 C 4.26 g/m*3 19.1 C 0 km/h
2456 03-06-2009 19:16:36 18.8 C 4.51 g/m*3 18.8 C 0 km/h
2457 03-06-2009 19:28:36 18.1 C 4.64 g/m*3 18.1 C 0 km/h
2458 03-06-2009 19:40:36 18 C 4.61 g/m*3 18 C 0 km/h
2459 03-06-2009 19:52:36 18 C 4.76 g/m*3 18 C 0 km/h
2460 03-06-2009 20:04:36 17.7 C 4.83 g/m*3 17.7 C 0 km/h
2461 03-06-2009 20:16:36 16.9 C 5.03 g/m*3 16.9 C 0 km/h
2462 03-06-2009 20:28:36 16.6 C 5.09 g/m*3 16.6 C 0 km/h
2463 03-06-2009 20:40:35 16.4 C 5.02 g/m*3 16.4 C 0 km/h
2464 03-06-2009 20:52:34 16.5 C 4.91 g/m*3 16.5 C 0 km/h
2465 03-06-2009 21:04:35 16.1 C 4.8 g/m*3 16.1 C 0 km/h
2466 03-06-2009 21:16:35 16 C 4.77 g/m*3 16 C 0 km/h
2467 03-06-2009 21:28:35 15.9 C 4.88 g/m*3 15.9 C 0 km/h
2468 03-06-2009 21:40:34 15.5 C 4.63 g/m*3 15.5 C 0 km/h
2469 03-06-2009 21:52:35 15.4 C 4.73 g/m*3 15.4 C 0 km/h
2470 03-06-2009 22:05:35 15.3 C 4.7 g/m*3 15.3 C 0 km/h
2471 03-06-2009 22:17:35 15.2 C 4.67 g/m*3 15.2 C 0 km/h
2472 03-06-2009 22:29:35 15 C 4.62 g/m*3 15 C 0 km/h
2473 03-06-2009 22:41:35 14.7 C 4.78 g/m*3 14.7 C 0 km/h
2474 03-06-2009 22:53:35 14.9 C 4.84 g/m*3 14.9 C 0 km/h
2475 03-06-2009 23:05:35 14.8 C 4.69 g/m*3 14.8 C 0 km/h
Sensor: Nr:Datum:Temp:Abs-Feuchte:Windchill:Wind:
Aussen-T/F 2476 03-06-2009 23:17:35 14.6 C 4.88 g/m*3 14.6 C 0 km/h
2477 03-06-2009 23:29:36 14.5 C 4.97 g/m*3 14.5 C 0 km/h
2478 03-06-2009 23:41:36 14.2 C 5.01 g/m*3 14.2 C 0 km/h
2479 03-06-2009 23:53:36 14 C 5.07 g/m*3 14 C 0 km/h
2480 04-06-2009 00:05:36 13.7 C 5.21 g/m*3 13.7 C 0 km/h
2481 04-06-2009 00:17:36 13.7 C 5.33 g/m*3 13.7 C 0 km/h
2482 04-06-2009 00:29:36 13.4 C 5.23 g/m*3 13.4 C 0 km/h
2483 04-06-2009 00:41:36 13.1 C 5.14 g/m*3 13.1 C 0 km/h
2484 04-06-2009 00:53:36 13 C 5.22 g/m*3 13 C 0 km/h
2485 04-06-2009 01:05:36 12.7 C 5.34 g/m*3 12.7 C 0 km/h
2486 04-06-2009 01:17:36 12.6 C 5.42 g/m*3 12.6 C 0 km/h
2487 04-06-2009 01:29:36 12.7 C 5.45 g/m*3 12.7 C 0 km/h
2488 04-06-2009 01:41:36 12.6 C 5.42 g/m*3 12.6 C 0 km/h
2489 04-06-2009 01:53:36 12.5 C 5.5 g/m*3 12.5 C 0 km/h
2490 04-06-2009 02:05:36 12.5 C 4.95 g/m*3 12.5 C 0 km/h
2491 04-06-2009 02:17:36 12.4 C 4.7 g/m*3 12.4 C 0 km/h
2492 04-06-2009 02:29:36 12 C 4.48 g/m*3 12 C 0 km/h
2493 04-06-2009 02:41:36 11.9 C 4.45 g/m*3 11.9 C 0 km/h
2494 04-06-2009 02:53:36 11.7 C 4.18 g/m*3 11.7 C 0 km/h
2495 04-06-2009 03:05:36 11.5 C 4.13 g/m*3 11.5 C 0 km/h
2496 04-06-2009 03:17:37 11.2 C 3.95 g/m*3 11.2 C 0 km/h
2497 04-06-2009 03:29:37 11 C 4 g/m*3 11 C 0 km/h
2498 04-06-2009 03:41:37 10.8 C 4.15 g/m*3 10.8 C 0 km/h
2499 04-06-2009 03:53:37 10.9 C 4.28 g/m*3 10.9 C 0 km/h
2500 04-06-2009 04:05:37 10.8 C 4.15 g/m*3 10.8 C 0 km/h
Sensor: Nr:Datum:Temp:Abs-Feuchte:Windchill:Wind:
Aussen-T/F 2501 04-06-2009 04:17:37 10.7 C 4.22 g/m*3 10.7 C 0 km/h
2502 04-06-2009 04:29:37 10.6 C 4.29 g/m*3 10.6 C 0 km/h
2503 04-06-2009 04:41:37 10.6 C 4.39 g/m*3 10.6 C 0 km/h
2504 04-06-2009 04:53:37 10.7 C 4.62 g/m*3 10.7 C 0 km/h
2505 04-06-2009 05:05:37 10.5 C 4.85 g/m*3 10.5 C 0 km/h
2506 04-06-2009 05:17:37 10.5 C 4.95 g/m*3 10.5 C 0 km/h
2507 04-06-2009 05:29:37 10.6 C 5.08 g/m*3 10.6 C 0 km/h
2508 04-06-2009 05:41:37 10.7 C 5.11 g/m*3 10.7 C 0 km/h
2509 04-06-2009 05:53:37 10.7 C 5.01 g/m*3 10.7 C 0 km/h
2510 04-06-2009 06:05:37 10.7 C 5.11 g/m*3 10.7 C 0 km/h
2511 04-06-2009 06:17:37 10.7 C 5.01 g/m*3 10.7 C 0 km/h
2512 04-06-2009 06:29:37 10.5 C 4.75 g/m*3 10.5 C 0 km/h
2513 04-06-2009 06:41:37 10.6 C 4.78 g/m*3 10.6 C 0 km/h
2514 04-06-2009 06:53:35 10.7 C 4.91 g/m*3 10.7 C 0 km/h
2515 04-06-2009 07:05:35 10.7 C 4.91 g/m*3 10.7 C 0 km/h
2516 04-06-2009 07:17:35 11 C 4.8 g/m*3 11 C 0 km/h
2517 04-06-2009 07:29:35 10.8 C 5.04 g/m*3 10.8 C 0 km/h
2518 04-06-2009 07:41:35 10.8 C 5.34 g/m*3 10.8 C 0 km/h
2519 04-06-2009 07:53:35 11 C 5.31 g/m*3 11 C 0 km/h
2520 04-06-2009 08:05:34 11.6 C 5.4 g/m*3 11.6 C 0 km/h
2521 04-06-2009 08:17:34 11.8 C 5.37 g/m*3 11.8 C 0 km/h
2522 04-06-2009 08:29:34 11.9 C 5.3 g/m*3 11.9 C 0 km/h
2523 04-06-2009 08:41:34 12.2 C 5.18 g/m*3 12.2 C 0 km/h
2524 04-06-2009 08:53:34 12.5 C 5.17 g/m*3 12.5 C 0 km/h
2525 04-06-2009 09:05:33 13 C 4.88 g/m*3 13 C 0 km/h
Sensor: Nr:Datum:Temp:Abs-Feuchte:Windchill:Wind:
Aussen-T/F 2526 04-06-2009 09:17:34 12.8 C 4.59 g/m*3 12.8 C 0 km/h
2527 04-06-2009 09:29:34 12.3 C 4.13 g/m*3 12.3 C 0 km/h
2528 04-06-2009 09:41:34 12.7 C 4.23 g/m*3 12.7 C 0 km/h
2529 04-06-2009 09:53:33 12.9 C 4.51 g/m*3 12.9 C 0 km/h
2530 04-06-2009 10:05:34 13 C 4.2 g/m*3 13 C 0 km/h
2531 04-06-2009 10:17:33 13.1 C 4.45 g/m*3 13.1 C 0 km/h
2532 04-06-2009 10:29:33 14.1 C 4.49 g/m*3 14.1 C 0 km/h
2533 04-06-2009 10:41:33 13.5 C 4.33 g/m*3 13.5 C 0 km/h
2534 04-06-2009 10:53:33 13.2 C 4.36 g/m*3 13.2 C 0 km/h
2535 04-06-2009 11:05:33 14 C 4.46 g/m*3 14 C 0 km/h
2536 04-06-2009 11:17:32 14.7 C 4.53 g/m*3 14.7 C 0 km/h
2537 04-06-2009 11:29:32 13.3 C 4.04 g/m*3 13.3 C 0 km/h
2538 04-06-2009 11:41:32 13.1 C 3.99 g/m*3 13.1 C 0 km/h
2539 04-06-2009 11:53:32 13.5 C 4.33 g/m*3 13.5 C 0 km/h
2540 04-06-2009 12:05:32 14.7 C 4.53 g/m*3 14.7 C 0 km/h
2541 04-06-2009 12:17:32 14.5 C 4.35 g/m*3 14.5 C 0 km/h
2542 04-06-2009 12:29:32 14.6 C 4.25 g/m*3 14.6 C 0 km/h
2543 04-06-2009 12:41:32 14.4 C 3.96 g/m*3 14.4 C 0 km/h
2544 04-06-2009 12:53:32 14.7 C 4.28 g/m*3 14.7 C 0 km/h
2545 04-06-2009 13:05:31 14.7 C 4.41 g/m*3 14.7 C 0 km/h
2546 04-06-2009 13:17:32 15.7 C 4.01 g/m*3 15.7 C 0 km/h
2547 04-06-2009 13:29:32 15.6 C 3.72 g/m*3 15.6 C 0 km/h
2548 04-06-2009 13:41:31 14.9 C 3.95 g/m*3 14.9 C 0 km/h
2549 04-06-2009 13:53:31 14.4 C 3.96 g/m*3 14.4 C 0 km/h
2550 04-06-2009 14:05:31 15.1 C 4.13 g/m*3 15.1 C 0 km/h
Sensor: Nr:Datum:Temp:Abs-Feuchte:Windchill:Wind:
Aussen-T/F 2551 04-06-2009 14:17:31 16.2 C 4.14 g/m*3 16.2 C 0 km/h
2552 04-06-2009 14:29:31 15.3 C 3.79 g/m*3 15.3 C 0 km/h
2553 04-06-2009 14:41:31 14.8 C 3.67 g/m*3 14.8 C 0 km/h
2554 04-06-2009 14:53:30 15.8 C 3.9 g/m*3 15.8 C 0 km/h
2555 04-06-2009 15:05:30 16.3 C 4.16 g/m*3 16.3 C 0 km/h
2556 04-06-2009 15:17:30 17.5 C 3.88 g/m*3 17.5 C 0 km/h
2557 04-06-2009 15:29:30 16.1 C 3.56 g/m*3 16.1 C 0 km/h
2558 04-06-2009 15:41:30 15.9 C 3.79 g/m*3 15.9 C 0 km/h
2559 04-06-2009 15:53:30 16.4 C 3.77 g/m*3 16.4 C 0 km/h
2560 04-06-2009 16:05:30 16.3 C 3.75 g/m*3 16.3 C 0 km/h
2561 04-06-2009 16:17:30 16.2 C 3.59 g/m*3 16.2 C 0 km/h
2562 04-06-2009 16:29:30 17.2 C 3.66 g/m*3 17.2 C 0 km/h
2563 04-06-2009 16:41:30 16.5 C 3.51 g/m*3 16.5 C 0 km/h
2564 04-06-2009 16:53:29 16.2 C 3.72 g/m*3 16.2 C 0 km/h
2565 04-06-2009 17:05:29 16.1 C 3.84 g/m*3 16.1 C 0 km/h
2566 04-06-2009 17:17:29 16.4 C 3.91 g/m*3 16.4 C 0 km/h
2567 04-06-2009 17:29:29 15.6 C 3.86 g/m*3 15.6 C 0 km/h
2568 04-06-2009 17:41:29 15.6 C 3.99 g/m*3 15.6 C 0 km/h
2569 04-06-2009 17:53:28 16.2 C 4.14 g/m*3 16.2 C 0 km/h
2570 04-06-2009 18:05:29 16 C 4.09 g/m*3 16 C 0 km/h
2571 04-06-2009 18:17:29 15.8 C 4.17 g/m*3 15.8 C 0 km/h
2572 04-06-2009 18:29:29 16.1 C 4.25 g/m*3 16.1 C 0 km/h
2573 04-06-2009 18:41:29 15.4 C 4.07 g/m*3 15.4 C 0 km/h
2574 04-06-2009 18:53:28 15.7 C 4.28 g/m*3 15.7 C 0 km/h
2575 04-06-2009 19:05:28 15.3 C 4.18 g/m*3 15.3 C 0 km/h
Sensor: Nr:Datum:Temp:Abs-Feuchte:Windchill:Wind:
Aussen-T/F 2576 04-06-2009 19:17:28 15.4 C 4.2 g/m*3 15.4 C 0 km/h
2577 04-06-2009 19:29:28 15.4 C 4.34 g/m*3 15.4 C 0 km/h
2578 04-06-2009 19:41:28 14.7 C 4.41 g/m*3 14.7 C 0 km/h
2579 04-06-2009 19:53:28 15.1 C 4.52 g/m*3 15.1 C 0 km/h
2580 04-06-2009 20:05:28 14.9 C 4.59 g/m*3 14.9 C 0 km/h
2581 04-06-2009 20:17:27 14.9 C 4.59 g/m*3 14.9 C 0 km/h
2582 04-06-2009 20:29:27 14.7 C 4.66 g/m*3 14.7 C 0 km/h
2583 04-06-2009 20:41:27 14.5 C 4.73 g/m*3 14.5 C 0 km/h
2584 04-06-2009 20:53:27 14.1 C 4.61 g/m*3 14.1 C 0 km/h
2585 04-06-2009 21:05:27 14 C 4.7 g/m*3 14 C 0 km/h
2586 04-06-2009 21:17:27 13.8 C 4.77 g/m*3 13.8 C 0 km/h
2587 04-06-2009 21:29:27 13.7 C 4.86 g/m*3 13.7 C 0 km/h
2588 04-06-2009 21:41:27 13.5 C 4.91 g/m*3 13.5 C 0 km/h
2589 04-06-2009 21:53:27 13.5 C 5.03 g/m*3 13.5 C 0 km/h
2590 04-06-2009 22:06:22 13.3 C 4.97 g/m*3 13.3 C 0 km/h
2591 04-06-2009 22:18:22 13.2 C 4.94 g/m*3 13.2 C 0 km/h
2592 04-06-2009 22:30:22 13 C 4.99 g/m*3 13 C 0 km/h
2593 04-06-2009 22:42:22 13 C 4.88 g/m*3 13 C 0 km/h
2594 04-06-2009 22:54:22 12.9 C 4.96 g/m*3 12.9 C 0 km/h
2595 04-06-2009 23:06:22 12.7 C 5.01 g/m*3 12.7 C 0 km/h
2596 04-06-2009 23:18:22 12.4 C 4.92 g/m*3 12.4 C 0 km/h
2597 04-06-2009 23:30:22 12.2 C 4.86 g/m*3 12.2 C 0 km/h
2598 04-06-2009 23:42:22 12.1 C 4.93 g/m*3 12.1 C 0 km/h
2599 04-06-2009 23:54:22 12 C 5.01 g/m*3 12 C 0 km/h
2600 05-06-2009 00:06:22 11.7 C 5.12 g/m*3 11.7 C 0 km/h
Sensor: Nr:Datum:Temp:Abs-Feuchte:Windchill:Wind:
Aussen-T/F 2601 05-06-2009 00:18:22 11.7 C 5.12 g/m*3 11.7 C 0 km/h
2602 05-06-2009 00:30:22 11.6 C 5.09 g/m*3 11.6 C 0 km/h
2603 05-06-2009 00:42:22 11.4 C 4.82 g/m*3 11.4 C 0 km/h
2604 05-06-2009 00:54:22 11.2 C 4.76 g/m*3 11.2 C 0 km/h
2605 05-06-2009 01:06:22 11.2 C 4.66 g/m*3 11.2 C 0 km/h
2606 05-06-2009 01:18:22 11.1 C 4.63 g/m*3 11.1 C 0 km/h
2607 05-06-2009 01:30:22 11 C 4.6 g/m*3 11 C 0 km/h
2608 05-06-2009 01:42:22 10.9 C 4.67 g/m*3 10.9 C 0 km/h
2609 05-06-2009 01:54:23 10.8 C 4.65 g/m*3 10.8 C 0 km/h
2610 05-06-2009 02:06:23 10.7 C 4.71 g/m*3 10.7 C 0 km/h
2611 05-06-2009 02:18:23 10.4 C 4.72 g/m*3 10.4 C 0 km/h
2612 05-06-2009 02:30:23 10 C 4.7 g/m*3 10 C 0 km/h
2613 05-06-2009 02:42:23 9.6 C 4.76 g/m*3 9.6 C 0 km/h
2614 05-06-2009 02:54:23 9.2 C 4.91 g/m*3 9.2 C 0 km/h
2615 05-06-2009 03:06:23 9.2 C 5 g/m*3 9.2 C 0 km/h
2616 05-06-2009 03:18:23 9.3 C 5.03 g/m*3 9.3 C 0 km/h
2617 05-06-2009 03:30:23 9.2 C 5 g/m*3 9.2 C 0 km/h
2618 05-06-2009 03:42:23 9 C 5.11 g/m*3 9 C 0 km/h
2619 05-06-2009 03:54:23 8.6 C 5.16 g/m*3 8.6 C 0 km/h
2620 05-06-2009 04:06:23 8.6 C 5.16 g/m*3 8.6 C 0 km/h
2621 05-06-2009 04:18:23 8.6 C 5.24 g/m*3 8.6 C 0 km/h
2622 05-06-2009 04:30:23 8.5 C 5.21 g/m*3 8.5 C 0 km/h
2623 05-06-2009 04:42:23 8.5 C 5.29 g/m*3 8.5 C 0 km/h
2624 05-06-2009 04:54:23 8.5 C 5.38 g/m*3 8.5 C 0 km/h
2625 05-06-2009 05:06:23 8.4 C 5.34 g/m*3 8.4 C 0 km/h
Sensor: Nr:Datum:Temp:Abs-Feuchte:Windchill:Wind:
Aussen-T/F 2626 05-06-2009 05:18:23 8.1 C 5.33 g/m*3 8.1 C 0 km/h
2627 05-06-2009 05:30:23 8.2 C 5.44 g/m*3 8.2 C 0 km/h
2628 05-06-2009 05:42:23 8.4 C 5.6 g/m*3 8.4 C 0 km/h
2629 05-06-2009 05:54:24 8.5 C 5.64 g/m*3 8.5 C 0 km/h
2630 05-06-2009 06:06:24 8.5 C 5.72 g/m*3 8.5 C 0 km/h
2631 05-06-2009 06:18:24 8.5 C 5.64 g/m*3 8.5 C 0 km/h
2632 05-06-2009 06:30:24 8.5 C 5.72 g/m*3 8.5 C 0 km/h
2633 05-06-2009 06:42:24 8.5 C 5.72 g/m*3 8.5 C 0 km/h
2634 05-06-2009 06:54:24 8.7 C 5.79 g/m*3 8.7 C 0 km/h
2635 05-06-2009 07:06:28 8.8 C 5.83 g/m*3 8.8 C 0 km/h
2636 05-06-2009 07:18:27 8.9 C 5.78 g/m*3 8.9 C 0 km/h
2637 05-06-2009 07:30:28 9.2 C 5.63 g/m*3 9.2 C 0 km/h
2638 05-06-2009 07:42:28 10 C 5.64 g/m*3 10 C 0 km/h
2639 05-06-2009 07:54:27 10.2 C 5.52 g/m*3 10.2 C 0 km/h
2640 05-06-2009 08:06:27 10.5 C 5.63 g/m*3 10.5 C 0 km/h
2641 05-06-2009 08:18:27 10.8 C 5.63 g/m*3 10.8 C 0 km/h
2642 05-06-2009 08:30:27 10.6 C 5.56 g/m*3 10.6 C 0 km/h
2643 05-06-2009 08:42:27 10.2 C 5.61 g/m*3 10.2 C 0 km/h
2644 05-06-2009 08:54:26 10.4 C 5.78 g/m*3 10.4 C 0 km/h
2645 05-06-2009 09:06:27 11.5 C 5.78 g/m*3 11.5 C 0 km/h
2646 05-06-2009 09:18:26 12.3 C 5.43 g/m*3 12.3 C 0 km/h
2647 05-06-2009 09:30:26 12.7 C 5.12 g/m*3 12.7 C 0 km/h
2648 05-06-2009 09:42:26 11.8 C 4.95 g/m*3 11.8 C 0 km/h
2649 05-06-2009 09:54:26 12.1 C 5.25 g/m*3 12.1 C 0 km/h
2650 05-06-2009 10:06:26 12.7 C 5.12 g/m*3 12.7 C 0 km/h
Sensor: Nr:Datum:Temp:Abs-Feuchte:Windchill:Wind:
Aussen-T/F 2651 05-06-2009 10:18:25 13.1 C 5.02 g/m*3 13.1 C 0 km/h
2652 05-06-2009 10:30:26 12.3 C 4.67 g/m*3 12.3 C 0 km/h
2653 05-06-2009 10:42:26 13.3 C 4.97 g/m*3 13.3 C 0 km/h
2654 05-06-2009 10:54:26 12.6 C 4.54 g/m*3 12.6 C 0 km/h
2655 05-06-2009 11:06:25 12.3 C 4.56 g/m*3 12.3 C 0 km/h
2656 05-06-2009 11:18:26 13 C 4.76 g/m*3 13 C 0 km/h
2657 05-06-2009 11:30:25 13.4 C 4.65 g/m*3 13.4 C 0 km/h
2658 05-06-2009 11:42:25 14 C 4.34 g/m*3 14 C 0 km/h
2659 05-06-2009 11:54:25 14.3 C 4.18 g/m*3 14.3 C 0 km/h
2660 05-06-2009 12:06:24 14.6 C 4.38 g/m*3 14.6 C 0 km/h
2661 05-06-2009 12:18:25 15.3 C 4.44 g/m*3 15.3 C 0 km/h
2662 05-06-2009 12:30:25 15.6 C 4.26 g/m*3 15.6 C 0 km/h
2663 05-06-2009 12:42:25 16.1 C 4.25 g/m*3 16.1 C 0 km/h
2664 05-06-2009 12:54:24 16.6 C 4.38 g/m*3 16.6 C 0 km/h
2665 05-06-2009 13:06:25 18.5 C 4.43 g/m*3 18.5 C 0 km/h
2666 05-06-2009 13:18:24 17.7 C 4.22 g/m*3 17.7 C 0 km/h
2667 05-06-2009 13:30:24 17.2 C 4.25 g/m*3 17.2 C 0 km/h
2668 05-06-2009 13:42:25 16.6 C 4.1 g/m*3 16.6 C 0 km/h
2669 05-06-2009 13:54:24 16.2 C 4 g/m*3 16.2 C 0 km/h
2670 05-06-2009 14:06:24 16.5 C 4.07 g/m*3 16.5 C 0 km/h
2671 05-06-2009 14:18:23 16.8 C 4.15 g/m*3 16.8 C 0 km/h
2672 05-06-2009 14:30:23 16.6 C 3.96 g/m*3 16.6 C 0 km/h
2673 05-06-2009 14:42:23 16.2 C 3.86 g/m*3 16.2 C 0 km/h
2674 05-06-2009 14:54:23 16.4 C 4.19 g/m*3 16.4 C 0 km/h
2675 05-06-2009 15:06:23 16.8 C 4.15 g/m*3 16.8 C 0 km/h
Sensor: Nr:Datum:Temp:Abs-Feuchte:Windchill:Wind:
Aussen-T/F 2676 05-06-2009 15:18:23 16.4 C 3.77 g/m*3 16.4 C 0 km/h
2677 05-06-2009 15:30:23 16 C 3.95 g/m*3 16 C 0 km/h
2678 05-06-2009 15:42:23 15.9 C 3.93 g/m*3 15.9 C 0 km/h
2679 05-06-2009 15:54:23 15.6 C 3.72 g/m*3 15.6 C 0 km/h
2680 05-06-2009 16:06:22 16.8 C 3.86 g/m*3 16.8 C 0 km/h
2681 05-06-2009 16:18:22 17.6 C 4.05 g/m*3 17.6 C 0 km/h
2682 05-06-2009 16:30:23 18.4 C 4.09 g/m*3 18.4 C 0 km/h
2683 05-06-2009 16:42:23 18.9 C 4.05 g/m*3 18.9 C 0 km/h
2684 05-06-2009 16:54:22 20.1 C 4 g/m*3 20.1 C 0 km/h
2685 05-06-2009 17:06:21 20 C 3.46 g/m*3 20 C 0 km/h
2686 05-06-2009 17:18:22 18.4 C 3.3 g/m*3 18.4 C 0 km/h
2687 05-06-2009 17:30:22 20.4 C 3.71 g/m*3 20.4 C 0 km/h
2688 05-06-2009 17:42:22 20.7 C 3.6 g/m*3 20.7 C 0 km/h
2689 05-06-2009 17:54:21 22 C 3.88 g/m*3 22 C 0 km/h
2690 05-06-2009 18:06:22 22.9 C 4.09 g/m*3 22.9 C 0 km/h
2691 05-06-2009 18:18:21 22.9 C 4.09 g/m*3 22.9 C 0 km/h
2692 05-06-2009 18:30:21 22.1 C 3.9 g/m*3 22.1 C 0 km/h
2693 05-06-2009 18:42:21 21 C 3.66 g/m*3 21 C 0 km/h
2694 05-06-2009 18:54:21 20.7 C 3.6 g/m*3 20.7 C 0 km/h
2695 05-06-2009 19:06:21 21 C 3.66 g/m*3 21 C 0 km/h
2696 05-06-2009 19:18:20 20.2 C 3.5 g/m*3 20.2 C 0 km/h
2697 05-06-2009 19:30:20 18.5 C 3.48 g/m*3 18.5 C 0 km/h
2698 05-06-2009 19:42:20 17.7 C 3.92 g/m*3 17.7 C 0 km/h
2699 05-06-2009 19:54:20 17.9 C 3.97 g/m*3 17.9 C 0 km/h
2700 05-06-2009 20:06:20 17.7 C 4.07 g/m*3 17.7 C 0 km/h
Sensor: Nr:Datum:Temp:Abs-Feuchte:Windchill:Wind:
Aussen-T/F 2701 05-06-2009 20:18:20 17.2 C 4.25 g/m*3 17.2 C 0 km/h
2702 05-06-2009 20:30:20 16.9 C 4.6 g/m*3 16.9 C 0 km/h
2703 05-06-2009 20:42:20 16 C 4.63 g/m*3 16 C 0 km/h
2704 05-06-2009 20:54:20 15 C 4.62 g/m*3 15 C 0 km/h
2705 05-06-2009 21:06:20 14.2 C 4.76 g/m*3 14.2 C 0 km/h
2706 05-06-2009 21:18:20 13.4 C 4.77 g/m*3 13.4 C 0 km/h
2707 05-06-2009 21:30:19 13 C 4.65 g/m*3 13 C 0 km/h
2708 05-06-2009 21:42:19 12.7 C 4.9 g/m*3 12.7 C 0 km/h
2709 05-06-2009 21:54:20 12.2 C 4.86 g/m*3 12.2 C 0 km/h
2710 05-06-2009 22:06:19 11.9 C 4.87 g/m*3 11.9 C 0 km/h
2711 05-06-2009 22:18:19 11.8 C 5.05 g/m*3 11.8 C 0 km/h
2712 05-06-2009 22:31:19 11.4 C 5.03 g/m*3 11.4 C 0 km/h
2713 05-06-2009 22:43:19 11.1 C 5.04 g/m*3 11.1 C 0 km/h
2714 05-06-2009 22:55:19 11 C 5.1 g/m*3 11 C 0 km/h
2715 05-06-2009 23:07:19 10.8 C 5.14 g/m*3 10.8 C 0 km/h
2716 05-06-2009 23:19:19 10.5 C 5.14 g/m*3 10.5 C 0 km/h
2717 05-06-2009 23:31:19 10.4 C 5.2 g/m*3 10.4 C 0 km/h
2718 05-06-2009 23:43:19 10.1 C 5.2 g/m*3 10.1 C 0 km/h
2719 05-06-2009 23:55:20 10 C 5.17 g/m*3 10 C 0 km/h
2720 06-06-2009 00:07:20 9.8 C 5.29 g/m*3 9.8 C 0 km/h
2721 06-06-2009 00:19:20 9.7 C 5.35 g/m*3 9.7 C 0 km/h
2722 06-06-2009 00:31:20 9.5 C 5.37 g/m*3 9.5 C 0 km/h
2723 06-06-2009 00:43:20 9.1 C 5.32 g/m*3 9.1 C 0 km/h
2724 06-06-2009 00:55:20 8.9 C 5.43 g/m*3 8.9 C 0 km/h
2725 06-06-2009 01:07:20 8.8 C 5.4 g/m*3 8.8 C 0 km/h
Sensor: Nr:Datum:Temp:Abs-Feuchte:Windchill:Wind:
Aussen-T/F 2726 06-06-2009 01:19:20 8.6 C 5.33 g/m*3 8.6 C 0 km/h
2727 06-06-2009 01:31:20 8.6 C 5.41 g/m*3 8.6 C 0 km/h
2728 06-06-2009 01:43:20 8.5 C 5.55 g/m*3 8.5 C 0 km/h
2729 06-06-2009 01:55:20 8.3 C 5.48 g/m*3 8.3 C 0 km/h
2730 06-06-2009 02:07:20 8.2 C 5.53 g/m*3 8.2 C 0 km/h
2731 06-06-2009 02:19:20 8.1 C 5.49 g/m*3 8.1 C 0 km/h
2732 06-06-2009 02:31:20 8.1 C 5.57 g/m*3 8.1 C 0 km/h
2733 06-06-2009 02:43:20 8.1 C 5.66 g/m*3 8.1 C 0 km/h
2734 06-06-2009 02:55:20 8.1 C 5.66 g/m*3 8.1 C 0 km/h
2735 06-06-2009 03:07:20 8 C 5.79 g/m*3 8 C 0 km/h
2736 06-06-2009 03:19:20 7.8 C 5.79 g/m*3 7.8 C 0 km/h
2737 06-06-2009 03:31:20 7.6 C 5.8 g/m*3 7.6 C 0 km/h
2738 06-06-2009 03:43:20 7.5 C 5.84 g/m*3 7.5 C 0 km/h
2739 06-06-2009 03:55:20 7.4 C 5.81 g/m*3 7.4 C 0 km/h
2740 06-06-2009 04:07:21 7.4 C 5.81 g/m*3 7.4 C 0 km/h
2741 06-06-2009 04:19:21 7.4 C 5.81 g/m*3 7.4 C 0 km/h
2742 06-06-2009 04:31:21 7.3 C 5.85 g/m*3 7.3 C 0 km/h
2743 06-06-2009 04:43:21 7.1 C 5.77 g/m*3 7.1 C 0 km/h
2744 06-06-2009 04:55:21 7.2 C 5.89 g/m*3 7.2 C 0 km/h
2745 06-06-2009 05:07:21 7.4 C 5.96 g/m*3 7.4 C 0 km/h
2746 06-06-2009 05:19:21 7.6 C 6.04 g/m*3 7.6 C 0 km/h
2747 06-06-2009 05:31:21 7.8 C 6.04 g/m*3 7.8 C 0 km/h
2748 06-06-2009 05:43:21 8 C 6.04 g/m*3 8 C 0 km/h
2749 06-06-2009 05:55:21 8.1 C 6.07 g/m*3 8.1 C 0 km/h
2750 06-06-2009 06:07:21 8.2 C 6.11 g/m*3 8.2 C 0 km/h
Sensor: Nr:Datum:Temp:Abs-Feuchte:Windchill:Wind:
Aussen-T/F 2751 06-06-2009 06:19:21 8.4 C 6.19 g/m*3 8.4 C 0 km/h
2752 06-06-2009 06:31:21 8.7 C 6.23 g/m*3 8.7 C 0 km/h
2753 06-06-2009 06:43:21 8.7 C 6.05 g/m*3 8.7 C 0 km/h
2754 06-06-2009 06:55:21 8.9 C 6.13 g/m*3 8.9 C 0 km/h
2755 06-06-2009 07:07:21 8.9 C 6.13 g/m*3 8.9 C 0 km/h
2756 06-06-2009 07:19:21 8.9 C 6.13 g/m*3 8.9 C 0 km/h
2757 06-06-2009 07:31:21 8.6 C 6.27 g/m*3 8.6 C 0 km/h
2758 06-06-2009 07:43:21 8.6 C 6.44 g/m*3 8.6 C 0 km/h
2759 06-06-2009 07:55:21 8.6 C 6.62 g/m*3 8.6 C 0 km/h
2760 06-06-2009 08:07:22 8.6 C 6.79 g/m*3 8.6 C 0 km/h
2761 06-06-2009 08:19:22 8.6 C 6.96 g/m*3 8.6 C 0 km/h
2762 06-06-2009 08:31:22 8.3 C 7.08 g/m*3 8.3 C 0 km/h
2763 06-06-2009 08:43:22 8.3 C 7.33 g/m*3 8.3 C 0 km/h
2764 06-06-2009 08:55:22 8.2 C 7.37 g/m*3 8.2 C 0 km/h
2765 06-06-2009 09:07:19 8.5 C 7.6 g/m*3 8.5 C 0 km/h
2766 06-06-2009 09:19:19 8.4 C 7.63 g/m*3 8.4 C 0 km/h
2767 06-06-2009 09:31:20 8.7 C 7.78 g/m*3 8.7 C 0 km/h
2768 06-06-2009 09:43:20 8.7 C 7.87 g/m*3 8.7 C 0 km/h
2769 06-06-2009 09:55:19 8.9 C 7.97 g/m*3 8.9 C 0 km/h
2770 06-06-2009 10:07:19 9.1 C 7.99 g/m*3 9.1 C 0 km/h
2771 06-06-2009 10:19:19 9.1 C 7.99 g/m*3 9.1 C 0 km/h
2772 06-06-2009 10:31:19 8.9 C 7.97 g/m*3 8.9 C 0 km/h
2773 06-06-2009 10:43:19 9 C 7.93 g/m*3 9 C 0 km/h
2774 06-06-2009 10:55:18 9 C 7.93 g/m*3 9 C 0 km/h
2775 06-06-2009 11:07:19 9 C 7.93 g/m*3 9 C 0 km/h
Sensor: Nr:Datum:Temp:Abs-Feuchte:Windchill:Wind:
Aussen-T/F 2776 06-06-2009 11:19:18 9 C 7.93 g/m*3 9 C 0 km/h
2777 06-06-2009 11:31:18 9.2 C 8.13 g/m*3 9.2 C 0 km/h
2778 06-06-2009 11:43:18 9.2 C 8.13 g/m*3 9.2 C 0 km/h
2779 06-06-2009 11:55:18 9 C 8.02 g/m*3 9 C 0 km/h
2780 06-06-2009 12:07:17 9.2 C 8.13 g/m*3 9.2 C 0 km/h
2781 06-06-2009 12:19:18 9.4 C 8.32 g/m*3 9.4 C 0 km/h
2782 06-06-2009 12:31:18 9.3 C 8.27 g/m*3 9.3 C 0 km/h
2783 06-06-2009 12:43:18 9.3 C 8.27 g/m*3 9.3 C 0 km/h
2784 06-06-2009 12:55:17 9.5 C 8.37 g/m*3 9.5 C 0 km/h
2785 06-06-2009 13:07:18 9.6 C 8.43 g/m*3 9.6 C 0 km/h
2786 06-06-2009 13:19:17 9.7 C 8.48 g/m*3 9.7 C 0 km/h
2787 06-06-2009 13:31:17 9.7 C 8.57 g/m*3 9.7 C 0 km/h
2788 06-06-2009 13:43:17 9.7 C 8.57 g/m*3 9.7 C 0 km/h
2789 06-06-2009 13:55:17 9.6 C 8.52 g/m*3 9.6 C 0 km/h
2790 06-06-2009 14:07:17 9.8 C 8.63 g/m*3 9.8 C 0 km/h
2791 06-06-2009 14:19:16 9.8 C 8.63 g/m*3 9.8 C 0 km/h
2792 06-06-2009 14:31:16 9.8 C 8.63 g/m*3 9.8 C 0 km/h
2793 06-06-2009 14:43:16 9.6 C 8.43 g/m*3 9.6 C 0 km/h
2794 06-06-2009 14:55:16 9.5 C 8.37 g/m*3 9.5 C 0 km/h
2795 06-06-2009 15:07:16 9.5 C 8.37 g/m*3 9.5 C 0 km/h
2796 06-06-2009 15:19:15 9.4 C 8.32 g/m*3 9.4 C 0 km/h
2797 06-06-2009 15:31:16 9.5 C 8.37 g/m*3 9.5 C 0 km/h
2798 06-06-2009 15:43:16 9.7 C 8.57 g/m*3 9.7 C 0 km/h
2799 06-06-2009 15:55:15 9.8 C 8.63 g/m*3 9.8 C 0 km/h
2800 06-06-2009 16:07:15 10.1 C 8.7 g/m*3 10.1 C 0 km/h
Sensor: Nr:Datum:Temp:Abs-Feuchte:Windchill:Wind:
Aussen-T/F 2801 06-06-2009 16:19:16 10.1 C 8.7 g/m*3 10.1 C 0 km/h
2802 06-06-2009 16:31:15 9.9 C 8.68 g/m*3 9.9 C 0 km/h
2803 06-06-2009 16:43:15 10 C 8.64 g/m*3 10 C 0 km/h
2804 06-06-2009 16:55:15 9.9 C 8.68 g/m*3 9.9 C 0 km/h
2805 06-06-2009 17:07:15 9.9 C 8.59 g/m*3 9.9 C 0 km/h
2806 06-06-2009 17:19:15 9.9 C 8.59 g/m*3 9.9 C 0 km/h
2807 06-06-2009 17:31:14 10.1 C 8.61 g/m*3 10.1 C 0 km/h
2808 06-06-2009 17:43:14 10.3 C 8.71 g/m*3 10.3 C 0 km/h
2809 06-06-2009 17:55:15 10.4 C 8.67 g/m*3 10.4 C 0 km/h
2810 06-06-2009 18:07:14 10.5 C 8.73 g/m*3 10.5 C 0 km/h
2811 06-06-2009 18:19:14 10.9 C 8.95 g/m*3 10.9 C 0 km/h
2812 06-06-2009 18:31:02 10.7 C 8.64 g/m*3 10.7 C 0 km/h
2813 06-06-2009 18:43:02 10.8 C 8.7 g/m*3 10.8 C 0 km/h
2814 06-06-2009 18:55:01 10.7 C 8.45 g/m*3 10.7 C 0 km/h
2815 06-06-2009 19:07:02 10.8 C 8.5 g/m*3 10.8 C 0 km/h
2816 06-06-2009 19:19:01 10.9 C 8.45 g/m*3 10.9 C 0 km/h
2817 06-06-2009 19:31:01 11.1 C 8.56 g/m*3 11.1 C 0 km/h
2818 06-06-2009 19:43:01 11 C 8.51 g/m*3 11 C 0 km/h
2819 06-06-2009 19:55:01 10.9 C 8.65 g/m*3 10.9 C 0 km/h
2820 06-06-2009 20:07:01 10.5 C 8.34 g/m*3 10.5 C 0 km/h
2821 06-06-2009 20:19:00 10.4 C 8.29 g/m*3 10.4 C 0 km/h
2822 06-06-2009 20:31:00 10.4 C 8.38 g/m*3 10.4 C 0 km/h
2823 06-06-2009 20:43:00 10.4 C 8.38 g/m*3 10.4 C 0 km/h
2824 06-06-2009 20:55:00 10.3 C 8.33 g/m*3 10.3 C 0 km/h
2825 06-06-2009 21:07:00 10.3 C 8.43 g/m*3 10.3 C 0 km/h
Sensor: Nr:Datum:Temp:Abs-Feuchte:Windchill:Wind:
Aussen-T/F 2826 06-06-2009 21:18:59 10.2 C 8.37 g/m*3 10.2 C 0 km/h
2827 06-06-2009 21:31:00 10.2 C 8.37 g/m*3 10.2 C 0 km/h
2828 06-06-2009 21:43:00 10.1 C 8.32 g/m*3 10.1 C 0 km/h
2829 06-06-2009 21:55:59 9.8 C 8.26 g/m*3 9.8 C 0 km/h
2830 06-06-2009 22:07:59 9.5 C 8.1 g/m*3 9.5 C 0 km/h
2831 06-06-2009 22:19:00 9.4 C 8.14 g/m*3 9.4 C 0 km/h
2832 06-06-2009 22:31:59 9.4 C 8.23 g/m*3 9.4 C 0 km/h
2833 06-06-2009 22:43:59 9.5 C 8.28 g/m*3 9.5 C 0 km/h
2834 06-06-2009 22:55:59 9.6 C 8.43 g/m*3 9.6 C 0 km/h
2835 06-06-2009 23:07:59 9.5 C 8.37 g/m*3 9.5 C 0 km/h
2836 06-06-2009 23:19:59 9.5 C 8.37 g/m*3 9.5 C 0 km/h
2837 06-06-2009 23:31:58 9.2 C 8.13 g/m*3 9.2 C 0 km/h
2838 06-06-2009 23:43:58 8.8 C 8.01 g/m*3 8.8 C 0 km/h
2839 06-06-2009 23:55:59 8.5 C 7.85 g/m*3 8.5 C 0 km/h
2840 07-06-2009 00:07:59 8.5 C 7.85 g/m*3 8.5 C 0 km/h
2841 07-06-2009 00:19:59 8.3 C 7.75 g/m*3 8.3 C 0 km/h
2842 07-06-2009 00:31:58 8.1 C 7.66 g/m*3 8.1 C 0 km/h
2843 07-06-2009 00:43:58 7.9 C 7.64 g/m*3 7.9 C 0 km/h
2844 07-06-2009 00:55:58 8 C 7.61 g/m*3 8 C 0 km/h
2845 07-06-2009 01:07:57 8 C 7.69 g/m*3 8 C 0 km/h
2846 07-06-2009 01:19:58 8 C 7.69 g/m*3 8 C 0 km/h
2847 07-06-2009 01:31:58 7.9 C 7.72 g/m*3 7.9 C 0 km/h
2848 07-06-2009 01:43:58 7.9 C 7.72 g/m*3 7.9 C 0 km/h
2849 07-06-2009 01:55:57 8.1 C 7.74 g/m*3 8.1 C 0 km/h
2850 07-06-2009 02:07:58 8.2 C 7.87 g/m*3 8.2 C 0 km/h
Sensor: Nr:Datum:Temp:Abs-Feuchte:Windchill:Wind:
Aussen-T/F 2851 07-06-2009 02:19:57 8.4 C 7.97 g/m*3 8.4 C 0 km/h
2852 07-06-2009 02:31:57 8.4 C 7.97 g/m*3 8.4 C 0 km/h
2853 07-06-2009 02:43:57 8.4 C 7.97 g/m*3 8.4 C 0 km/h
2854 07-06-2009 02:56:59 8.4 C 7.97 g/m*3 8.4 C 0 km/h
2855 07-06-2009 03:08:59 8.5 C 8.11 g/m*3 8.5 C 0 km/h
2856 07-06-2009 03:20:59 8.5 C 8.11 g/m*3 8.5 C 0 km/h
2857 07-06-2009 03:32:58 8.5 C 8.11 g/m*3 8.5 C 0 km/h
2858 07-06-2009 03:44:58 8.4 C 8.06 g/m*3 8.4 C 0 km/h
2859 07-06-2009 03:56:58 8.4 C 8.06 g/m*3 8.4 C 0 km/h
2860 07-06-2009 04:08:58 8.5 C 8.11 g/m*3 8.5 C 0 km/h
2861 07-06-2009 04:20:58 8.5 C 8.11 g/m*3 8.5 C 0 km/h
2862 07-06-2009 04:32:58 8.5 C 8.11 g/m*3 8.5 C 0 km/h
2863 07-06-2009 04:44:57 8.5 C 8.11 g/m*3 8.5 C 0 km/h
2864 07-06-2009 04:56:57 8.5 C 8.11 g/m*3 8.5 C 0 km/h
2865 07-06-2009 05:08:58 8.6 C 8.16 g/m*3 8.6 C 0 km/h
2866 07-06-2009 05:20:58 8.6 C 8.16 g/m*3 8.6 C 0 km/h
2867 07-06-2009 05:32:57 8.6 C 8.16 g/m*3 8.6 C 0 km/h
2868 07-06-2009 05:44:57 8.7 C 8.22 g/m*3 8.7 C 0 km/h
2869 07-06-2009 05:56:57 8.8 C 8.27 g/m*3 8.8 C 0 km/h
2870 07-06-2009 06:08:57 8.9 C 8.32 g/m*3 8.9 C 0 km/h
2871 07-06-2009 06:20:57 9.1 C 8.34 g/m*3 9.1 C 0 km/h
2872 07-06-2009 06:32:57 9.3 C 8.45 g/m*3 9.3 C 0 km/h
2873 07-06-2009 06:44:57 9.5 C 8.56 g/m*3 9.5 C 0 km/h
2874 07-06-2009 06:56:57 9.5 C 8.56 g/m*3 9.5 C 0 km/h
2875 07-06-2009 07:08:57 9.6 C 8.61 g/m*3 9.6 C 0 km/h
Sensor: Nr:Datum:Temp:Abs-Feuchte:Windchill:Wind:
Aussen-T/F 2876 07-06-2009 07:20:56 10 C 8.74 g/m*3 10 C 0 km/h
2877 07-06-2009 07:32:57 10.2 C 8.76 g/m*3 10.2 C 0 km/h
2878 07-06-2009 07:44:01 10.3 C 8.43 g/m*3 10.3 C 0 km/h
2879 07-06-2009 07:56:01 10.7 C 8.45 g/m*3 10.7 C 0 km/h
2880 07-06-2009 08:08:01 11 C 8.01 g/m*3 11 C 0 km/h
2881 07-06-2009 08:20:01 11.4 C 8.01 g/m*3 11.4 C 0 km/h
2882 07-06-2009 08:32:01 11.7 C 7.84 g/m*3 11.7 C 0 km/h
2883 07-06-2009 08:44:01 11.9 C 7.52 g/m*3 11.9 C 0 km/h
2884 07-06-2009 08:56:01 12.4 C 7.32 g/m*3 12.4 C 0 km/h
2885 07-06-2009 09:08:01 13.1 C 7.42 g/m*3 13.1 C 0 km/h
2886 07-06-2009 09:20:01 13.6 C 7.3 g/m*3 13.6 C 0 km/h
2887 07-06-2009 09:32:00 14 C 7.48 g/m*3 14 C 0 km/h
2888 07-06-2009 09:44:00 14.1 C 7.52 g/m*3 14.1 C 0 km/h
2889 07-06-2009 09:56:00 14.3 C 7.62 g/m*3 14.3 C 0 km/h
2890 07-06-2009 10:08:00 14.4 C 7.42 g/m*3 14.4 C 0 km/h
2891 07-06-2009 10:20:59 14.9 C 7.77 g/m*3 14.9 C 0 km/h
2892 07-06-2009 10:32:00 15.5 C 7.93 g/m*3 15.5 C 0 km/h
2893 07-06-2009 10:44:00 15.9 C 7.72 g/m*3 15.9 C 0 km/h
2894 07-06-2009 10:56:59 16.4 C 7.54 g/m*3 16.4 C 0 km/h
2895 07-06-2009 11:08:59 16.9 C 7.91 g/m*3 16.9 C 0 km/h
2896 07-06-2009 11:20:00 17.2 C 7.91 g/m*3 17.2 C 0 km/h
2897 07-06-2009 11:32:59 17 C 7.81 g/m*3 17 C 0 km/h
2898 07-06-2009 11:44:59 16.1 C 7.81 g/m*3 16.1 C 0 km/h
2899 07-06-2009 11:56:59 17.5 C 7.9 g/m*3 17.5 C 0 km/h
2900 07-06-2009 12:08:59 17.1 C 7.42 g/m*3 17.1 C 0 km/h
Sensor: Nr:Datum:Temp:Abs-Feuchte:Windchill:Wind:
Aussen-T/F 2901 07-06-2009 12:20:59 17.7 C 7.69 g/m*3 17.7 C 0 km/h
2902 07-06-2009 12:32:59 17.3 C 7.81 g/m*3 17.3 C 0 km/h
2903 07-06-2009 12:44:58 17.1 C 8.3 g/m*3 17.1 C 0 km/h
2904 07-06-2009 12:56:58 16.8 C 8.86 g/m*3 16.8 C 0 km/h
2905 07-06-2009 13:08:59 16.6 C 8.48 g/m*3 16.6 C 0 km/h
2906 07-06-2009 13:20:59 16.4 C 8.79 g/m*3 16.4 C 0 km/h
2907 07-06-2009 13:32:59 17.4 C 8.89 g/m*3 17.4 C 0 km/h
2908 07-06-2009 13:44:58 19.3 C 8.13 g/m*3 19.3 C 0 km/h
2909 07-06-2009 13:56:58 19.2 C 7.91 g/m*3 19.2 C 0 km/h
2910 07-06-2009 14:08:57 19.4 C 8.34 g/m*3 19.4 C 0 km/h
2911 07-06-2009 14:20:58 18.9 C 8.26 g/m*3 18.9 C 0 km/h
2912 07-06-2009 14:32:58 18.9 C 8.42 g/m*3 18.9 C 0 km/h
2913 07-06-2009 14:44:57 18.7 C 8.65 g/m*3 18.7 C 0 km/h
2914 07-06-2009 14:56:57 19.1 C 8.69 g/m*3 19.1 C 0 km/h
2915 07-06-2009 15:08:58 19.1 C 8.36 g/m*3 19.1 C 0 km/h
2916 07-06-2009 15:20:57 17.3 C 8.99 g/m*3 17.3 C 0 km/h
2917 07-06-2009 15:32:58 16 C 10.22 g/m*3 16 C 0 km/h
2918 07-06-2009 15:44:57 15.5 C 10.31 g/m*3 15.5 C 0 km/h
2919 07-06-2009 15:56:57 15.1 C 10.45 g/m*3 15.1 C 0 km/h
2920 07-06-2009 16:08:57 14.8 C 10.64 g/m*3 14.8 C 0 km/h
2921 07-06-2009 16:20:56 15.6 C 11.57 g/m*3 15.6 C 0 km/h
2922 07-06-2009 16:32:57 16 C 11.72 g/m*3 16 C 0 km/h
2923 07-06-2009 16:44:56 16.3 C 11.52 g/m*3 16.3 C 0 km/h
2924 07-06-2009 16:56:56 17.2 C 11.57 g/m*3 17.2 C 0 km/h
2925 07-06-2009 17:08:56 17.6 C 10.8 g/m*3 17.6 C 0 km/h
Sensor: Nr:Datum:Temp:Abs-Feuchte:Windchill:Wind:
Aussen-T/F 2926 07-06-2009 17:20:56 18.9 C 10.85 g/m*3 18.9 C 0 km/h
2927 07-06-2009 17:32:56 19.5 C 10.07 g/m*3 19.5 C 0 km/h
2928 07-06-2009 17:44:56 18.4 C 9.75 g/m*3 18.4 C 0 km/h
2929 07-06-2009 17:56:56 18.3 C 9.85 g/m*3 18.3 C 0 km/h
2930 07-06-2009 18:08:55 18.8 C 9.34 g/m*3 18.8 C 0 km/h
2931 07-06-2009 18:20:56 17.3 C 7.51 g/m*3 17.3 C 0 km/h
2932 07-06-2009 18:32:55 17 C 8.54 g/m*3 17 C 0 km/h
2933 07-06-2009 18:44:55 18 C 8.29 g/m*3 18 C 0 km/h
2934 07-06-2009 18:56:55 19.2 C 7.75 g/m*3 19.2 C 0 km/h
2935 07-06-2009 19:08:55 20.4 C 7.61 g/m*3 20.4 C 0 km/h
2936 07-06-2009 19:20:55 20.4 C 7.25 g/m*3 20.4 C 0 km/h
2937 07-06-2009 19:32:55 20.3 C 7.03 g/m*3 20.3 C 0 km/h
2938 07-06-2009 19:44:55 19.8 C 7.34 g/m*3 19.8 C 0 km/h
2939 07-06-2009 19:56:55 20.3 C 7.39 g/m*3 20.3 C 0 km/h
2940 07-06-2009 20:08:54 20.3 C 7.39 g/m*3 20.3 C 0 km/h
2941 07-06-2009 20:20:55 20 C 7.09 g/m*3 20 C 0 km/h
2942 07-06-2009 20:32:54 18.7 C 6.88 g/m*3 18.7 C 0 km/h
2943 07-06-2009 20:44:54 17.6 C 7.05 g/m*3 17.6 C 0 km/h
2944 07-06-2009 20:56:55 16.6 C 7.06 g/m*3 16.6 C 0 km/h
2945 07-06-2009 21:08:53 16.1 C 6.99 g/m*3 16.1 C 0 km/h
2946 07-06-2009 21:20:54 15.8 C 7.54 g/m*3 15.8 C 0 km/h
2947 07-06-2009 21:32:54 15.2 C 7.79 g/m*3 15.2 C 0 km/h
2948 07-06-2009 21:44:53 14.7 C 7.93 g/m*3 14.7 C 0 km/h
2949 07-06-2009 21:56:53 14.1 C 7.77 g/m*3 14.1 C 0 km/h
2950 07-06-2009 22:09:55 13.5 C 7.37 g/m*3 13.5 C 0 km/h
Sensor: Nr:Datum:Temp:Abs-Feuchte:Windchill:Wind:
Aussen-T/F 2951 07-06-2009 22:21:55 13 C 7.03 g/m*3 13 C 0 km/h
2952 07-06-2009 22:33:55 12.7 C 7.01 g/m*3 12.7 C 0 km/h
2953 07-06-2009 22:45:55 12.5 C 6.93 g/m*3 12.5 C 0 km/h
2954 07-06-2009 22:57:55 12.3 C 6.84 g/m*3 12.3 C 0 km/h
2955 07-06-2009 23:09:55 12 C 6.71 g/m*3 12 C 0 km/h
2956 07-06-2009 23:21:55 11.8 C 6.84 g/m*3 11.8 C 0 km/h
2957 07-06-2009 23:33:55 11.6 C 6.96 g/m*3 11.6 C 0 km/h
2958 07-06-2009 23:45:55 11.5 C 7.02 g/m*3 11.5 C 0 km/h
2959 07-06-2009 23:57:55 11.3 C 7.04 g/m*3 11.3 C 0 km/h
2960 08-06-2009 00:09:55 11.2 C 7.1 g/m*3 11.2 C 0 km/h
2961 08-06-2009 00:21:55 11.3 C 7.14 g/m*3 11.3 C 0 km/h
2962 08-06-2009 00:33:55 10.8 C 7.12 g/m*3 10.8 C 0 km/h
2963 08-06-2009 00:45:55 10.6 C 7.22 g/m*3 10.6 C 0 km/h
2964 08-06-2009 00:57:56 10.7 C 7.17 g/m*3 10.7 C 0 km/h
2965 08-06-2009 01:09:56 10.7 C 7.07 g/m*3 10.7 C 0 km/h
2966 08-06-2009 01:21:56 10.4 C 7.04 g/m*3 10.4 C 0 km/h
2967 08-06-2009 01:33:56 10.1 C 7.09 g/m*3 10.1 C 0 km/h
2968 08-06-2009 01:45:56 10.2 C 6.95 g/m*3 10.2 C 0 km/h
2969 08-06-2009 01:57:56 10.6 C 6.83 g/m*3 10.6 C 0 km/h
2970 08-06-2009 02:09:56 11.4 C 6.57 g/m*3 11.4 C 0 km/h
2971 08-06-2009 02:21:56 11.7 C 6.69 g/m*3 11.7 C 0 km/h
2972 08-06-2009 02:33:56 11.6 C 6.76 g/m*3 11.6 C 0 km/h
2973 08-06-2009 02:45:56 11.6 C 6.76 g/m*3 11.6 C 0 km/h
2974 08-06-2009 02:57:56 11.8 C 6.84 g/m*3 11.8 C 0 km/h
2975 08-06-2009 03:09:56 11 C 7.41 g/m*3 11 C 0 km/h
Sensor: Nr:Datum:Temp:Abs-Feuchte:Windchill:Wind:
Aussen-T/F 2976 08-06-2009 03:21:56 10.9 C 7.76 g/m*3 10.9 C 0 km/h
2977 08-06-2009 03:33:56 11.2 C 7.8 g/m*3 11.2 C 0 km/h
2978 08-06-2009 03:45:56 11.1 C 7.66 g/m*3 11.1 C 0 km/h
2979 08-06-2009 03:57:56 11 C 7.61 g/m*3 11 C 0 km/h
2980 08-06-2009 04:09:56 11.1 C 7.76 g/m*3 11.1 C 0 km/h
2981 08-06-2009 04:21:56 11.1 C 7.76 g/m*3 11.1 C 0 km/h
2982 08-06-2009 04:33:56 11.1 C 7.76 g/m*3 11.1 C 0 km/h
2983 08-06-2009 04:45:56 11.1 C 7.76 g/m*3 11.1 C 0 km/h
2984 08-06-2009 04:57:57 11.1 C 7.86 g/m*3 11.1 C 0 km/h
2985 08-06-2009 05:09:57 11.2 C 7.91 g/m*3 11.2 C 0 km/h
2986 08-06-2009 05:21:57 11.2 C 7.8 g/m*3 11.2 C 0 km/h
2987 08-06-2009 05:33:57 11.2 C 7.91 g/m*3 11.2 C 0 km/h
2988 08-06-2009 05:45:57 11.3 C 7.96 g/m*3 11.3 C 0 km/h
2989 08-06-2009 05:57:57 11.5 C 7.75 g/m*3 11.5 C 0 km/h
2990 08-06-2009 06:09:57 11.5 C 7.85 g/m*3 11.5 C 0 km/h
2991 08-06-2009 06:21:57 11.5 C 7.85 g/m*3 11.5 C 0 km/h
2992 08-06-2009 06:33:57 11.5 C 7.85 g/m*3 11.5 C 0 km/h
2993 08-06-2009 06:45:55 11.5 C 8.06 g/m*3 11.5 C 0 km/h
2994 08-06-2009 06:57:55 11.5 C 7.95 g/m*3 11.5 C 0 km/h
2995 08-06-2009 07:09:54 11.8 C 8 g/m*3 11.8 C 0 km/h
2996 08-06-2009 07:21:54 12 C 7.99 g/m*3 12 C 0 km/h
2997 08-06-2009 07:33:54 12.3 C 8.25 g/m*3 12.3 C 0 km/h
2998 08-06-2009 07:45:54 12.2 C 7.99 g/m*3 12.2 C 0 km/h
2999 08-06-2009 07:57:54 12.3 C 7.82 g/m*3 12.3 C 0 km/h
3000 08-06-2009 08:09:53 12.5 C 7.7 g/m*3 12.5 C 0 km/h
Sensor: Nr:Datum:Temp:Abs-Feuchte:Windchill:Wind:
Aussen-T/F 3001 08-06-2009 08:21:54 12.7 C 7.57 g/m*3 12.7 C 0 km/h
3002 08-06-2009 08:33:54 12.9 C 7.33 g/m*3 12.9 C 0 km/h
3003 08-06-2009 08:45:53 13.2 C 7.46 g/m*3 13.2 C 0 km/h
3004 08-06-2009 08:57:53 13.5 C 7.37 g/m*3 13.5 C 0 km/h
3005 08-06-2009 09:09:53 13.8 C 7.15 g/m*3 13.8 C 0 km/h
3006 08-06-2009 09:21:53 14.1 C 7.04 g/m*3 14.1 C 0 km/h
3007 08-06-2009 09:33:53 14.6 C 6.88 g/m*3 14.6 C 0 km/h
3008 08-06-2009 09:45:53 14.8 C 6.84 g/m*3 14.8 C 0 km/h
3009 08-06-2009 09:57:53 15 C 6.67 g/m*3 15 C 0 km/h
3010 08-06-2009 10:09:53 15.6 C 6.78 g/m*3 15.6 C 0 km/h
3011 08-06-2009 10:21:52 15.9 C 6.37 g/m*3 15.9 C 0 km/h
3012 08-06-2009 10:33:52 16.4 C 6.42 g/m*3 16.4 C 0 km/h
3013 08-06-2009 10:45:52 16.5 C 6.18 g/m*3 16.5 C 0 km/h
3014 08-06-2009 10:57:52 16.6 C 6.07 g/m*3 16.6 C 0 km/h
3015 08-06-2009 11:09:52 17.7 C 6.49 g/m*3 17.7 C 0 km/h
3016 08-06-2009 11:21:51 17.3 C 5.75 g/m*3 17.3 C 0 km/h
3017 08-06-2009 11:33:52 17 C 6.08 g/m*3 17 C 0 km/h
3018 08-06-2009 11:45:51 17.6 C 6.15 g/m*3 17.6 C 0 km/h
3019 08-06-2009 11:57:51 18.1 C 6.03 g/m*3 18.1 C 0 km/h
3020 08-06-2009 12:09:52 17.6 C 6 g/m*3 17.6 C 0 km/h
3021 08-06-2009 12:21:51 20 C 6.22 g/m*3 20 C 0 km/h
3022 08-06-2009 12:33:51 18.6 C 5.89 g/m*3 18.6 C 0 km/h
3023 08-06-2009 12:45:51 20.2 C 6.12 g/m*3 20.2 C 0 km/h
3024 08-06-2009 12:57:51 19.6 C 5.74 g/m*3 19.6 C 0 km/h
3025 08-06-2009 13:09:51 21.6 C 4.74 g/m*3 21.6 C 0 km/h
Sensor: Nr:Datum:Temp:Abs-Feuchte:Windchill:Wind:
Aussen-T/F 3026 08-06-2009 13:21:50 21.5 C 5.47 g/m*3 21.5 C 0 km/h
3027 08-06-2009 13:33:51 20.9 C 5.1 g/m*3 20.9 C 0 km/h
3028 08-06-2009 13:45:51 20.3 C 5.28 g/m*3 20.3 C 0 km/h
3029 08-06-2009 13:57:51 21.4 C 5.06 g/m*3 21.4 C 0 km/h
3030 08-06-2009 14:09:50 21.7 C 4.39 g/m*3 21.7 C 0 km/h
3031 08-06-2009 14:21:50 21.5 C 4.71 g/m*3 21.5 C 0 km/h
3032 08-06-2009 14:33:50 21.9 C 5.02 g/m*3 21.9 C 0 km/h
3033 08-06-2009 14:45:50 21.7 C 4.96 g/m*3 21.7 C 0 km/h
3034 08-06-2009 14:57:50 22.1 C 4.88 g/m*3 22.1 C 0 km/h
3035 08-06-2009 15:09:49 22.9 C 5.11 g/m*3 22.9 C 0 km/h
3036 08-06-2009 15:21:50 23 C 4.32 g/m*3 23 C 0 km/h
3037 08-06-2009 15:33:50 22.7 C 4.24 g/m*3 22.7 C 0 km/h
3038 08-06-2009 15:45:49 23.8 C 4.73 g/m*3 23.8 C 0 km/h
3039 08-06-2009 15:57:49 23.3 C 4.39 g/m*3 23.3 C 0 km/h
3040 08-06-2009 16:09:50 23.7 C 4.49 g/m*3 23.7 C 0 km/h
3041 08-06-2009 16:21:49 24.7 C 4.53 g/m*3 24.7 C 0 km/h
3042 08-06-2009 16:33:49 23.5 C 4.65 g/m*3 23.5 C 0 km/h
3043 08-06-2009 16:45:49 23.2 C 4.57 g/m*3 23.2 C 0 km/h
3044 08-06-2009 16:57:49 23.9 C 4.76 g/m*3 23.9 C 0 km/h
3045 08-06-2009 17:09:49 23.8 C 4.73 g/m*3 23.8 C 0 km/h
3046 08-06-2009 17:21:48 24.4 C 4.9 g/m*3 24.4 C 0 km/h
3047 08-06-2009 17:33:48 24.3 C 5.09 g/m*3 24.3 C 0 km/h
3048 08-06-2009 17:45:48 25.1 C 4.86 g/m*3 25.1 C 0 km/h
3049 08-06-2009 17:57:48 24.1 C 4.81 g/m*3 24.1 C 0 km/h
3050 08-06-2009 18:09:48 23.9 C 5.41 g/m*3 23.9 C 0 km/h
Sensor: Nr:Datum:Temp:Abs-Feuchte:Windchill:Wind:
Aussen-T/F 3051 08-06-2009 18:21:48 23.7 C 5.99 g/m*3 23.7 C 0 km/h
3052 08-06-2009 18:33:48 23.5 C 6.77 g/m*3 23.5 C 0 km/h
3053 08-06-2009 18:45:48 22.8 C 7.32 g/m*3 22.8 C 0 km/h
3054 08-06-2009 18:57:48 22.1 C 7.42 g/m*3 22.1 C 0 km/h
3055 08-06-2009 19:09:47 21.6 C 7.59 g/m*3 21.6 C 0 km/h
3056 08-06-2009 19:21:48 21 C 7.14 g/m*3 21 C 0 km/h
3057 08-06-2009 19:33:47 20.8 C 7.6 g/m*3 20.8 C 0 km/h
3058 08-06-2009 19:45:47 20.6 C 7.52 g/m*3 20.6 C 0 km/h
3059 08-06-2009 19:57:48 20.4 C 7.61 g/m*3 20.4 C 0 km/h
3060 08-06-2009 20:09:47 20.1 C 7.82 g/m*3 20.1 C 0 km/h
3061 08-06-2009 20:21:47 19.8 C 8.03 g/m*3 19.8 C 0 km/h
3062 08-06-2009 20:33:47 19.3 C 7.96 g/m*3 19.3 C 0 km/h
3063 08-06-2009 20:45:47 18.8 C 8.05 g/m*3 18.8 C 0 km/h
3064 08-06-2009 20:57:47 18.5 C 7.91 g/m*3 18.5 C 0 km/h
3065 08-06-2009 21:09:47 18.2 C 7.77 g/m*3 18.2 C 0 km/h
3066 08-06-2009 21:21:46 17.9 C 7.79 g/m*3 17.9 C 0 km/h
3067 08-06-2009 21:33:46 17.6 C 8.1 g/m*3 17.6 C 0 km/h
3068 08-06-2009 21:45:46 16.7 C 8.67 g/m*3 16.7 C 0 km/h
3069 08-06-2009 21:57:46 16.6 C 8.9 g/m*3 16.6 C 0 km/h
3070 08-06-2009 22:09:46 16.4 C 8.79 g/m*3 16.4 C 0 km/h
3071 08-06-2009 22:21:46 16.6 C 8.76 g/m*3 16.6 C 0 km/h
3072 08-06-2009 22:33:45 16.5 C 8.57 g/m*3 16.5 C 0 km/h
3073 08-06-2009 22:46:46 16.4 C 8.51 g/m*3 16.4 C 0 km/h
3074 08-06-2009 22:58:46 16.3 C 8.46 g/m*3 16.3 C 0 km/h
3075 08-06-2009 23:10:46 16.4 C 8.51 g/m*3 16.4 C 0 km/h
Sensor: Nr:Datum:Temp:Abs-Feuchte:Windchill:Wind:
Aussen-T/F 3076 08-06-2009 23:22:46 16.4 C 8.37 g/m*3 16.4 C 0 km/h
3077 08-06-2009 23:34:46 16.5 C 8.43 g/m*3 16.5 C 0 km/h
3078 08-06-2009 23:46:46 16.3 C 8.88 g/m*3 16.3 C 0 km/h
3079 08-06-2009 23:58:46 16 C 8.99 g/m*3 16 C 0 km/h
3080 09-06-2009 00:10:46 15.8 C 9.42 g/m*3 15.8 C 0 km/h
3081 09-06-2009 00:22:46 15.4 C 9.59 g/m*3 15.4 C 0 km/h
3082 09-06-2009 00:34:46 15.4 C 9.99 g/m*3 15.4 C 0 km/h
3083 09-06-2009 00:46:46 15 C 10 g/m*3 15 C 0 km/h
3084 09-06-2009 00:58:46 14.8 C 10.01 g/m*3 14.8 C 0 km/h
3085 09-06-2009 01:10:46 14.6 C 10.14 g/m*3 14.6 C 0 km/h
3086 09-06-2009 01:22:47 14.5 C 10.07 g/m*3 14.5 C 0 km/h
3087 09-06-2009 01:34:47 14.6 C 10.26 g/m*3 14.6 C 0 km/h
3088 09-06-2009 01:46:47 14.5 C 10.32 g/m*3 14.5 C 0 km/h
3089 09-06-2009 01:58:47 14.6 C 10.26 g/m*3 14.6 C 0 km/h
3090 09-06-2009 02:10:47 14.6 C 10.14 g/m*3 14.6 C 0 km/h
3091 09-06-2009 02:22:47 14.7 C 10.2 g/m*3 14.7 C 0 km/h
3092 09-06-2009 02:34:47 14.6 C 10.01 g/m*3 14.6 C 0 km/h
3093 09-06-2009 02:46:47 14.3 C 9.95 g/m*3 14.3 C 0 km/h
3094 09-06-2009 02:58:47 14.3 C 9.95 g/m*3 14.3 C 0 km/h
3095 09-06-2009 03:10:47 14.4 C 10.01 g/m*3 14.4 C 0 km/h
3096 09-06-2009 03:22:47 14.5 C 10.07 g/m*3 14.5 C 0 km/h
3097 09-06-2009 03:34:47 14.5 C 10.07 g/m*3 14.5 C 0 km/h
3098 09-06-2009 03:46:47 14.4 C 9.89 g/m*3 14.4 C 0 km/h
3099 09-06-2009 03:58:47 14.4 C 9.89 g/m*3 14.4 C 0 km/h
3100 09-06-2009 04:10:47 14.4 C 9.89 g/m*3 14.4 C 0 km/h
Sensor: Nr:Datum:Temp:Abs-Feuchte:Windchill:Wind:
Aussen-T/F 3101 09-06-2009 04:22:47 14.4 C 10.01 g/m*3 14.4 C 0 km/h
3102 09-06-2009 04:34:47 14.5 C 9.95 g/m*3 14.5 C 0 km/h
3103 09-06-2009 04:46:47 14.6 C 9.89 g/m*3 14.6 C 0 km/h
3104 09-06-2009 04:58:47 14.6 C 9.89 g/m*3 14.6 C 0 km/h
3105 09-06-2009 05:10:48 14.5 C 9.83 g/m*3 14.5 C 0 km/h
3106 09-06-2009 05:22:48 14.2 C 9.89 g/m*3 14.2 C 0 km/h
3107 09-06-2009 05:34:48 14.1 C 10.07 g/m*3 14.1 C 0 km/h
3108 09-06-2009 05:46:48 14 C 10.13 g/m*3 14 C 0 km/h
3109 09-06-2009 05:58:48 14.1 C 10.32 g/m*3 14.1 C 0 km/h
3110 09-06-2009 06:10:48 14 C 10.37 g/m*3 14 C 0 km/h
3111 09-06-2009 06:22:48 14.1 C 10.56 g/m*3 14.1 C 0 km/h
3112 09-06-2009 06:34:48 14.1 C 10.56 g/m*3 14.1 C 0 km/h
3113 09-06-2009 06:46:48 14.1 C 10.56 g/m*3 14.1 C 0 km/h
3114 09-06-2009 06:58:48 14.2 C 10.62 g/m*3 14.2 C 0 km/h
3115 09-06-2009 07:10:48 14.3 C 10.44 g/m*3 14.3 C 0 km/h
3116 09-06-2009 07:22:46 14.6 C 10.51 g/m*3 14.6 C 0 km/h
3117 09-06-2009 07:34:01 14.8 C 10.64 g/m*3 14.8 C 0 km/h
3118 09-06-2009 07:46:01 15 C 10.64 g/m*3 15 C 0 km/h
3119 09-06-2009 07:58:01 15 C 10.26 g/m*3 15 C 0 km/h
3120 09-06-2009 08:10:01 15.2 C 9.48 g/m*3 15.2 C 0 km/h
3121 09-06-2009 08:22:01 15.2 C 9.22 g/m*3 15.2 C 0 km/h
3122 09-06-2009 08:34:01 15.2 C 9.09 g/m*3 15.2 C 0 km/h
3123 09-06-2009 08:46:01 15.3 C 9.53 g/m*3 15.3 C 0 km/h
3124 09-06-2009 08:58:01 15.4 C 9.59 g/m*3 15.4 C 0 km/h
3125 09-06-2009 09:10:00 15.4 C 9.59 g/m*3 15.4 C 0 km/h
Sensor: Nr:Datum:Temp:Abs-Feuchte:Windchill:Wind:
Aussen-T/F 3126 09-06-2009 09:22:01 15.5 C 9.65 g/m*3 15.5 C 0 km/h
3127 09-06-2009 09:34:00 15.9 C 9.48 g/m*3 15.9 C 0 km/h
3128 09-06-2009 09:46:00 16.5 C 9.55 g/m*3 16.5 C 0 km/h
3129 09-06-2009 09:58:01 16.8 C 8.86 g/m*3 16.8 C 0 km/h
3130 09-06-2009 10:10:00 16.8 C 8.72 g/m*3 16.8 C 0 km/h
3131 09-06-2009 10:22:00 16.9 C 8.63 g/m*3 16.9 C 0 km/h
3132 09-06-2009 10:34:00 17.7 C 8.9 g/m*3 17.7 C 0 km/h
3133 09-06-2009 10:45:59 18.1 C 8.34 g/m*3 18.1 C 0 km/h
3134 09-06-2009 10:57:59 18.6 C 8.12 g/m*3 18.6 C 0 km/h
3135 09-06-2009 11:10:00 18.5 C 7.91 g/m*3 18.5 C 0 km/h
3136 09-06-2009 11:22:59 19.4 C 7.67 g/m*3 19.4 C 0 km/h
3137 09-06-2009 11:34:59 20.1 C 7.47 g/m*3 20.1 C 0 km/h
3138 09-06-2009 11:46:59 19.9 C 7.39 g/m*3 19.9 C 0 km/h
3139 09-06-2009 11:58:59 20.8 C 7.06 g/m*3 20.8 C 0 km/h
3140 09-06-2009 12:10:59 21.5 C 6.98 g/m*3 21.5 C 0 km/h
3141 09-06-2009 12:22:59 21.9 C 7.14 g/m*3 21.9 C 0 km/h
3142 09-06-2009 12:34:58 21.1 C 7 g/m*3 21.1 C 0 km/h
3143 09-06-2009 12:46:59 22.5 C 6.99 g/m*3 22.5 C 0 km/h
3144 09-06-2009 12:58:59 22.9 C 6.34 g/m*3 22.9 C 0 km/h
3145 09-06-2009 13:10:58 23.3 C 6.48 g/m*3 23.3 C 0 km/h
3146 09-06-2009 13:22:58 21.5 C 6.98 g/m*3 21.5 C 0 km/h
3147 09-06-2009 13:34:58 21.5 C 6.79 g/m*3 21.5 C 0 km/h
3148 09-06-2009 13:46:58 23.7 C 6.42 g/m*3 23.7 C 0 km/h
3149 09-06-2009 13:58:59 22.3 C 6.52 g/m*3 22.3 C 0 km/h
3150 09-06-2009 14:10:57 23.6 C 6.59 g/m*3 23.6 C 0 km/h
Sensor: Nr:Datum:Temp:Abs-Feuchte:Windchill:Wind:
Aussen-T/F 3151 09-06-2009 14:22:57 24.2 C 6.6 g/m*3 24.2 C 0 km/h
3152 09-06-2009 14:34:58 24.9 C 6.64 g/m*3 24.9 C 0 km/h
3153 09-06-2009 14:46:01 23.8 C 6.67 g/m*3 23.8 C 0 km/h
3154 09-06-2009 14:58:01 21.6 C 7.78 g/m*3 21.6 C 0 km/h
3155 09-06-2009 15:10:01 19.3 C 8.63 g/m*3 19.3 C 0 km/h
3156 09-06-2009 15:22:01 19.9 C 11.51 g/m*3 19.9 C 0 km/h
3157 09-06-2009 15:34:01 21.9 C 10.81 g/m*3 21.9 C 0 km/h
3158 09-06-2009 15:46:01 23.2 C 9.36 g/m*3 23.2 C 0 km/h
3159 09-06-2009 15:58:01 21.7 C 10.49 g/m*3 21.7 C 0 km/h
3160 09-06-2009 16:10:01 22.3 C 9.08 g/m*3 22.3 C 0 km/h
3161 09-06-2009 16:22:00 23.9 C 8.22 g/m*3 23.9 C 0 km/h
3162 09-06-2009 16:34:00 24.5 C 7.16 g/m*3 24.5 C 0 km/h
3163 09-06-2009 16:46:00 24.8 C 6.83 g/m*3 24.8 C 0 km/h
3164 09-06-2009 16:58:00 24.9 C 7.1 g/m*3 24.9 C 0 km/h
3165 09-06-2009 17:10:00 26.1 C 7.1 g/m*3 26.1 C 0 km/h
3166 09-06-2009 17:22:59 25.5 C 7.34 g/m*3 25.5 C 0 km/h
3167 09-06-2009 17:34:00 25.3 C 7.02 g/m*3 25.3 C 0 km/h
3168 09-06-2009 17:46:00 25.4 C 7.06 g/m*3 25.4 C 0 km/h
3169 09-06-2009 17:58:00 24.4 C 7.12 g/m*3 24.4 C 0 km/h
3170 09-06-2009 18:10:59 23.3 C 7.53 g/m*3 23.3 C 0 km/h
3171 09-06-2009 18:22:00 21.9 C 7.72 g/m*3 21.9 C 0 km/h
3172 09-06-2009 18:34:59 20 C 7.09 g/m*3 20 C 0 km/h
3173 09-06-2009 18:46:59 19.2 C 7.42 g/m*3 19.2 C 0 km/h
3174 09-06-2009 18:58:59 20.5 C 7.83 g/m*3 20.5 C 0 km/h
3175 09-06-2009 19:10:59 20.4 C 7.61 g/m*3 20.4 C 0 km/h
Sensor: Nr:Datum:Temp:Abs-Feuchte:Windchill:Wind:
Aussen-T/F 3176 09-06-2009 19:22:59 19.9 C 7.9 g/m*3 19.9 C 0 km/h
3177 09-06-2009 19:34:59 19.7 C 8.15 g/m*3 19.7 C 0 km/h
3178 09-06-2009 19:46:58 17.5 C 8.95 g/m*3 17.5 C 0 km/h
3179 09-06-2009 19:58:58 16.5 C 10.11 g/m*3 16.5 C 0 km/h
3180 09-06-2009 20:10:59 17.9 C 10.08 g/m*3 17.9 C 0 km/h
3181 09-06-2009 20:22:58 18.9 C 9.4 g/m*3 18.9 C 0 km/h
3182 09-06-2009 20:34:58 19.7 C 9 g/m*3 19.7 C 0 km/h
3183 09-06-2009 20:46:58 19.3 C 8.96 g/m*3 19.3 C 0 km/h
3184 09-06-2009 20:58:58 18.8 C 8.54 g/m*3 18.8 C 0 km/h
3185 09-06-2009 21:10:58 18.4 C 8.81 g/m*3 18.4 C 0 km/h
3186 09-06-2009 21:22:57 17.9 C 9.47 g/m*3 17.9 C 0 km/h
3187 09-06-2009 21:34:58 17.2 C 8.93 g/m*3 17.2 C 0 km/h
3188 09-06-2009 21:46:57 16.7 C 9.1 g/m*3 16.7 C 0 km/h
3189 09-06-2009 21:58:57 16.3 C 9.16 g/m*3 16.3 C 0 km/h
3190 09-06-2009 22:10:57 16 C 9.26 g/m*3 16 C 0 km/h
3191 09-06-2009 22:23:58 15.7 C 9.37 g/m*3 15.7 C 0 km/h
3192 09-06-2009 22:35:58 15.6 C 9.44 g/m*3 15.6 C 0 km/h
3193 09-06-2009 22:47:58 15.8 C 9.29 g/m*3 15.8 C 0 km/h
3194 09-06-2009 22:59:58 15.6 C 9.18 g/m*3 15.6 C 0 km/h
3195 09-06-2009 23:11:58 15.4 C 9.33 g/m*3 15.4 C 0 km/h
3196 09-06-2009 23:23:58 15.2 C 9.35 g/m*3 15.2 C 0 km/h
3197 09-06-2009 23:35:58 15 C 9.23 g/m*3 15 C 0 km/h
3198 09-06-2009 23:47:58 14.5 C 9.2 g/m*3 14.5 C 0 km/h
3199 09-06-2009 23:59:58 14.4 C 9.27 g/m*3 14.4 C 0 km/h
3200 10-06-2009 00:11:58 14.4 C 9.39 g/m*3 14.4 C 0 km/h
Sensor: Nr:Datum:Temp:Abs-Feuchte:Windchill:Wind:
Aussen-T/F 3201 10-06-2009 00:23:58 14 C 9.05 g/m*3 14 C 0 km/h
3202 10-06-2009 00:35:59 14 C 9.17 g/m*3 14 C 0 km/h
3203 10-06-2009 00:47:59 13.8 C 9.29 g/m*3 13.8 C 0 km/h
3204 10-06-2009 00:59:59 13.8 C 9.29 g/m*3 13.8 C 0 km/h
3205 10-06-2009 01:11:59 14 C 9.29 g/m*3 14 C 0 km/h
3206 10-06-2009 01:23:59 14.4 C 9.39 g/m*3 14.4 C 0 km/h
3207 10-06-2009 01:35:59 14.9 C 9.3 g/m*3 14.9 C 0 km/h
3208 10-06-2009 01:47:59 15.4 C 8.93 g/m*3 15.4 C 0 km/h
3209 10-06-2009 01:59:59 15.6 C 8.91 g/m*3 15.6 C 0 km/h
3210 10-06-2009 02:11:59 15.4 C 8.8 g/m*3 15.4 C 0 km/h
3211 10-06-2009 02:23:59 15.4 C 8.8 g/m*3 15.4 C 0 km/h
3212 10-06-2009 02:35:59 15.5 C 8.86 g/m*3 15.5 C 0 km/h
3213 10-06-2009 02:47:59 15.4 C 8.8 g/m*3 15.4 C 0 km/h
3214 10-06-2009 02:59:59 15.1 C 8.77 g/m*3 15.1 C 0 km/h
3215 10-06-2009 03:11:59 14.9 C 9.05 g/m*3 14.9 C 0 km/h
3216 10-06-2009 03:23:59 15 C 8.98 g/m*3 15 C 0 km/h
3217 10-06-2009 03:35:59 14.8 C 8.99 g/m*3 14.8 C 0 km/h
3218 10-06-2009 03:47:59 14.8 C 9.12 g/m*3 14.8 C 0 km/h
3219 10-06-2009 03:58:59 14.7 C 9.07 g/m*3 14.7 C 0 km/h
3220 10-06-2009 04:10:59 14.5 C 8.95 g/m*3 14.5 C 0 km/h
3221 10-06-2009 04:22:59 14.4 C 9.02 g/m*3 14.4 C 0 km/h
3222 10-06-2009 04:35:00 14.4 C 9.02 g/m*3 14.4 C 0 km/h
3223 10-06-2009 04:47:00 14.6 C 9.13 g/m*3 14.6 C 0 km/h
3224 10-06-2009 04:59:00 14.4 C 9.02 g/m*3 14.4 C 0 km/h
3225 10-06-2009 05:11:00 14.4 C 9.15 g/m*3 14.4 C 0 km/h
Sensor: Nr:Datum:Temp:Abs-Feuchte:Windchill:Wind:
Aussen-T/F 3226 10-06-2009 05:23:00 14.4 C